<?xml version="1.0" encoding="UTF-8" standalone="no" ?>
<gpx xmlns="http://www.topografix.com/GPX/1/1" xmlns:xsi="http://www.w3.org/2001/XMLSchema-instance" xsi:schemaLocation="http://www.topografix.com/GPX/1/1 http://www.topografix.com/GPX/1/1/gpx.xsd" version="1.1" creator="VisuGPX - https://www.visugpx.com">
  <metadata>
    <name>TOTAL 4x4 </name>
  </metadata>
  <wpt lat="42.36368" lon="2.84007">
    <ele>181</ele>
  </wpt>
  <wpt lat="42.36397" lon="2.83975">
    <ele>185.2</ele>
  </wpt>
  <wpt lat="42.36387" lon="2.83877">
    <ele>193</ele>
  </wpt>
  <wpt lat="42.36443" lon="2.83943">
    <ele>186.6</ele>
  </wpt>
  <wpt lat="42.2714" lon="2.52859">
    <ele>415.7</ele>
  </wpt>
  <wpt lat="42.27123" lon="2.52776">
    <ele>417.3</ele>
  </wpt>
  <wpt lat="42.27143" lon="2.53029">
    <ele>408.8</ele>
  </wpt>
  <trk>
    <name><![CDATA[TOTAL 4x4 _15]]></name>
    <extensions>
      <line xmlns="http://www.topografix.com/GPX/gpx_style/0/2">
        <color>00FFFF</color>
        <width>4</width>
      </line>
    </extensions>
    <trkseg>
      <trkpt lat="42.28075" lon="0.16091">
        <ele>614.54</ele>
        <time>2021-08-02T11:59:57Z</time>
      </trkpt>
      <trkpt lat="42.28063" lon="0.16082">
        <ele>615.23</ele>
        <time>2021-08-02T11:59:58Z</time>
      </trkpt>
      <trkpt lat="42.2803" lon="0.1605">
        <ele>617.68</ele>
        <time>2021-08-02T12:00:02Z</time>
      </trkpt>
      <trkpt lat="42.27997" lon="0.16029">
        <ele>619.52</ele>
        <time>2021-08-02T12:00:06Z</time>
      </trkpt>
      <trkpt lat="42.27908" lon="0.15993">
        <ele>623.37</ele>
        <time>2021-08-02T12:00:15Z</time>
      </trkpt>
      <trkpt lat="42.27865" lon="0.15967">
        <ele>626.3</ele>
        <time>2021-08-02T12:00:21Z</time>
      </trkpt>
      <trkpt lat="42.27861" lon="0.15964">
        <ele>629.02</ele>
        <time>2021-08-02T12:00:28Z</time>
      </trkpt>
      <trkpt lat="42.27861" lon="0.15964">
        <ele>630.13</ele>
        <time>2021-08-02T12:00:38Z</time>
      </trkpt>
      <trkpt lat="42.27799" lon="0.15954">
        <ele>631.94</ele>
        <time>2021-08-02T12:00:49Z</time>
      </trkpt>
      <trkpt lat="42.27742" lon="0.15977">
        <ele>634.09</ele>
        <time>2021-08-02T12:01:00Z</time>
      </trkpt>
      <trkpt lat="42.27737" lon="0.15979">
        <ele>634.37</ele>
        <time>2021-08-02T12:01:01Z</time>
      </trkpt>
      <trkpt lat="42.27714" lon="0.15991">
        <ele>637.93</ele>
        <time>2021-08-02T12:01:08Z</time>
      </trkpt>
      <trkpt lat="42.27704" lon="0.15975">
        <ele>640.54</ele>
        <time>2021-08-02T12:01:14Z</time>
      </trkpt>
      <trkpt lat="42.27702" lon="0.15963">
        <ele>641.62</ele>
        <time>2021-08-02T12:01:25Z</time>
      </trkpt>
      <trkpt lat="42.27686" lon="0.15942">
        <ele>641.77</ele>
        <time>2021-08-02T12:02:03Z</time>
      </trkpt>
      <trkpt lat="42.27634" lon="0.1588">
        <ele>642.94</ele>
        <time>2021-08-02T12:02:11Z</time>
      </trkpt>
      <trkpt lat="42.27614" lon="0.15849">
        <ele>643.47</ele>
        <time>2021-08-02T12:02:14Z</time>
      </trkpt>
      <trkpt lat="42.27555" lon="0.1579">
        <ele>646.92</ele>
        <time>2021-08-02T12:02:24Z</time>
      </trkpt>
      <trkpt lat="42.27543" lon="0.15785">
        <ele>648.63</ele>
        <time>2021-08-02T12:02:27Z</time>
      </trkpt>
      <trkpt lat="42.27515" lon="0.1577">
        <ele>650.81</ele>
        <time>2021-08-02T12:02:32Z</time>
      </trkpt>
      <trkpt lat="42.27495" lon="0.15747">
        <ele>653.46</ele>
        <time>2021-08-02T12:02:38Z</time>
      </trkpt>
      <trkpt lat="42.27484" lon="0.15732">
        <ele>654.8</ele>
        <time>2021-08-02T12:02:41Z</time>
      </trkpt>
      <trkpt lat="42.27463" lon="0.15707">
        <ele>658.72</ele>
        <time>2021-08-02T12:02:47Z</time>
      </trkpt>
      <trkpt lat="42.27458" lon="0.15698">
        <ele>659.9</ele>
        <time>2021-08-02T12:02:49Z</time>
      </trkpt>
      <trkpt lat="42.27432" lon="0.15688">
        <ele>663.7</ele>
        <time>2021-08-02T12:02:56Z</time>
      </trkpt>
      <trkpt lat="42.27397" lon="0.15681">
        <ele>667.72</ele>
        <time>2021-08-02T12:03:04Z</time>
      </trkpt>
      <trkpt lat="42.27353" lon="0.15666">
        <ele>671.31</ele>
        <time>2021-08-02T12:03:10Z</time>
      </trkpt>
      <trkpt lat="42.27339" lon="0.15664">
        <ele>673</ele>
        <time>2021-08-02T12:03:12Z</time>
      </trkpt>
      <trkpt lat="42.27323" lon="0.15657">
        <ele>674.87</ele>
        <time>2021-08-02T12:03:14Z</time>
      </trkpt>
      <trkpt lat="42.27295" lon="0.15654">
        <ele>679</ele>
        <time>2021-08-02T12:03:18Z</time>
      </trkpt>
      <trkpt lat="42.27277" lon="0.15647">
        <ele>682.32</ele>
        <time>2021-08-02T12:03:21Z</time>
      </trkpt>
      <trkpt lat="42.27254" lon="0.15637">
        <ele>686.31</ele>
        <time>2021-08-02T12:03:25Z</time>
      </trkpt>
      <trkpt lat="42.27231" lon="0.15636">
        <ele>691.33</ele>
        <time>2021-08-02T12:03:30Z</time>
      </trkpt>
      <trkpt lat="42.27227" lon="0.15636">
        <ele>692.35</ele>
        <time>2021-08-02T12:03:31Z</time>
      </trkpt>
      <trkpt lat="42.27197" lon="0.15643">
        <ele>696.02</ele>
        <time>2021-08-02T12:03:36Z</time>
      </trkpt>
      <trkpt lat="42.27178" lon="0.15645">
        <ele>698.33</ele>
        <time>2021-08-02T12:03:39Z</time>
      </trkpt>
      <trkpt lat="42.27165" lon="0.15647">
        <ele>699.54</ele>
        <time>2021-08-02T12:03:41Z</time>
      </trkpt>
      <trkpt lat="42.27143" lon="0.15661">
        <ele>702.13</ele>
        <time>2021-08-02T12:03:45Z</time>
      </trkpt>
      <trkpt lat="42.27123" lon="0.15684">
        <ele>703.6</ele>
        <time>2021-08-02T12:03:49Z</time>
      </trkpt>
      <trkpt lat="42.27097" lon="0.15705">
        <ele>704.31</ele>
        <time>2021-08-02T12:03:56Z</time>
      </trkpt>
      <trkpt lat="42.27095" lon="0.15702">
        <ele>705.02</ele>
        <time>2021-08-02T12:03:58Z</time>
      </trkpt>
      <trkpt lat="42.27076" lon="0.15693">
        <ele>708.43</ele>
        <time>2021-08-02T12:04:07Z</time>
      </trkpt>
      <trkpt lat="42.27055" lon="0.15677">
        <ele>711.58</ele>
        <time>2021-08-02T12:04:15Z</time>
      </trkpt>
      <trkpt lat="42.27038" lon="0.15665">
        <ele>714.61</ele>
        <time>2021-08-02T12:04:21Z</time>
      </trkpt>
      <trkpt lat="42.27022" lon="0.15651">
        <ele>718.1</ele>
        <time>2021-08-02T12:04:27Z</time>
      </trkpt>
      <trkpt lat="42.27009" lon="0.15635">
        <ele>721.16</ele>
        <time>2021-08-02T12:04:34Z</time>
      </trkpt>
      <trkpt lat="42.26993" lon="0.15625">
        <ele>722.82</ele>
        <time>2021-08-02T12:04:39Z</time>
      </trkpt>
      <trkpt lat="42.26977" lon="0.15592">
        <ele>724.19</ele>
        <time>2021-08-02T12:04:45Z</time>
      </trkpt>
      <trkpt lat="42.26962" lon="0.15567">
        <ele>726.15</ele>
        <time>2021-08-02T12:04:50Z</time>
      </trkpt>
      <trkpt lat="42.26944" lon="0.15557">
        <ele>729.1</ele>
        <time>2021-08-02T12:04:55Z</time>
      </trkpt>
      <trkpt lat="42.26919" lon="0.15548">
        <ele>732.18</ele>
        <time>2021-08-02T12:05:02Z</time>
      </trkpt>
      <trkpt lat="42.26916" lon="0.15553">
        <ele>732.72</ele>
        <time>2021-08-02T12:05:03Z</time>
      </trkpt>
      <trkpt lat="42.26901" lon="0.15571">
        <ele>736.14</ele>
        <time>2021-08-02T12:05:08Z</time>
      </trkpt>
      <trkpt lat="42.26886" lon="0.15559">
        <ele>738.12</ele>
        <time>2021-08-02T12:05:12Z</time>
      </trkpt>
      <trkpt lat="42.26849" lon="0.15521">
        <ele>739.8</ele>
        <time>2021-08-02T12:05:24Z</time>
      </trkpt>
      <trkpt lat="42.26834" lon="0.15502">
        <ele>739.79</ele>
        <time>2021-08-02T12:05:28Z</time>
      </trkpt>
      <trkpt lat="42.26819" lon="0.15474">
        <ele>737.89</ele>
        <time>2021-08-02T12:05:37Z</time>
      </trkpt>
      <trkpt lat="42.2679" lon="0.1545">
        <ele>735.44</ele>
        <time>2021-08-02T12:05:50Z</time>
      </trkpt>
      <trkpt lat="42.26751" lon="0.15431">
        <ele>734.56</ele>
        <time>2021-08-02T12:05:57Z</time>
      </trkpt>
      <trkpt lat="42.26702" lon="0.15377">
        <ele>736.31</ele>
        <time>2021-08-02T12:06:05Z</time>
      </trkpt>
      <trkpt lat="42.2669" lon="0.15366">
        <ele>736.21</ele>
        <time>2021-08-02T12:06:09Z</time>
      </trkpt>
      <trkpt lat="42.26681" lon="0.15362">
        <ele>736.04</ele>
        <time>2021-08-02T12:06:12Z</time>
      </trkpt>
      <trkpt lat="42.2666" lon="0.15365">
        <ele>736.34</ele>
        <time>2021-08-02T12:06:17Z</time>
      </trkpt>
      <trkpt lat="42.26646" lon="0.15375">
        <ele>737.23</ele>
        <time>2021-08-02T12:06:21Z</time>
      </trkpt>
      <trkpt lat="42.26608" lon="0.15382">
        <ele>740.65</ele>
        <time>2021-08-02T12:06:30Z</time>
      </trkpt>
      <trkpt lat="42.26595" lon="0.15382">
        <ele>742.2</ele>
        <time>2021-08-02T12:06:33Z</time>
      </trkpt>
      <trkpt lat="42.26582" lon="0.15385">
        <ele>743.81</ele>
        <time>2021-08-02T12:06:36Z</time>
      </trkpt>
      <trkpt lat="42.26562" lon="0.15374">
        <ele>746.9</ele>
        <time>2021-08-02T12:06:42Z</time>
      </trkpt>
      <trkpt lat="42.26557" lon="0.15369">
        <ele>747.74</ele>
        <time>2021-08-02T12:06:44Z</time>
      </trkpt>
      <trkpt lat="42.26544" lon="0.15372">
        <ele>748.8</ele>
        <time>2021-08-02T12:06:48Z</time>
      </trkpt>
      <trkpt lat="42.26512" lon="0.15384">
        <ele>751.85</ele>
        <time>2021-08-02T12:06:56Z</time>
      </trkpt>
      <trkpt lat="42.26502" lon="0.15394">
        <ele>753.16</ele>
        <time>2021-08-02T12:06:59Z</time>
      </trkpt>
      <trkpt lat="42.26493" lon="0.15406">
        <ele>755.1</ele>
        <time>2021-08-02T12:07:02Z</time>
      </trkpt>
      <trkpt lat="42.26474" lon="0.15418">
        <ele>758.22</ele>
        <time>2021-08-02T12:07:07Z</time>
      </trkpt>
      <trkpt lat="42.26459" lon="0.1541">
        <ele>760.42</ele>
        <time>2021-08-02T12:07:11Z</time>
      </trkpt>
      <trkpt lat="42.26443" lon="0.15401">
        <ele>762.77</ele>
        <time>2021-08-02T12:07:15Z</time>
      </trkpt>
      <trkpt lat="42.26399" lon="0.15386">
        <ele>766.53</ele>
        <time>2021-08-02T12:07:22Z</time>
      </trkpt>
      <trkpt lat="42.26386" lon="0.15383">
        <ele>767.76</ele>
        <time>2021-08-02T12:07:24Z</time>
      </trkpt>
      <trkpt lat="42.26358" lon="0.15358">
        <ele>771.48</ele>
        <time>2021-08-02T12:07:29Z</time>
      </trkpt>
      <trkpt lat="42.26317" lon="0.1533">
        <ele>775.86</ele>
        <time>2021-08-02T12:07:34Z</time>
      </trkpt>
      <trkpt lat="42.26289" lon="0.15323">
        <ele>778.87</ele>
        <time>2021-08-02T12:07:38Z</time>
      </trkpt>
      <trkpt lat="42.26275" lon="0.15325">
        <ele>780.52</ele>
        <time>2021-08-02T12:07:40Z</time>
      </trkpt>
      <trkpt lat="42.26243" lon="0.15312">
        <ele>785.79</ele>
        <time>2021-08-02T12:07:45Z</time>
      </trkpt>
      <trkpt lat="42.26215" lon="0.15298">
        <ele>791.52</ele>
        <time>2021-08-02T12:07:50Z</time>
      </trkpt>
      <trkpt lat="42.262" lon="0.15305">
        <ele>794.96</ele>
        <time>2021-08-02T12:07:53Z</time>
      </trkpt>
      <trkpt lat="42.26168" lon="0.15317">
        <ele>799.82</ele>
        <time>2021-08-02T12:07:59Z</time>
      </trkpt>
      <trkpt lat="42.26139" lon="0.15304">
        <ele>803.05</ele>
        <time>2021-08-02T12:08:05Z</time>
      </trkpt>
      <trkpt lat="42.26135" lon="0.15299">
        <ele>803.54</ele>
        <time>2021-08-02T12:08:06Z</time>
      </trkpt>
      <trkpt lat="42.26102" lon="0.15309">
        <ele>808.47</ele>
        <time>2021-08-02T12:08:13Z</time>
      </trkpt>
      <trkpt lat="42.26098" lon="0.15315">
        <ele>809.23</ele>
        <time>2021-08-02T12:08:14Z</time>
      </trkpt>
      <trkpt lat="42.26084" lon="0.15327">
        <ele>812.59</ele>
        <time>2021-08-02T12:08:18Z</time>
      </trkpt>
      <trkpt lat="42.2607" lon="0.15337">
        <ele>816.24</ele>
        <time>2021-08-02T12:08:22Z</time>
      </trkpt>
      <trkpt lat="42.26047" lon="0.15334">
        <ele>820.3</ele>
        <time>2021-08-02T12:08:28Z</time>
      </trkpt>
      <trkpt lat="42.26034" lon="0.15331">
        <ele>824.08</ele>
        <time>2021-08-02T12:08:33Z</time>
      </trkpt>
      <trkpt lat="42.26027" lon="0.1533">
        <ele>824.82</ele>
        <time>2021-08-02T12:08:35Z</time>
      </trkpt>
      <trkpt lat="42.26003" lon="0.15325">
        <ele>828.18</ele>
        <time>2021-08-02T12:08:40Z</time>
      </trkpt>
      <trkpt lat="42.25998" lon="0.15324">
        <ele>828.78</ele>
        <time>2021-08-02T12:08:41Z</time>
      </trkpt>
      <trkpt lat="42.2598" lon="0.15306">
        <ele>832.03</ele>
        <time>2021-08-02T12:08:46Z</time>
      </trkpt>
      <trkpt lat="42.25948" lon="0.15242">
        <ele>835.16</ele>
        <time>2021-08-02T12:08:53Z</time>
      </trkpt>
      <trkpt lat="42.25938" lon="0.15211">
        <ele>836.7</ele>
        <time>2021-08-02T12:08:56Z</time>
      </trkpt>
      <trkpt lat="42.25917" lon="0.15162">
        <ele>839.04</ele>
        <time>2021-08-02T12:09:01Z</time>
      </trkpt>
      <trkpt lat="42.25896" lon="0.15118">
        <ele>840.7</ele>
        <time>2021-08-02T12:09:07Z</time>
      </trkpt>
      <trkpt lat="42.25873" lon="0.15054">
        <ele>840.04</ele>
        <time>2021-08-02T12:09:13Z</time>
      </trkpt>
      <trkpt lat="42.2585" lon="0.14993">
        <ele>837.94</ele>
        <time>2021-08-02T12:09:18Z</time>
      </trkpt>
      <trkpt lat="42.25815" lon="0.1496">
        <ele>836.44</ele>
        <time>2021-08-02T12:09:25Z</time>
      </trkpt>
      <trkpt lat="42.25811" lon="0.14952">
        <ele>836.72</ele>
        <time>2021-08-02T12:09:27Z</time>
      </trkpt>
      <trkpt lat="42.25804" lon="0.14913">
        <ele>838.21</ele>
        <time>2021-08-02T12:09:32Z</time>
      </trkpt>
      <trkpt lat="42.25803" lon="0.14871">
        <ele>839.88</ele>
        <time>2021-08-02T12:09:36Z</time>
      </trkpt>
      <trkpt lat="42.25807" lon="0.14843">
        <ele>840.39</ele>
        <time>2021-08-02T12:09:39Z</time>
      </trkpt>
      <trkpt lat="42.25786" lon="0.14789">
        <ele>841.87</ele>
        <time>2021-08-02T12:09:46Z</time>
      </trkpt>
      <trkpt lat="42.25774" lon="0.14782">
        <ele>842.35</ele>
        <time>2021-08-02T12:09:48Z</time>
      </trkpt>
      <trkpt lat="42.25754" lon="0.14761">
        <ele>844.24</ele>
        <time>2021-08-02T12:09:53Z</time>
      </trkpt>
      <trkpt lat="42.25736" lon="0.14735">
        <ele>845.92</ele>
        <time>2021-08-02T12:09:57Z</time>
      </trkpt>
      <trkpt lat="42.25684" lon="0.14722">
        <ele>850</ele>
        <time>2021-08-02T12:10:04Z</time>
      </trkpt>
      <trkpt lat="42.25662" lon="0.14742">
        <ele>853.56</ele>
        <time>2021-08-02T12:10:08Z</time>
      </trkpt>
      <trkpt lat="42.25654" lon="0.14749">
        <ele>856.98</ele>
        <time>2021-08-02T12:10:11Z</time>
      </trkpt>
      <trkpt lat="42.25639" lon="0.14738">
        <ele>860.83</ele>
        <time>2021-08-02T12:10:15Z</time>
      </trkpt>
      <trkpt lat="42.2562" lon="0.14702">
        <ele>865.3</ele>
        <time>2021-08-02T12:10:20Z</time>
      </trkpt>
      <trkpt lat="42.25592" lon="0.14686">
        <ele>868.03</ele>
        <time>2021-08-02T12:10:24Z</time>
      </trkpt>
      <trkpt lat="42.25557" lon="0.14658">
        <ele>871.84</ele>
        <time>2021-08-02T12:10:30Z</time>
      </trkpt>
      <trkpt lat="42.25547" lon="0.14624">
        <ele>873.46</ele>
        <time>2021-08-02T12:10:33Z</time>
      </trkpt>
      <trkpt lat="42.25528" lon="0.14584">
        <ele>876.66</ele>
        <time>2021-08-02T12:10:38Z</time>
      </trkpt>
      <trkpt lat="42.25495" lon="0.14561">
        <ele>880.2</ele>
        <time>2021-08-02T12:10:42Z</time>
      </trkpt>
      <trkpt lat="42.25471" lon="0.14533">
        <ele>883.77</ele>
        <time>2021-08-02T12:10:46Z</time>
      </trkpt>
      <trkpt lat="42.25458" lon="0.14505">
        <ele>886.95</ele>
        <time>2021-08-02T12:10:49Z</time>
      </trkpt>
      <trkpt lat="42.25444" lon="0.14472">
        <ele>891.76</ele>
        <time>2021-08-02T12:10:53Z</time>
      </trkpt>
      <trkpt lat="42.25423" lon="0.14457">
        <ele>895.12</ele>
        <time>2021-08-02T12:10:56Z</time>
      </trkpt>
      <trkpt lat="42.2539" lon="0.14442">
        <ele>899.58</ele>
        <time>2021-08-02T12:11:00Z</time>
      </trkpt>
      <trkpt lat="42.25362" lon="0.1443">
        <ele>904.07</ele>
        <time>2021-08-02T12:11:04Z</time>
      </trkpt>
      <trkpt lat="42.25356" lon="0.14427">
        <ele>905.1</ele>
        <time>2021-08-02T12:11:05Z</time>
      </trkpt>
      <trkpt lat="42.25333" lon="0.14425">
        <ele>909.8</ele>
        <time>2021-08-02T12:11:09Z</time>
      </trkpt>
      <trkpt lat="42.25311" lon="0.14426">
        <ele>914.51</ele>
        <time>2021-08-02T12:11:13Z</time>
      </trkpt>
      <trkpt lat="42.25295" lon="0.14429">
        <ele>918.86</ele>
        <time>2021-08-02T12:11:17Z</time>
      </trkpt>
      <trkpt lat="42.25293" lon="0.14432">
        <ele>922.65</ele>
        <time>2021-08-02T12:11:21Z</time>
      </trkpt>
      <trkpt lat="42.25285" lon="0.14436">
        <ele>925.66</ele>
        <time>2021-08-02T12:11:26Z</time>
      </trkpt>
      <trkpt lat="42.25278" lon="0.14438">
        <ele>926.51</ele>
        <time>2021-08-02T12:11:28Z</time>
      </trkpt>
      <trkpt lat="42.25266" lon="0.14422">
        <ele>928.92</ele>
        <time>2021-08-02T12:11:33Z</time>
      </trkpt>
      <trkpt lat="42.25252" lon="0.14399">
        <ele>932.85</ele>
        <time>2021-08-02T12:11:39Z</time>
      </trkpt>
      <trkpt lat="42.25231" lon="0.14377">
        <ele>936.13</ele>
        <time>2021-08-02T12:11:44Z</time>
      </trkpt>
      <trkpt lat="42.25227" lon="0.14373">
        <ele>936.97</ele>
        <time>2021-08-02T12:11:45Z</time>
      </trkpt>
      <trkpt lat="42.25205" lon="0.14346">
        <ele>941.2</ele>
        <time>2021-08-02T12:11:50Z</time>
      </trkpt>
      <trkpt lat="42.25185" lon="0.1432">
        <ele>944.88</ele>
        <time>2021-08-02T12:11:54Z</time>
      </trkpt>
      <trkpt lat="42.25167" lon="0.14293">
        <ele>948.55</ele>
        <time>2021-08-02T12:11:58Z</time>
      </trkpt>
      <trkpt lat="42.25156" lon="0.14273">
        <ele>953.15</ele>
        <time>2021-08-02T12:12:01Z</time>
      </trkpt>
      <trkpt lat="42.25154" lon="0.14269">
        <ele>954.38</ele>
        <time>2021-08-02T12:12:02Z</time>
      </trkpt>
      <trkpt lat="42.25145" lon="0.1427">
        <ele>959.12</ele>
        <time>2021-08-02T12:12:06Z</time>
      </trkpt>
      <trkpt lat="42.25145" lon="0.14275">
        <ele>960.32</ele>
        <time>2021-08-02T12:12:07Z</time>
      </trkpt>
      <trkpt lat="42.25144" lon="0.14313">
        <ele>966.05</ele>
        <time>2021-08-02T12:12:13Z</time>
      </trkpt>
      <trkpt lat="42.25143" lon="0.14335">
        <ele>968.99</ele>
        <time>2021-08-02T12:12:17Z</time>
      </trkpt>
      <trkpt lat="42.25123" lon="0.14357">
        <ele>973.04</ele>
        <time>2021-08-02T12:12:24Z</time>
      </trkpt>
      <trkpt lat="42.25119" lon="0.14348">
        <ele>974.07</ele>
        <time>2021-08-02T12:12:26Z</time>
      </trkpt>
      <trkpt lat="42.25115" lon="0.14336">
        <ele>975.42</ele>
        <time>2021-08-02T12:12:28Z</time>
      </trkpt>
      <trkpt lat="42.25105" lon="0.14309">
        <ele>978.57</ele>
        <time>2021-08-02T12:12:33Z</time>
      </trkpt>
      <trkpt lat="42.25096" lon="0.14286">
        <ele>983.01</ele>
        <time>2021-08-02T12:12:38Z</time>
      </trkpt>
      <trkpt lat="42.25082" lon="0.14274">
        <ele>986.74</ele>
        <time>2021-08-02T12:12:42Z</time>
      </trkpt>
      <trkpt lat="42.25067" lon="0.14261">
        <ele>990.51</ele>
        <time>2021-08-02T12:12:46Z</time>
      </trkpt>
      <trkpt lat="42.25054" lon="0.14246">
        <ele>993.84</ele>
        <time>2021-08-02T12:12:50Z</time>
      </trkpt>
      <trkpt lat="42.2504" lon="0.1423">
        <ele>997.56</ele>
        <time>2021-08-02T12:12:54Z</time>
      </trkpt>
      <trkpt lat="42.25026" lon="0.14214">
        <ele>1001.11</ele>
        <time>2021-08-02T12:12:58Z</time>
      </trkpt>
      <trkpt lat="42.2501" lon="0.14191">
        <ele>1004.8</ele>
        <time>2021-08-02T12:13:03Z</time>
      </trkpt>
      <trkpt lat="42.25002" lon="0.14177">
        <ele>1007.92</ele>
        <time>2021-08-02T12:13:06Z</time>
      </trkpt>
      <trkpt lat="42.24993" lon="0.14163">
        <ele>1010.88</ele>
        <time>2021-08-02T12:13:09Z</time>
      </trkpt>
      <trkpt lat="42.24979" lon="0.14147">
        <ele>1014.84</ele>
        <time>2021-08-02T12:13:13Z</time>
      </trkpt>
      <trkpt lat="42.24971" lon="0.14141">
        <ele>1016.78</ele>
        <time>2021-08-02T12:13:15Z</time>
      </trkpt>
      <trkpt lat="42.24951" lon="0.14133">
        <ele>1021.57</ele>
        <time>2021-08-02T12:13:20Z</time>
      </trkpt>
      <trkpt lat="42.2493" lon="0.14122">
        <ele>1026.1</ele>
        <time>2021-08-02T12:13:25Z</time>
      </trkpt>
      <trkpt lat="42.24912" lon="0.1411">
        <ele>1029.8</ele>
        <time>2021-08-02T12:13:29Z</time>
      </trkpt>
      <trkpt lat="42.24894" lon="0.14093">
        <ele>1033.17</ele>
        <time>2021-08-02T12:13:33Z</time>
      </trkpt>
      <trkpt lat="42.24881" lon="0.14084">
        <ele>1037.35</ele>
        <time>2021-08-02T12:13:38Z</time>
      </trkpt>
      <trkpt lat="42.24877" lon="0.14082">
        <ele>1037.35</ele>
        <time>2021-08-02T12:13:39Z</time>
      </trkpt>
      <trkpt lat="42.24852" lon="0.14061">
        <ele>1040.6</ele>
        <time>2021-08-02T12:13:44Z</time>
      </trkpt>
      <trkpt lat="42.24838" lon="0.14044">
        <ele>1042.3</ele>
        <time>2021-08-02T12:13:47Z</time>
      </trkpt>
      <trkpt lat="42.24834" lon="0.14037">
        <ele>1042.85</ele>
        <time>2021-08-02T12:13:48Z</time>
      </trkpt>
      <trkpt lat="42.24832" lon="0.14031">
        <ele>1043.33</ele>
        <time>2021-08-02T12:13:49Z</time>
      </trkpt>
      <trkpt lat="42.24831" lon="0.14024">
        <ele>1043.73</ele>
        <time>2021-08-02T12:13:50Z</time>
      </trkpt>
      <trkpt lat="42.24831" lon="0.14017">
        <ele>1044.08</ele>
        <time>2021-08-02T12:13:51Z</time>
      </trkpt>
      <trkpt lat="42.24831" lon="0.14007">
        <ele>1044.55</ele>
        <time>2021-08-02T12:13:53Z</time>
      </trkpt>
      <trkpt lat="42.2483" lon="0.14003">
        <ele>1045.08</ele>
        <time>2021-08-02T12:14:06Z</time>
      </trkpt>
      <trkpt lat="42.2483" lon="0.14003">
        <ele>1046.12</ele>
        <time>2021-08-02T12:14:26Z</time>
      </trkpt>
      <trkpt lat="42.24837" lon="0.1401">
        <ele>1046.4</ele>
        <time>2021-08-02T12:17:30Z</time>
      </trkpt>
      <trkpt lat="42.24833" lon="0.14003">
        <ele>1046.4</ele>
        <time>2021-08-02T12:17:43Z</time>
      </trkpt>
      <trkpt lat="42.24829" lon="0.13999">
        <ele>1045.53</ele>
        <time>2021-08-02T12:17:50Z</time>
      </trkpt>
      <trkpt lat="42.24831" lon="0.14002">
        <ele>1044.18</ele>
        <time>2021-08-02T12:17:55Z</time>
      </trkpt>
      <trkpt lat="42.24831" lon="0.14026">
        <ele>1044.22</ele>
        <time>2021-08-02T12:18:01Z</time>
      </trkpt>
      <trkpt lat="42.24833" lon="0.14063">
        <ele>1044.53</ele>
        <time>2021-08-02T12:18:05Z</time>
      </trkpt>
      <trkpt lat="42.24832" lon="0.14073">
        <ele>1044.73</ele>
        <time>2021-08-02T12:18:06Z</time>
      </trkpt>
      <trkpt lat="42.2483" lon="0.14082">
        <ele>1045.05</ele>
        <time>2021-08-02T12:18:07Z</time>
      </trkpt>
      <trkpt lat="42.24818" lon="0.14117">
        <ele>1047.07</ele>
        <time>2021-08-02T12:18:11Z</time>
      </trkpt>
      <trkpt lat="42.248" lon="0.1416">
        <ele>1050.15</ele>
        <time>2021-08-02T12:18:16Z</time>
      </trkpt>
      <trkpt lat="42.24797" lon="0.14168">
        <ele>1050.88</ele>
        <time>2021-08-02T12:18:17Z</time>
      </trkpt>
      <trkpt lat="42.24797" lon="0.14174">
        <ele>1051.64</ele>
        <time>2021-08-02T12:18:18Z</time>
      </trkpt>
      <trkpt lat="42.24796" lon="0.14178">
        <ele>1052.34</ele>
        <time>2021-08-02T12:18:19Z</time>
      </trkpt>
      <trkpt lat="42.24796" lon="0.14186">
        <ele>1055.43</ele>
        <time>2021-08-02T12:18:25Z</time>
      </trkpt>
      <trkpt lat="42.24795" lon="0.14187">
        <ele>1057.15</ele>
        <time>2021-08-02T12:18:34Z</time>
      </trkpt>
      <trkpt lat="42.24795" lon="0.14186">
        <ele>1057.23</ele>
        <time>2021-08-02T12:18:35Z</time>
      </trkpt>
      <trkpt lat="42.24796" lon="0.14184">
        <ele>1057.31</ele>
        <time>2021-08-02T12:18:36Z</time>
      </trkpt>
      <trkpt lat="42.248" lon="0.1418">
        <ele>1057.96</ele>
        <time>2021-08-02T12:18:48Z</time>
      </trkpt>
      <trkpt lat="42.24802" lon="0.14182">
        <ele>1057.96</ele>
        <time>2021-08-02T12:18:49Z</time>
      </trkpt>
      <trkpt lat="42.24804" lon="0.14182">
        <ele>1057.95</ele>
        <time>2021-08-02T12:18:50Z</time>
      </trkpt>
      <trkpt lat="42.24806" lon="0.14182">
        <ele>1057.94</ele>
        <time>2021-08-02T12:18:51Z</time>
      </trkpt>
      <trkpt lat="42.24807" lon="0.14181">
        <ele>1057.92</ele>
        <time>2021-08-02T12:18:52Z</time>
      </trkpt>
      <trkpt lat="42.24805" lon="0.14182">
        <ele>1057.91</ele>
        <time>2021-08-02T12:18:54Z</time>
      </trkpt>
      <trkpt lat="42.24803" lon="0.14182">
        <ele>1057.91</ele>
        <time>2021-08-02T12:18:55Z</time>
      </trkpt>
      <trkpt lat="42.24802" lon="0.14183">
        <ele>1057.91</ele>
        <time>2021-08-02T12:18:56Z</time>
      </trkpt>
      <trkpt lat="42.248" lon="0.14184">
        <ele>1058.25</ele>
        <time>2021-08-02T12:19:17Z</time>
      </trkpt>
      <trkpt lat="42.248" lon="0.14184">
        <ele>1061.29</ele>
        <time>2021-08-02T12:20:06Z</time>
      </trkpt>
      <trkpt lat="42.248" lon="0.14184">
        <ele>1061.97</ele>
        <time>2021-08-02T12:24:08Z</time>
      </trkpt>
      <trkpt lat="42.248" lon="0.14184">
        <ele>1061.97</ele>
        <time>2021-08-02T12:27:11Z</time>
      </trkpt>
      <trkpt lat="42.248" lon="0.14184">
        <ele>1061.97</ele>
        <time>2021-08-02T12:30:28Z</time>
      </trkpt>
      <trkpt lat="42.248" lon="0.14184">
        <ele>1061.97</ele>
        <time>2021-08-02T12:31:30Z</time>
      </trkpt>
      <trkpt lat="42.24801" lon="0.14183">
        <ele>1061.97</ele>
        <time>2021-08-02T12:32:42Z</time>
      </trkpt>
      <trkpt lat="42.24801" lon="0.14182">
        <ele>1061.97</ele>
        <time>2021-08-02T12:33:39Z</time>
      </trkpt>
      <trkpt lat="42.24801" lon="0.14182">
        <ele>1061.97</ele>
        <time>2021-08-02T12:36:50Z</time>
      </trkpt>
      <trkpt lat="42.24801" lon="0.14183">
        <ele>1061.97</ele>
        <time>2021-08-02T12:38:54Z</time>
      </trkpt>
      <trkpt lat="42.24801" lon="0.14183">
        <ele>1061.97</ele>
        <time>2021-08-02T12:40:10Z</time>
      </trkpt>
      <trkpt lat="42.24801" lon="0.14183">
        <ele>1061.97</ele>
        <time>2021-08-02T12:42:37Z</time>
      </trkpt>
      <trkpt lat="42.248" lon="0.14183">
        <ele>1061.97</ele>
        <time>2021-08-02T12:44:12Z</time>
      </trkpt>
      <trkpt lat="42.248" lon="0.14184">
        <ele>1061.97</ele>
        <time>2021-08-02T12:49:07Z</time>
      </trkpt>
      <trkpt lat="42.24801" lon="0.14184">
        <ele>1061.97</ele>
        <time>2021-08-02T12:52:45Z</time>
      </trkpt>
      <trkpt lat="42.248" lon="0.14184">
        <ele>1061.97</ele>
        <time>2021-08-02T12:53:55Z</time>
      </trkpt>
      <trkpt lat="42.248" lon="0.14184">
        <ele>1061.97</ele>
        <time>2021-08-02T12:54:41Z</time>
      </trkpt>
      <trkpt lat="42.24799" lon="0.14184">
        <ele>1061.97</ele>
        <time>2021-08-02T12:56:14Z</time>
      </trkpt>
      <trkpt lat="42.24799" lon="0.14184">
        <ele>1061.97</ele>
        <time>2021-08-02T12:57:15Z</time>
      </trkpt>
      <trkpt lat="42.24799" lon="0.14185">
        <ele>1061.97</ele>
        <time>2021-08-02T12:58:06Z</time>
      </trkpt>
      <trkpt lat="42.24799" lon="0.14184">
        <ele>1061.97</ele>
        <time>2021-08-02T12:58:55Z</time>
      </trkpt>
      <trkpt lat="42.248" lon="0.14185">
        <ele>1061.97</ele>
        <time>2021-08-02T12:59:52Z</time>
      </trkpt>
      <trkpt lat="42.24799" lon="0.14185">
        <ele>1061.97</ele>
        <time>2021-08-02T13:00:35Z</time>
      </trkpt>
      <trkpt lat="42.248" lon="0.14185">
        <ele>1061.97</ele>
        <time>2021-08-02T13:01:28Z</time>
      </trkpt>
      <trkpt lat="42.248" lon="0.14185">
        <ele>1061.97</ele>
        <time>2021-08-02T13:02:12Z</time>
      </trkpt>
      <trkpt lat="42.248" lon="0.14185">
        <ele>1061.97</ele>
        <time>2021-08-02T13:03:23Z</time>
      </trkpt>
      <trkpt lat="42.248" lon="0.14185">
        <ele>1061.97</ele>
        <time>2021-08-02T13:05:17Z</time>
      </trkpt>
      <trkpt lat="42.24799" lon="0.14184">
        <ele>1061.97</ele>
        <time>2021-08-02T13:06:10Z</time>
      </trkpt>
      <trkpt lat="42.24799" lon="0.14184">
        <ele>1061.97</ele>
        <time>2021-08-02T13:07:30Z</time>
      </trkpt>
      <trkpt lat="42.24799" lon="0.14184">
        <ele>1061.97</ele>
        <time>2021-08-02T13:08:18Z</time>
      </trkpt>
      <trkpt lat="42.24799" lon="0.14183">
        <ele>1061.97</ele>
        <time>2021-08-02T13:09:38Z</time>
      </trkpt>
      <trkpt lat="42.24799" lon="0.14183">
        <ele>1061.97</ele>
        <time>2021-08-02T13:10:48Z</time>
      </trkpt>
      <trkpt lat="42.24799" lon="0.14184">
        <ele>1061.97</ele>
        <time>2021-08-02T13:12:53Z</time>
      </trkpt>
      <trkpt lat="42.24798" lon="0.14184">
        <ele>1061.97</ele>
        <time>2021-08-02T13:14:10Z</time>
      </trkpt>
      <trkpt lat="42.24798" lon="0.14184">
        <ele>1061.97</ele>
        <time>2021-08-02T13:15:36Z</time>
      </trkpt>
      <trkpt lat="42.24798" lon="0.14184">
        <ele>1061.97</ele>
        <time>2021-08-02T13:19:29Z</time>
      </trkpt>
      <trkpt lat="42.24799" lon="0.14184">
        <ele>1061.97</ele>
        <time>2021-08-02T13:23:21Z</time>
      </trkpt>
      <trkpt lat="42.24799" lon="0.14184">
        <ele>1061.97</ele>
        <time>2021-08-02T13:26:26Z</time>
      </trkpt>
      <trkpt lat="42.24799" lon="0.14184">
        <ele>1061.97</ele>
        <time>2021-08-02T13:31:30Z</time>
      </trkpt>
      <trkpt lat="42.24799" lon="0.14184">
        <ele>1061.97</ele>
        <time>2021-08-02T13:34:34Z</time>
      </trkpt>
      <trkpt lat="42.24799" lon="0.14184">
        <ele>1061.97</ele>
        <time>2021-08-02T13:35:30Z</time>
      </trkpt>
      <trkpt lat="42.24799" lon="0.14185">
        <ele>1061.97</ele>
        <time>2021-08-02T13:36:23Z</time>
      </trkpt>
      <trkpt lat="42.24799" lon="0.14184">
        <ele>1061.97</ele>
        <time>2021-08-02T13:37:40Z</time>
      </trkpt>
      <trkpt lat="42.24799" lon="0.14184">
        <ele>1061.97</ele>
        <time>2021-08-02T13:39:13Z</time>
      </trkpt>
      <trkpt lat="42.24801" lon="0.14184">
        <ele>1061.97</ele>
        <time>2021-08-02T13:40:18Z</time>
      </trkpt>
      <trkpt lat="42.24802" lon="0.14182">
        <ele>1061.97</ele>
        <time>2021-08-02T13:40:19Z</time>
      </trkpt>
      <trkpt lat="42.24804" lon="0.14181">
        <ele>1061.97</ele>
        <time>2021-08-02T13:40:20Z</time>
      </trkpt>
      <trkpt lat="42.24804" lon="0.14179">
        <ele>1061.97</ele>
        <time>2021-08-02T13:40:21Z</time>
      </trkpt>
      <trkpt lat="42.24805" lon="0.14177">
        <ele>1062.04</ele>
        <time>2021-08-02T13:40:22Z</time>
      </trkpt>
      <trkpt lat="42.24804" lon="0.14176">
        <ele>1062.2</ele>
        <time>2021-08-02T13:40:23Z</time>
      </trkpt>
      <trkpt lat="42.24804" lon="0.14174">
        <ele>1062.33</ele>
        <time>2021-08-02T13:40:24Z</time>
      </trkpt>
      <trkpt lat="42.24804" lon="0.14178">
        <ele>1062.43</ele>
        <time>2021-08-02T13:40:28Z</time>
      </trkpt>
      <trkpt lat="42.24805" lon="0.14179">
        <ele>1062.39</ele>
        <time>2021-08-02T13:40:29Z</time>
      </trkpt>
      <trkpt lat="42.24805" lon="0.14179">
        <ele>1061.75</ele>
        <time>2021-08-02T13:40:48Z</time>
      </trkpt>
      <trkpt lat="42.24804" lon="0.14178">
        <ele>1061.59</ele>
        <time>2021-08-02T13:41:20Z</time>
      </trkpt>
      <trkpt lat="42.24798" lon="0.14177">
        <ele>1061.47</ele>
        <time>2021-08-02T13:41:24Z</time>
      </trkpt>
      <trkpt lat="42.24797" lon="0.14175">
        <ele>1061.46</ele>
        <time>2021-08-02T13:41:25Z</time>
      </trkpt>
      <trkpt lat="42.24797" lon="0.14172">
        <ele>1061.45</ele>
        <time>2021-08-02T13:41:26Z</time>
      </trkpt>
      <trkpt lat="42.24797" lon="0.14169">
        <ele>1061.45</ele>
        <time>2021-08-02T13:41:27Z</time>
      </trkpt>
      <trkpt lat="42.24797" lon="0.14166">
        <ele>1061.45</ele>
        <time>2021-08-02T13:41:28Z</time>
      </trkpt>
      <trkpt lat="42.24798" lon="0.14163">
        <ele>1061.45</ele>
        <time>2021-08-02T13:41:29Z</time>
      </trkpt>
      <trkpt lat="42.24799" lon="0.14159">
        <ele>1061.42</ele>
        <time>2021-08-02T13:41:30Z</time>
      </trkpt>
      <trkpt lat="42.24801" lon="0.14156">
        <ele>1061.35</ele>
        <time>2021-08-02T13:41:31Z</time>
      </trkpt>
      <trkpt lat="42.24802" lon="0.14152">
        <ele>1061.25</ele>
        <time>2021-08-02T13:41:32Z</time>
      </trkpt>
      <trkpt lat="42.24804" lon="0.14148">
        <ele>1061.14</ele>
        <time>2021-08-02T13:41:33Z</time>
      </trkpt>
      <trkpt lat="42.24805" lon="0.14144">
        <ele>1061.03</ele>
        <time>2021-08-02T13:41:34Z</time>
      </trkpt>
      <trkpt lat="42.24821" lon="0.14107">
        <ele>1057.89</ele>
        <time>2021-08-02T13:41:44Z</time>
      </trkpt>
      <trkpt lat="42.24833" lon="0.14061">
        <ele>1054.76</ele>
        <time>2021-08-02T13:41:54Z</time>
      </trkpt>
      <trkpt lat="42.24829" lon="0.14016">
        <ele>1051.63</ele>
        <time>2021-08-02T13:42:01Z</time>
      </trkpt>
      <trkpt lat="42.24813" lon="0.13939">
        <ele>1048.62</ele>
        <time>2021-08-02T13:42:12Z</time>
      </trkpt>
      <trkpt lat="42.24808" lon="0.13901">
        <ele>1048.23</ele>
        <time>2021-08-02T13:42:18Z</time>
      </trkpt>
      <trkpt lat="42.24799" lon="0.13878">
        <ele>1046.11</ele>
        <time>2021-08-02T13:42:26Z</time>
      </trkpt>
      <trkpt lat="42.24797" lon="0.13887">
        <ele>1045.37</ele>
        <time>2021-08-02T13:42:28Z</time>
      </trkpt>
      <trkpt lat="42.24789" lon="0.13975">
        <ele>1043.13</ele>
        <time>2021-08-02T13:42:41Z</time>
      </trkpt>
      <trkpt lat="42.2479" lon="0.13996">
        <ele>1042.57</ele>
        <time>2021-08-02T13:42:44Z</time>
      </trkpt>
      <trkpt lat="42.24775" lon="0.14048">
        <ele>1040.07</ele>
        <time>2021-08-02T13:42:51Z</time>
      </trkpt>
      <trkpt lat="42.24734" lon="0.14099">
        <ele>1037.08</ele>
        <time>2021-08-02T13:43:00Z</time>
      </trkpt>
      <trkpt lat="42.24652" lon="0.14141">
        <ele>1033.84</ele>
        <time>2021-08-02T13:43:12Z</time>
      </trkpt>
      <trkpt lat="42.24591" lon="0.14169">
        <ele>1034.92</ele>
        <time>2021-08-02T13:43:21Z</time>
      </trkpt>
      <trkpt lat="42.24576" lon="0.14184">
        <ele>1036.09</ele>
        <time>2021-08-02T13:43:24Z</time>
      </trkpt>
      <trkpt lat="42.24543" lon="0.14273">
        <ele>1036.25</ele>
        <time>2021-08-02T13:43:36Z</time>
      </trkpt>
      <trkpt lat="42.24539" lon="0.14292">
        <ele>1035.16</ele>
        <time>2021-08-02T13:43:38Z</time>
      </trkpt>
      <trkpt lat="42.24543" lon="0.14368">
        <ele>1031.32</ele>
        <time>2021-08-02T13:43:45Z</time>
      </trkpt>
      <trkpt lat="42.24548" lon="0.14386">
        <ele>1030.54</ele>
        <time>2021-08-02T13:43:47Z</time>
      </trkpt>
      <trkpt lat="42.24553" lon="0.14402">
        <ele>1029.68</ele>
        <time>2021-08-02T13:43:49Z</time>
      </trkpt>
      <trkpt lat="42.24557" lon="0.1444">
        <ele>1027.97</ele>
        <time>2021-08-02T13:43:53Z</time>
      </trkpt>
      <trkpt lat="42.24557" lon="0.14471">
        <ele>1026.4</ele>
        <time>2021-08-02T13:43:56Z</time>
      </trkpt>
      <trkpt lat="42.24544" lon="0.14519">
        <ele>1022.33</ele>
        <time>2021-08-02T13:44:02Z</time>
      </trkpt>
      <trkpt lat="42.24525" lon="0.14554">
        <ele>1017.71</ele>
        <time>2021-08-02T13:44:07Z</time>
      </trkpt>
      <trkpt lat="42.2451" lon="0.14588">
        <ele>1014.06</ele>
        <time>2021-08-02T13:44:11Z</time>
      </trkpt>
      <trkpt lat="42.24502" lon="0.14632">
        <ele>1009.49</ele>
        <time>2021-08-02T13:44:16Z</time>
      </trkpt>
      <trkpt lat="42.24502" lon="0.14641">
        <ele>1008.61</ele>
        <time>2021-08-02T13:44:17Z</time>
      </trkpt>
      <trkpt lat="42.24504" lon="0.14665">
        <ele>1005.99</ele>
        <time>2021-08-02T13:44:20Z</time>
      </trkpt>
      <trkpt lat="42.24492" lon="0.147">
        <ele>1002.35</ele>
        <time>2021-08-02T13:44:26Z</time>
      </trkpt>
      <trkpt lat="42.24482" lon="0.14703">
        <ele>1001.51</ele>
        <time>2021-08-02T13:44:28Z</time>
      </trkpt>
      <trkpt lat="42.2444" lon="0.14691">
        <ele>996.9</ele>
        <time>2021-08-02T13:44:37Z</time>
      </trkpt>
      <trkpt lat="42.24414" lon="0.14673">
        <ele>993.8</ele>
        <time>2021-08-02T13:44:42Z</time>
      </trkpt>
      <trkpt lat="42.24396" lon="0.14653">
        <ele>991.36</ele>
        <time>2021-08-02T13:44:46Z</time>
      </trkpt>
      <trkpt lat="42.24384" lon="0.14633">
        <ele>988.88</ele>
        <time>2021-08-02T13:44:50Z</time>
      </trkpt>
      <trkpt lat="42.24372" lon="0.14595">
        <ele>984.94</ele>
        <time>2021-08-02T13:44:58Z</time>
      </trkpt>
      <trkpt lat="42.24379" lon="0.14558">
        <ele>982.27</ele>
        <time>2021-08-02T13:45:07Z</time>
      </trkpt>
      <trkpt lat="42.24379" lon="0.14546">
        <ele>981.4</ele>
        <time>2021-08-02T13:45:12Z</time>
      </trkpt>
      <trkpt lat="42.24366" lon="0.14546">
        <ele>980.55</ele>
        <time>2021-08-02T13:45:17Z</time>
      </trkpt>
      <trkpt lat="42.24352" lon="0.14558">
        <ele>979.96</ele>
        <time>2021-08-02T13:45:20Z</time>
      </trkpt>
      <trkpt lat="42.24299" lon="0.146">
        <ele>976.77</ele>
        <time>2021-08-02T13:45:28Z</time>
      </trkpt>
      <trkpt lat="42.24275" lon="0.14629">
        <ele>973.56</ele>
        <time>2021-08-02T13:45:32Z</time>
      </trkpt>
      <trkpt lat="42.24254" lon="0.14662">
        <ele>969.64</ele>
        <time>2021-08-02T13:45:36Z</time>
      </trkpt>
      <trkpt lat="42.24243" lon="0.1471">
        <ele>965.02</ele>
        <time>2021-08-02T13:45:41Z</time>
      </trkpt>
      <trkpt lat="42.24245" lon="0.14718">
        <ele>964.04</ele>
        <time>2021-08-02T13:45:42Z</time>
      </trkpt>
      <trkpt lat="42.24243" lon="0.1476">
        <ele>958.98</ele>
        <time>2021-08-02T13:45:47Z</time>
      </trkpt>
      <trkpt lat="42.24229" lon="0.14785">
        <ele>954.94</ele>
        <time>2021-08-02T13:45:51Z</time>
      </trkpt>
      <trkpt lat="42.24209" lon="0.14812">
        <ele>949.34</ele>
        <time>2021-08-02T13:45:56Z</time>
      </trkpt>
      <trkpt lat="42.24196" lon="0.14831">
        <ele>945.89</ele>
        <time>2021-08-02T13:45:59Z</time>
      </trkpt>
      <trkpt lat="42.24191" lon="0.14838">
        <ele>944.76</ele>
        <time>2021-08-02T13:46:00Z</time>
      </trkpt>
      <trkpt lat="42.24176" lon="0.14871">
        <ele>940.55</ele>
        <time>2021-08-02T13:46:04Z</time>
      </trkpt>
      <trkpt lat="42.2417" lon="0.14888">
        <ele>938.4</ele>
        <time>2021-08-02T13:46:06Z</time>
      </trkpt>
      <trkpt lat="42.24155" lon="0.14906">
        <ele>934.2</ele>
        <time>2021-08-02T13:46:09Z</time>
      </trkpt>
      <trkpt lat="42.24128" lon="0.14908">
        <ele>930.54</ele>
        <time>2021-08-02T13:46:13Z</time>
      </trkpt>
      <trkpt lat="42.24121" lon="0.14906">
        <ele>929.76</ele>
        <time>2021-08-02T13:46:14Z</time>
      </trkpt>
      <trkpt lat="42.24093" lon="0.14896">
        <ele>925.59</ele>
        <time>2021-08-02T13:46:19Z</time>
      </trkpt>
      <trkpt lat="42.2409" lon="0.14875">
        <ele>921.75</ele>
        <time>2021-08-02T13:46:24Z</time>
      </trkpt>
      <trkpt lat="42.24107" lon="0.14858">
        <ele>918.44</ele>
        <time>2021-08-02T13:46:29Z</time>
      </trkpt>
      <trkpt lat="42.24087" lon="0.14827">
        <ele>915.28</ele>
        <time>2021-08-02T13:46:36Z</time>
      </trkpt>
      <trkpt lat="42.24059" lon="0.14824">
        <ele>913.33</ele>
        <time>2021-08-02T13:46:40Z</time>
      </trkpt>
      <trkpt lat="42.24018" lon="0.14798">
        <ele>909.43</ele>
        <time>2021-08-02T13:46:46Z</time>
      </trkpt>
      <trkpt lat="42.23984" lon="0.14809">
        <ele>908.05</ele>
        <time>2021-08-02T13:46:52Z</time>
      </trkpt>
      <trkpt lat="42.23961" lon="0.14792">
        <ele>907.92</ele>
        <time>2021-08-02T13:46:57Z</time>
      </trkpt>
      <trkpt lat="42.23955" lon="0.14778">
        <ele>908.1</ele>
        <time>2021-08-02T13:46:59Z</time>
      </trkpt>
      <trkpt lat="42.23911" lon="0.14765">
        <ele>908.37</ele>
        <time>2021-08-02T13:47:05Z</time>
      </trkpt>
      <trkpt lat="42.23901" lon="0.14762">
        <ele>908.36</ele>
        <time>2021-08-02T13:47:06Z</time>
      </trkpt>
      <trkpt lat="42.2388" lon="0.14754">
        <ele>908.18</ele>
        <time>2021-08-02T13:47:08Z</time>
      </trkpt>
      <trkpt lat="42.23831" lon="0.1472">
        <ele>907.31</ele>
        <time>2021-08-02T13:47:13Z</time>
      </trkpt>
      <trkpt lat="42.23815" lon="0.14696">
        <ele>907.26</ele>
        <time>2021-08-02T13:47:15Z</time>
      </trkpt>
      <trkpt lat="42.23781" lon="0.14665">
        <ele>907.63</ele>
        <time>2021-08-02T13:47:19Z</time>
      </trkpt>
      <trkpt lat="42.23766" lon="0.14652">
        <ele>907.68</ele>
        <time>2021-08-02T13:47:21Z</time>
      </trkpt>
      <trkpt lat="42.2371" lon="0.14655">
        <ele>906.08</ele>
        <time>2021-08-02T13:47:27Z</time>
      </trkpt>
      <trkpt lat="42.23666" lon="0.14644">
        <ele>903.27</ele>
        <time>2021-08-02T13:47:32Z</time>
      </trkpt>
      <trkpt lat="42.23582" lon="0.14545">
        <ele>900.46</ele>
        <time>2021-08-02T13:47:42Z</time>
      </trkpt>
      <trkpt lat="42.23538" lon="0.1448">
        <ele>900.07</ele>
        <time>2021-08-02T13:47:48Z</time>
      </trkpt>
      <trkpt lat="42.2347" lon="0.14409">
        <ele>898.27</ele>
        <time>2021-08-02T13:47:56Z</time>
      </trkpt>
      <trkpt lat="42.23427" lon="0.14383">
        <ele>893.88</ele>
        <time>2021-08-02T13:48:02Z</time>
      </trkpt>
      <trkpt lat="42.23406" lon="0.14359">
        <ele>889.31</ele>
        <time>2021-08-02T13:48:07Z</time>
      </trkpt>
      <trkpt lat="42.23398" lon="0.14351">
        <ele>887.63</ele>
        <time>2021-08-02T13:48:09Z</time>
      </trkpt>
      <trkpt lat="42.23372" lon="0.14339">
        <ele>883.26</ele>
        <time>2021-08-02T13:48:14Z</time>
      </trkpt>
      <trkpt lat="42.23352" lon="0.14335">
        <ele>881</ele>
        <time>2021-08-02T13:48:17Z</time>
      </trkpt>
      <trkpt lat="42.23333" lon="0.14336">
        <ele>878.44</ele>
        <time>2021-08-02T13:48:20Z</time>
      </trkpt>
      <trkpt lat="42.23321" lon="0.1434">
        <ele>876.52</ele>
        <time>2021-08-02T13:48:22Z</time>
      </trkpt>
      <trkpt lat="42.23291" lon="0.14361">
        <ele>873.41</ele>
        <time>2021-08-02T13:48:26Z</time>
      </trkpt>
      <trkpt lat="42.23232" lon="0.14379">
        <ele>869.51</ele>
        <time>2021-08-02T13:48:31Z</time>
      </trkpt>
      <trkpt lat="42.23206" lon="0.1438">
        <ele>868.15</ele>
        <time>2021-08-02T13:48:33Z</time>
      </trkpt>
      <trkpt lat="42.23155" lon="0.14409">
        <ele>865.2</ele>
        <time>2021-08-02T13:48:38Z</time>
      </trkpt>
      <trkpt lat="42.23068" lon="0.14432">
        <ele>861.56</ele>
        <time>2021-08-02T13:48:46Z</time>
      </trkpt>
      <trkpt lat="42.23057" lon="0.14426">
        <ele>861.18</ele>
        <time>2021-08-02T13:48:47Z</time>
      </trkpt>
      <trkpt lat="42.23033" lon="0.14414">
        <ele>860.43</ele>
        <time>2021-08-02T13:48:49Z</time>
      </trkpt>
      <trkpt lat="42.22981" lon="0.1442">
        <ele>860.04</ele>
        <time>2021-08-02T13:48:54Z</time>
      </trkpt>
      <trkpt lat="42.22956" lon="0.14434">
        <ele>860.68</ele>
        <time>2021-08-02T13:48:57Z</time>
      </trkpt>
      <trkpt lat="42.22926" lon="0.14416">
        <ele>862.95</ele>
        <time>2021-08-02T13:49:01Z</time>
      </trkpt>
      <trkpt lat="42.22902" lon="0.144">
        <ele>866</ele>
        <time>2021-08-02T13:49:06Z</time>
      </trkpt>
      <trkpt lat="42.2288" lon="0.14403">
        <ele>868.46</ele>
        <time>2021-08-02T13:49:10Z</time>
      </trkpt>
      <trkpt lat="42.22829" lon="0.14381">
        <ele>872.5</ele>
        <time>2021-08-02T13:49:17Z</time>
      </trkpt>
      <trkpt lat="42.228" lon="0.14345">
        <ele>875.34</ele>
        <time>2021-08-02T13:49:21Z</time>
      </trkpt>
      <trkpt lat="42.22779" lon="0.14328">
        <ele>876.67</ele>
        <time>2021-08-02T13:49:24Z</time>
      </trkpt>
      <trkpt lat="42.22772" lon="0.14325">
        <ele>876.86</ele>
        <time>2021-08-02T13:49:25Z</time>
      </trkpt>
      <trkpt lat="42.22757" lon="0.14318">
        <ele>876.9</ele>
        <time>2021-08-02T13:49:27Z</time>
      </trkpt>
      <trkpt lat="42.22737" lon="0.14303">
        <ele>876.16</ele>
        <time>2021-08-02T13:49:30Z</time>
      </trkpt>
      <trkpt lat="42.22685" lon="0.14307">
        <ele>872.86</ele>
        <time>2021-08-02T13:49:38Z</time>
      </trkpt>
      <trkpt lat="42.22667" lon="0.14307">
        <ele>871.8</ele>
        <time>2021-08-02T13:49:40Z</time>
      </trkpt>
      <trkpt lat="42.22648" lon="0.14303">
        <ele>870.37</ele>
        <time>2021-08-02T13:49:42Z</time>
      </trkpt>
      <trkpt lat="42.22595" lon="0.14315">
        <ele>868.01</ele>
        <time>2021-08-02T13:49:48Z</time>
      </trkpt>
      <trkpt lat="42.22536" lon="0.1435">
        <ele>865.44</ele>
        <time>2021-08-02T13:49:54Z</time>
      </trkpt>
      <trkpt lat="42.22478" lon="0.14345">
        <ele>862.51</ele>
        <time>2021-08-02T13:49:59Z</time>
      </trkpt>
      <trkpt lat="42.22456" lon="0.14336">
        <ele>861.24</ele>
        <time>2021-08-02T13:50:01Z</time>
      </trkpt>
      <trkpt lat="42.22383" lon="0.1433">
        <ele>857.17</ele>
        <time>2021-08-02T13:50:09Z</time>
      </trkpt>
      <trkpt lat="42.22375" lon="0.14328">
        <ele>856.64</ele>
        <time>2021-08-02T13:50:10Z</time>
      </trkpt>
      <trkpt lat="42.22317" lon="0.14326">
        <ele>852.24</ele>
        <time>2021-08-02T13:50:16Z</time>
      </trkpt>
      <trkpt lat="42.22272" lon="0.1433">
        <ele>848.45</ele>
        <time>2021-08-02T13:50:20Z</time>
      </trkpt>
      <trkpt lat="42.2224" lon="0.14337">
        <ele>844.83</ele>
        <time>2021-08-02T13:50:23Z</time>
      </trkpt>
      <trkpt lat="42.22208" lon="0.14351">
        <ele>841.46</ele>
        <time>2021-08-02T13:50:26Z</time>
      </trkpt>
      <trkpt lat="42.22187" lon="0.14362">
        <ele>839.2</ele>
        <time>2021-08-02T13:50:28Z</time>
      </trkpt>
      <trkpt lat="42.22142" lon="0.14378">
        <ele>834.17</ele>
        <time>2021-08-02T13:50:32Z</time>
      </trkpt>
      <trkpt lat="42.2211" lon="0.14379">
        <ele>830.82</ele>
        <time>2021-08-02T13:50:35Z</time>
      </trkpt>
      <trkpt lat="42.22064" lon="0.14359">
        <ele>827.24</ele>
        <time>2021-08-02T13:50:40Z</time>
      </trkpt>
      <trkpt lat="42.22027" lon="0.14359">
        <ele>826.51</ele>
        <time>2021-08-02T13:50:44Z</time>
      </trkpt>
      <trkpt lat="42.21936" lon="0.14381">
        <ele>827.69</ele>
        <time>2021-08-02T13:50:54Z</time>
      </trkpt>
      <trkpt lat="42.21863" lon="0.14408">
        <ele>828.92</ele>
        <time>2021-08-02T13:51:03Z</time>
      </trkpt>
      <trkpt lat="42.21842" lon="0.14439">
        <ele>827.94</ele>
        <time>2021-08-02T13:51:07Z</time>
      </trkpt>
      <trkpt lat="42.21784" lon="0.14473">
        <ele>824.1</ele>
        <time>2021-08-02T13:51:14Z</time>
      </trkpt>
      <trkpt lat="42.21754" lon="0.14473">
        <ele>822.3</ele>
        <time>2021-08-02T13:51:17Z</time>
      </trkpt>
      <trkpt lat="42.21676" lon="0.14482">
        <ele>819.22</ele>
        <time>2021-08-02T13:51:26Z</time>
      </trkpt>
      <trkpt lat="42.21563" lon="0.14407">
        <ele>818.03</ele>
        <time>2021-08-02T13:51:38Z</time>
      </trkpt>
      <trkpt lat="42.21511" lon="0.14363">
        <ele>821.02</ele>
        <time>2021-08-02T13:51:45Z</time>
      </trkpt>
      <trkpt lat="42.21496" lon="0.14353">
        <ele>821.66</ele>
        <time>2021-08-02T13:51:47Z</time>
      </trkpt>
      <trkpt lat="42.21469" lon="0.14329">
        <ele>821.97</ele>
        <time>2021-08-02T13:51:51Z</time>
      </trkpt>
      <trkpt lat="42.21427" lon="0.14317">
        <ele>821.19</ele>
        <time>2021-08-02T13:51:56Z</time>
      </trkpt>
      <trkpt lat="42.2137" lon="0.14333">
        <ele>817.59</ele>
        <time>2021-08-02T13:52:03Z</time>
      </trkpt>
      <trkpt lat="42.21335" lon="0.14346">
        <ele>814.81</ele>
        <time>2021-08-02T13:52:07Z</time>
      </trkpt>
      <trkpt lat="42.21289" lon="0.14346">
        <ele>811.01</ele>
        <time>2021-08-02T13:52:12Z</time>
      </trkpt>
      <trkpt lat="42.21254" lon="0.14342">
        <ele>807.79</ele>
        <time>2021-08-02T13:52:16Z</time>
      </trkpt>
      <trkpt lat="42.21239" lon="0.14339">
        <ele>806.16</ele>
        <time>2021-08-02T13:52:18Z</time>
      </trkpt>
      <trkpt lat="42.21203" lon="0.14319">
        <ele>802.33</ele>
        <time>2021-08-02T13:52:23Z</time>
      </trkpt>
      <trkpt lat="42.21196" lon="0.14312">
        <ele>799.33</ele>
        <time>2021-08-02T13:52:28Z</time>
      </trkpt>
      <trkpt lat="42.21188" lon="0.14293">
        <ele>796.91</ele>
        <time>2021-08-02T13:52:34Z</time>
      </trkpt>
      <trkpt lat="42.21174" lon="0.14281">
        <ele>795.79</ele>
        <time>2021-08-02T13:52:38Z</time>
      </trkpt>
      <trkpt lat="42.2116" lon="0.14276">
        <ele>794.65</ele>
        <time>2021-08-02T13:52:41Z</time>
      </trkpt>
      <trkpt lat="42.2114" lon="0.14277">
        <ele>792.24</ele>
        <time>2021-08-02T13:52:45Z</time>
      </trkpt>
      <trkpt lat="42.21131" lon="0.1428">
        <ele>791.06</ele>
        <time>2021-08-02T13:52:47Z</time>
      </trkpt>
      <trkpt lat="42.21094" lon="0.1428">
        <ele>786.4</ele>
        <time>2021-08-02T13:52:53Z</time>
      </trkpt>
      <trkpt lat="42.21053" lon="0.14273">
        <ele>782.82</ele>
        <time>2021-08-02T13:52:58Z</time>
      </trkpt>
      <trkpt lat="42.21018" lon="0.14261">
        <ele>779.73</ele>
        <time>2021-08-02T13:53:02Z</time>
      </trkpt>
      <trkpt lat="42.20986" lon="0.14248">
        <ele>776.56</ele>
        <time>2021-08-02T13:53:06Z</time>
      </trkpt>
      <trkpt lat="42.20959" lon="0.14234">
        <ele>773.4</ele>
        <time>2021-08-02T13:53:10Z</time>
      </trkpt>
      <trkpt lat="42.20927" lon="0.14232">
        <ele>769.43</ele>
        <time>2021-08-02T13:53:15Z</time>
      </trkpt>
      <trkpt lat="42.2092" lon="0.14233">
        <ele>768.82</ele>
        <time>2021-08-02T13:53:16Z</time>
      </trkpt>
      <trkpt lat="42.20888" lon="0.14245">
        <ele>764.72</ele>
        <time>2021-08-02T13:53:22Z</time>
      </trkpt>
      <trkpt lat="42.20881" lon="0.14246">
        <ele>763.5</ele>
        <time>2021-08-02T13:53:24Z</time>
      </trkpt>
      <trkpt lat="42.20865" lon="0.1426">
        <ele>759.54</ele>
        <time>2021-08-02T13:53:31Z</time>
      </trkpt>
      <trkpt lat="42.20863" lon="0.14274">
        <ele>756.38</ele>
        <time>2021-08-02T13:53:39Z</time>
      </trkpt>
      <trkpt lat="42.20878" lon="0.14309">
        <ele>753.91</ele>
        <time>2021-08-02T13:53:47Z</time>
      </trkpt>
      <trkpt lat="42.20878" lon="0.14336">
        <ele>752.46</ele>
        <time>2021-08-02T13:53:51Z</time>
      </trkpt>
      <trkpt lat="42.20882" lon="0.14377">
        <ele>750.12</ele>
        <time>2021-08-02T13:53:56Z</time>
      </trkpt>
      <trkpt lat="42.20878" lon="0.14417">
        <ele>745.59</ele>
        <time>2021-08-02T13:54:02Z</time>
      </trkpt>
      <trkpt lat="42.20871" lon="0.1442">
        <ele>744.87</ele>
        <time>2021-08-02T13:54:03Z</time>
      </trkpt>
      <trkpt lat="42.2085" lon="0.1446">
        <ele>740.43</ele>
        <time>2021-08-02T13:54:09Z</time>
      </trkpt>
      <trkpt lat="42.2084" lon="0.14499">
        <ele>737.17</ele>
        <time>2021-08-02T13:54:13Z</time>
      </trkpt>
      <trkpt lat="42.20835" lon="0.14509">
        <ele>736.41</ele>
        <time>2021-08-02T13:54:14Z</time>
      </trkpt>
      <trkpt lat="42.20801" lon="0.14573">
        <ele>731.51</ele>
        <time>2021-08-02T13:54:20Z</time>
      </trkpt>
      <trkpt lat="42.2077" lon="0.14582">
        <ele>728.18</ele>
        <time>2021-08-02T13:54:24Z</time>
      </trkpt>
      <trkpt lat="42.20726" lon="0.14572">
        <ele>724.59</ele>
        <time>2021-08-02T13:54:29Z</time>
      </trkpt>
      <trkpt lat="42.2067" lon="0.14584">
        <ele>720.23</ele>
        <time>2021-08-02T13:54:35Z</time>
      </trkpt>
      <trkpt lat="42.20631" lon="0.14602">
        <ele>716.79</ele>
        <time>2021-08-02T13:54:40Z</time>
      </trkpt>
      <trkpt lat="42.20585" lon="0.14621">
        <ele>713.31</ele>
        <time>2021-08-02T13:54:45Z</time>
      </trkpt>
      <trkpt lat="42.20548" lon="0.1464">
        <ele>710.08</ele>
        <time>2021-08-02T13:54:49Z</time>
      </trkpt>
      <trkpt lat="42.20513" lon="0.14658">
        <ele>706.25</ele>
        <time>2021-08-02T13:54:53Z</time>
      </trkpt>
      <trkpt lat="42.2048" lon="0.14671">
        <ele>702.47</ele>
        <time>2021-08-02T13:54:57Z</time>
      </trkpt>
      <trkpt lat="42.20463" lon="0.14678">
        <ele>700.8</ele>
        <time>2021-08-02T13:54:59Z</time>
      </trkpt>
      <trkpt lat="42.2043" lon="0.14708">
        <ele>696.84</ele>
        <time>2021-08-02T13:55:03Z</time>
      </trkpt>
      <trkpt lat="42.20404" lon="0.1474">
        <ele>693.63</ele>
        <time>2021-08-02T13:55:06Z</time>
      </trkpt>
      <trkpt lat="42.20375" lon="0.14773">
        <ele>690.45</ele>
        <time>2021-08-02T13:55:09Z</time>
      </trkpt>
      <trkpt lat="42.20355" lon="0.14794">
        <ele>688.07</ele>
        <time>2021-08-02T13:55:11Z</time>
      </trkpt>
      <trkpt lat="42.20332" lon="0.14806">
        <ele>683.74</ele>
        <time>2021-08-02T13:55:14Z</time>
      </trkpt>
      <trkpt lat="42.20327" lon="0.14806">
        <ele>680.63</ele>
        <time>2021-08-02T13:55:16Z</time>
      </trkpt>
      <trkpt lat="42.20325" lon="0.14805">
        <ele>677.41</ele>
        <time>2021-08-02T13:55:18Z</time>
      </trkpt>
      <trkpt lat="42.20325" lon="0.14805">
        <ele>673.94</ele>
        <time>2021-08-02T13:55:21Z</time>
      </trkpt>
      <trkpt lat="42.20325" lon="0.14805">
        <ele>670.87</ele>
        <time>2021-08-02T13:55:25Z</time>
      </trkpt>
      <trkpt lat="42.20324" lon="0.14805">
        <ele>668.15</ele>
        <time>2021-08-02T13:55:41Z</time>
      </trkpt>
      <trkpt lat="42.20298" lon="0.14779">
        <ele>667.78</ele>
        <time>2021-08-02T13:55:50Z</time>
      </trkpt>
      <trkpt lat="42.20291" lon="0.14772">
        <ele>667.81</ele>
        <time>2021-08-02T13:55:51Z</time>
      </trkpt>
      <trkpt lat="42.20258" lon="0.14736">
        <ele>668.55</ele>
        <time>2021-08-02T13:55:55Z</time>
      </trkpt>
      <trkpt lat="42.20234" lon="0.14657">
        <ele>669.96</ele>
        <time>2021-08-02T13:56:00Z</time>
      </trkpt>
      <trkpt lat="42.20269" lon="0.14601">
        <ele>671.08</ele>
        <time>2021-08-02T13:56:04Z</time>
      </trkpt>
      <trkpt lat="42.20336" lon="0.14599">
        <ele>671.12</ele>
        <time>2021-08-02T13:56:09Z</time>
      </trkpt>
      <trkpt lat="42.20365" lon="0.14552">
        <ele>670.29</ele>
        <time>2021-08-02T13:56:13Z</time>
      </trkpt>
      <trkpt lat="42.20368" lon="0.14535">
        <ele>669.95</ele>
        <time>2021-08-02T13:56:14Z</time>
      </trkpt>
      <trkpt lat="42.20388" lon="0.14388">
        <ele>666.1</ele>
        <time>2021-08-02T13:56:22Z</time>
      </trkpt>
      <trkpt lat="42.20404" lon="0.14294">
        <ele>662.25</ele>
        <time>2021-08-02T13:56:27Z</time>
      </trkpt>
      <trkpt lat="42.20423" lon="0.14217">
        <ele>658.3</ele>
        <time>2021-08-02T13:56:31Z</time>
      </trkpt>
      <trkpt lat="42.20441" lon="0.14157">
        <ele>655.15</ele>
        <time>2021-08-02T13:56:34Z</time>
      </trkpt>
      <trkpt lat="42.20464" lon="0.14093">
        <ele>651.87</ele>
        <time>2021-08-02T13:56:37Z</time>
      </trkpt>
      <trkpt lat="42.20501" lon="0.14011">
        <ele>648.03</ele>
        <time>2021-08-02T13:56:41Z</time>
      </trkpt>
      <trkpt lat="42.2051" lon="0.1399">
        <ele>647.12</ele>
        <time>2021-08-02T13:56:42Z</time>
      </trkpt>
      <trkpt lat="42.20546" lon="0.13822">
        <ele>643.29</ele>
        <time>2021-08-02T13:56:49Z</time>
      </trkpt>
      <trkpt lat="42.2059" lon="0.13637">
        <ele>640.96</ele>
        <time>2021-08-02T13:56:58Z</time>
      </trkpt>
      <trkpt lat="42.20611" lon="0.13571">
        <ele>640.48</ele>
        <time>2021-08-02T13:57:03Z</time>
      </trkpt>
      <trkpt lat="42.20674" lon="0.13498">
        <ele>639.56</ele>
        <time>2021-08-02T13:57:13Z</time>
      </trkpt>
      <trkpt lat="42.20723" lon="0.13467">
        <ele>639.44</ele>
        <time>2021-08-02T13:57:18Z</time>
      </trkpt>
      <trkpt lat="42.20753" lon="0.13392">
        <ele>638.55</ele>
        <time>2021-08-02T13:57:24Z</time>
      </trkpt>
      <trkpt lat="42.20778" lon="0.13311">
        <ele>639.37</ele>
        <time>2021-08-02T13:57:30Z</time>
      </trkpt>
      <trkpt lat="42.20802" lon="0.13295">
        <ele>640.52</ele>
        <time>2021-08-02T13:57:32Z</time>
      </trkpt>
      <trkpt lat="42.20874" lon="0.13243">
        <ele>644.77</ele>
        <time>2021-08-02T13:57:38Z</time>
      </trkpt>
      <trkpt lat="42.20924" lon="0.13203">
        <ele>648.1</ele>
        <time>2021-08-02T13:57:42Z</time>
      </trkpt>
      <trkpt lat="42.20945" lon="0.13182">
        <ele>649.76</ele>
        <time>2021-08-02T13:57:44Z</time>
      </trkpt>
      <trkpt lat="42.20964" lon="0.13133">
        <ele>652.99</ele>
        <time>2021-08-02T13:57:47Z</time>
      </trkpt>
      <trkpt lat="42.20988" lon="0.12999">
        <ele>656.79</ele>
        <time>2021-08-02T13:57:54Z</time>
      </trkpt>
      <trkpt lat="42.20995" lon="0.12922">
        <ele>657.77</ele>
        <time>2021-08-02T13:57:58Z</time>
      </trkpt>
      <trkpt lat="42.2099" lon="0.12782">
        <ele>659.78</ele>
        <time>2021-08-02T13:58:05Z</time>
      </trkpt>
      <trkpt lat="42.20995" lon="0.12765">
        <ele>660.15</ele>
        <time>2021-08-02T13:58:06Z</time>
      </trkpt>
      <trkpt lat="42.21006" lon="0.12721">
        <ele>660.98</ele>
        <time>2021-08-02T13:58:09Z</time>
      </trkpt>
      <trkpt lat="42.21007" lon="0.12705">
        <ele>661.28</ele>
        <time>2021-08-02T13:58:15Z</time>
      </trkpt>
      <trkpt lat="42.21007" lon="0.12708">
        <ele>660.84</ele>
        <time>2021-08-02T13:58:43Z</time>
      </trkpt>
      <trkpt lat="42.21007" lon="0.12708">
        <ele>661.33</ele>
        <time>2021-08-02T13:59:09Z</time>
      </trkpt>
      <trkpt lat="42.21015" lon="0.12694">
        <ele>661.47</ele>
        <time>2021-08-02T13:59:14Z</time>
      </trkpt>
      <trkpt lat="42.21038" lon="0.12623">
        <ele>662.34</ele>
        <time>2021-08-02T13:59:22Z</time>
      </trkpt>
      <trkpt lat="42.21043" lon="0.1261">
        <ele>662.83</ele>
        <time>2021-08-02T13:59:23Z</time>
      </trkpt>
      <trkpt lat="42.21082" lon="0.12538">
        <ele>664.41</ele>
        <time>2021-08-02T13:59:28Z</time>
      </trkpt>
      <trkpt lat="42.21129" lon="0.12489">
        <ele>665.87</ele>
        <time>2021-08-02T13:59:33Z</time>
      </trkpt>
      <trkpt lat="42.21159" lon="0.12413">
        <ele>667.59</ele>
        <time>2021-08-02T13:59:39Z</time>
      </trkpt>
      <trkpt lat="42.21196" lon="0.12363">
        <ele>670.16</ele>
        <time>2021-08-02T13:59:44Z</time>
      </trkpt>
      <trkpt lat="42.21197" lon="0.12353">
        <ele>672</ele>
        <time>2021-08-02T13:59:48Z</time>
      </trkpt>
      <trkpt lat="42.21196" lon="0.12352">
        <ele>672.88</ele>
        <time>2021-08-02T13:59:56Z</time>
      </trkpt>
      <trkpt lat="42.21195" lon="0.12358">
        <ele>673.33</ele>
        <time>2021-08-02T14:00:03Z</time>
      </trkpt>
      <trkpt lat="42.21204" lon="0.12338">
        <ele>673.32</ele>
        <time>2021-08-02T14:00:10Z</time>
      </trkpt>
      <trkpt lat="42.21203" lon="0.12339">
        <ele>673.16</ele>
        <time>2021-08-02T14:00:11Z</time>
      </trkpt>
      <trkpt lat="42.21202" lon="0.12341">
        <ele>673.01</ele>
        <time>2021-08-02T14:00:19Z</time>
      </trkpt>
      <trkpt lat="42.21198" lon="0.12352">
        <ele>673.06</ele>
        <time>2021-08-02T14:00:23Z</time>
      </trkpt>
      <trkpt lat="42.2119" lon="0.12366">
        <ele>673.16</ele>
        <time>2021-08-02T14:00:25Z</time>
      </trkpt>
      <trkpt lat="42.21165" lon="0.12395">
        <ele>673.63</ele>
        <time>2021-08-02T14:00:28Z</time>
      </trkpt>
      <trkpt lat="42.21135" lon="0.12484">
        <ele>673.75</ele>
        <time>2021-08-02T14:00:34Z</time>
      </trkpt>
      <trkpt lat="42.21116" lon="0.12496">
        <ele>672.88</ele>
        <time>2021-08-02T14:00:36Z</time>
      </trkpt>
      <trkpt lat="42.21076" lon="0.1254">
        <ele>670.59</ele>
        <time>2021-08-02T14:00:41Z</time>
      </trkpt>
      <trkpt lat="42.21051" lon="0.12583">
        <ele>669.38</ele>
        <time>2021-08-02T14:00:44Z</time>
      </trkpt>
      <trkpt lat="42.21012" lon="0.12681">
        <ele>667.81</ele>
        <time>2021-08-02T14:00:50Z</time>
      </trkpt>
      <trkpt lat="42.21002" lon="0.12693">
        <ele>665.13</ele>
        <time>2021-08-02T14:00:55Z</time>
      </trkpt>
      <trkpt lat="42.21008" lon="0.12694">
        <ele>662.13</ele>
        <time>2021-08-02T14:01:05Z</time>
      </trkpt>
      <trkpt lat="42.2101" lon="0.12701">
        <ele>661.76</ele>
        <time>2021-08-02T14:01:23Z</time>
      </trkpt>
      <trkpt lat="42.2101" lon="0.127">
        <ele>661.79</ele>
        <time>2021-08-02T14:02:36Z</time>
      </trkpt>
      <trkpt lat="42.21014" lon="0.12686">
        <ele>661.51</ele>
        <time>2021-08-02T14:02:49Z</time>
      </trkpt>
      <trkpt lat="42.21015" lon="0.12679">
        <ele>661.84</ele>
        <time>2021-08-02T14:03:09Z</time>
      </trkpt>
      <trkpt lat="42.21037" lon="0.12616">
        <ele>662.49</ele>
        <time>2021-08-02T14:03:15Z</time>
      </trkpt>
      <trkpt lat="42.21068" lon="0.12562">
        <ele>663.51</ele>
        <time>2021-08-02T14:03:19Z</time>
      </trkpt>
      <trkpt lat="42.21112" lon="0.12498">
        <ele>665.29</ele>
        <time>2021-08-02T14:03:24Z</time>
      </trkpt>
      <trkpt lat="42.21159" lon="0.12418">
        <ele>667.8</ele>
        <time>2021-08-02T14:03:31Z</time>
      </trkpt>
      <trkpt lat="42.21203" lon="0.12337">
        <ele>671.44</ele>
        <time>2021-08-02T14:03:37Z</time>
      </trkpt>
      <trkpt lat="42.21261" lon="0.12263">
        <ele>673.27</ele>
        <time>2021-08-02T14:03:43Z</time>
      </trkpt>
      <trkpt lat="42.21305" lon="0.12262">
        <ele>671.73</ele>
        <time>2021-08-02T14:03:48Z</time>
      </trkpt>
      <trkpt lat="42.21355" lon="0.12292">
        <ele>669.83</ele>
        <time>2021-08-02T14:03:55Z</time>
      </trkpt>
      <trkpt lat="42.21396" lon="0.12276">
        <ele>669.78</ele>
        <time>2021-08-02T14:03:59Z</time>
      </trkpt>
      <trkpt lat="42.21417" lon="0.12249">
        <ele>670.22</ele>
        <time>2021-08-02T14:04:05Z</time>
      </trkpt>
      <trkpt lat="42.21414" lon="0.12246">
        <ele>670.53</ele>
        <time>2021-08-02T14:04:11Z</time>
      </trkpt>
      <trkpt lat="42.21412" lon="0.12243">
        <ele>670.55</ele>
        <time>2021-08-02T14:04:12Z</time>
      </trkpt>
      <trkpt lat="42.21382" lon="0.12239">
        <ele>670.43</ele>
        <time>2021-08-02T14:04:18Z</time>
      </trkpt>
      <trkpt lat="42.21357" lon="0.12214">
        <ele>672.58</ele>
        <time>2021-08-02T14:04:25Z</time>
      </trkpt>
      <trkpt lat="42.21317" lon="0.12169">
        <ele>676.68</ele>
        <time>2021-08-02T14:04:32Z</time>
      </trkpt>
      <trkpt lat="42.21292" lon="0.1213">
        <ele>679.69</ele>
        <time>2021-08-02T14:04:36Z</time>
      </trkpt>
      <trkpt lat="42.21306" lon="0.12096">
        <ele>683.18</ele>
        <time>2021-08-02T14:04:40Z</time>
      </trkpt>
      <trkpt lat="42.21333" lon="0.12065">
        <ele>687.18</ele>
        <time>2021-08-02T14:04:44Z</time>
      </trkpt>
      <trkpt lat="42.21348" lon="0.12035">
        <ele>690.28</ele>
        <time>2021-08-02T14:04:47Z</time>
      </trkpt>
      <trkpt lat="42.21361" lon="0.11999">
        <ele>694.4</ele>
        <time>2021-08-02T14:04:51Z</time>
      </trkpt>
      <trkpt lat="42.21371" lon="0.11975">
        <ele>697.86</ele>
        <time>2021-08-02T14:04:54Z</time>
      </trkpt>
      <trkpt lat="42.21374" lon="0.11937">
        <ele>702.35</ele>
        <time>2021-08-02T14:04:58Z</time>
      </trkpt>
      <trkpt lat="42.21369" lon="0.11901">
        <ele>705.05</ele>
        <time>2021-08-02T14:05:01Z</time>
      </trkpt>
      <trkpt lat="42.21387" lon="0.11874">
        <ele>710.19</ele>
        <time>2021-08-02T14:05:07Z</time>
      </trkpt>
      <trkpt lat="42.21439" lon="0.11904">
        <ele>713.03</ele>
        <time>2021-08-02T14:05:12Z</time>
      </trkpt>
      <trkpt lat="42.21466" lon="0.1191">
        <ele>714.17</ele>
        <time>2021-08-02T14:05:14Z</time>
      </trkpt>
      <trkpt lat="42.21516" lon="0.1187">
        <ele>718.05</ele>
        <time>2021-08-02T14:05:20Z</time>
      </trkpt>
      <trkpt lat="42.21504" lon="0.11823">
        <ele>721.3</ele>
        <time>2021-08-02T14:05:24Z</time>
      </trkpt>
      <trkpt lat="42.21498" lon="0.11799">
        <ele>723.06</ele>
        <time>2021-08-02T14:05:26Z</time>
      </trkpt>
      <trkpt lat="42.21502" lon="0.11765">
        <ele>727.86</ele>
        <time>2021-08-02T14:05:33Z</time>
      </trkpt>
      <trkpt lat="42.21507" lon="0.11726">
        <ele>730.97</ele>
        <time>2021-08-02T14:05:40Z</time>
      </trkpt>
      <trkpt lat="42.21522" lon="0.1169">
        <ele>732</ele>
        <time>2021-08-02T14:05:43Z</time>
      </trkpt>
      <trkpt lat="42.21547" lon="0.11566">
        <ele>735.39</ele>
        <time>2021-08-02T14:05:50Z</time>
      </trkpt>
      <trkpt lat="42.21552" lon="0.11547">
        <ele>735.68</ele>
        <time>2021-08-02T14:05:51Z</time>
      </trkpt>
      <trkpt lat="42.21582" lon="0.11471">
        <ele>736.82</ele>
        <time>2021-08-02T14:05:57Z</time>
      </trkpt>
      <trkpt lat="42.21552" lon="0.11442">
        <ele>738.41</ele>
        <time>2021-08-02T14:06:01Z</time>
      </trkpt>
      <trkpt lat="42.21517" lon="0.11423">
        <ele>740.74</ele>
        <time>2021-08-02T14:06:04Z</time>
      </trkpt>
      <trkpt lat="42.21477" lon="0.11373">
        <ele>743.82</ele>
        <time>2021-08-02T14:06:08Z</time>
      </trkpt>
      <trkpt lat="42.21435" lon="0.11297">
        <ele>747.33</ele>
        <time>2021-08-02T14:06:14Z</time>
      </trkpt>
      <trkpt lat="42.21452" lon="0.11265">
        <ele>748.77</ele>
        <time>2021-08-02T14:06:17Z</time>
      </trkpt>
      <trkpt lat="42.21475" lon="0.11229">
        <ele>750.69</ele>
        <time>2021-08-02T14:06:20Z</time>
      </trkpt>
      <trkpt lat="42.21499" lon="0.11153">
        <ele>755.42</ele>
        <time>2021-08-02T14:06:25Z</time>
      </trkpt>
      <trkpt lat="42.21507" lon="0.1111">
        <ele>758.61</ele>
        <time>2021-08-02T14:06:28Z</time>
      </trkpt>
      <trkpt lat="42.21515" lon="0.11102">
        <ele>759.54</ele>
        <time>2021-08-02T14:06:29Z</time>
      </trkpt>
      <trkpt lat="42.21523" lon="0.11038">
        <ele>765.48</ele>
        <time>2021-08-02T14:06:35Z</time>
      </trkpt>
      <trkpt lat="42.21519" lon="0.11025">
        <ele>766.45</ele>
        <time>2021-08-02T14:06:36Z</time>
      </trkpt>
      <trkpt lat="42.21482" lon="0.10963">
        <ele>771.56</ele>
        <time>2021-08-02T14:06:42Z</time>
      </trkpt>
      <trkpt lat="42.21467" lon="0.10912">
        <ele>774.82</ele>
        <time>2021-08-02T14:06:46Z</time>
      </trkpt>
      <trkpt lat="42.2148" lon="0.10878">
        <ele>777.96</ele>
        <time>2021-08-02T14:06:51Z</time>
      </trkpt>
      <trkpt lat="42.2148" lon="0.10878">
        <ele>781.08</ele>
        <time>2021-08-02T14:06:59Z</time>
      </trkpt>
      <trkpt lat="42.21482" lon="0.10876">
        <ele>781.31</ele>
        <time>2021-08-02T14:07:00Z</time>
      </trkpt>
      <trkpt lat="42.21483" lon="0.10853">
        <ele>782.06</ele>
        <time>2021-08-02T14:07:05Z</time>
      </trkpt>
      <trkpt lat="42.21451" lon="0.10812">
        <ele>784.16</ele>
        <time>2021-08-02T14:07:11Z</time>
      </trkpt>
      <trkpt lat="42.21405" lon="0.10796">
        <ele>787.04</ele>
        <time>2021-08-02T14:07:17Z</time>
      </trkpt>
      <trkpt lat="42.21386" lon="0.10803">
        <ele>788.06</ele>
        <time>2021-08-02T14:07:19Z</time>
      </trkpt>
      <trkpt lat="42.21344" lon="0.10802">
        <ele>788.89</ele>
        <time>2021-08-02T14:07:23Z</time>
      </trkpt>
      <trkpt lat="42.21309" lon="0.10792">
        <ele>789.62</ele>
        <time>2021-08-02T14:07:26Z</time>
      </trkpt>
      <trkpt lat="42.21262" lon="0.10807">
        <ele>790.68</ele>
        <time>2021-08-02T14:07:31Z</time>
      </trkpt>
      <trkpt lat="42.2125" lon="0.10816">
        <ele>790.9</ele>
        <time>2021-08-02T14:07:33Z</time>
      </trkpt>
      <trkpt lat="42.21206" lon="0.10819">
        <ele>791.14</ele>
        <time>2021-08-02T14:07:38Z</time>
      </trkpt>
      <trkpt lat="42.21153" lon="0.10837">
        <ele>790.66</ele>
        <time>2021-08-02T14:07:44Z</time>
      </trkpt>
      <trkpt lat="42.21145" lon="0.10843">
        <ele>788.9</ele>
        <time>2021-08-02T14:07:50Z</time>
      </trkpt>
      <trkpt lat="42.21086" lon="0.10901">
        <ele>786.79</ele>
        <time>2021-08-02T14:08:00Z</time>
      </trkpt>
      <trkpt lat="42.21079" lon="0.1091">
        <ele>786.43</ele>
        <time>2021-08-02T14:08:01Z</time>
      </trkpt>
      <trkpt lat="42.21019" lon="0.11013">
        <ele>782.66</ele>
        <time>2021-08-02T14:08:10Z</time>
      </trkpt>
      <trkpt lat="42.21014" lon="0.11023">
        <ele>782.06</ele>
        <time>2021-08-02T14:08:11Z</time>
      </trkpt>
      <trkpt lat="42.20986" lon="0.11109">
        <ele>779.09</ele>
        <time>2021-08-02T14:08:20Z</time>
      </trkpt>
      <trkpt lat="42.20965" lon="0.11137">
        <ele>777.73</ele>
        <time>2021-08-02T14:08:26Z</time>
      </trkpt>
      <trkpt lat="42.20907" lon="0.11172">
        <ele>777.2</ele>
        <time>2021-08-02T14:08:35Z</time>
      </trkpt>
      <trkpt lat="42.2086" lon="0.11201">
        <ele>778.74</ele>
        <time>2021-08-02T14:08:43Z</time>
      </trkpt>
      <trkpt lat="42.20843" lon="0.11213">
        <ele>780.07</ele>
        <time>2021-08-02T14:08:48Z</time>
      </trkpt>
      <trkpt lat="42.20812" lon="0.11222">
        <ele>780.17</ele>
        <time>2021-08-02T14:08:54Z</time>
      </trkpt>
      <trkpt lat="42.20799" lon="0.11217">
        <ele>780.11</ele>
        <time>2021-08-02T14:08:56Z</time>
      </trkpt>
      <trkpt lat="42.20765" lon="0.11219">
        <ele>779.38</ele>
        <time>2021-08-02T14:09:01Z</time>
      </trkpt>
      <trkpt lat="42.20756" lon="0.11222">
        <ele>778.79</ele>
        <time>2021-08-02T14:09:03Z</time>
      </trkpt>
      <trkpt lat="42.20737" lon="0.11217">
        <ele>776.11</ele>
        <time>2021-08-02T14:09:12Z</time>
      </trkpt>
      <trkpt lat="42.20723" lon="0.11235">
        <ele>776</ele>
        <time>2021-08-02T14:09:17Z</time>
      </trkpt>
      <trkpt lat="42.20702" lon="0.1125">
        <ele>776.49</ele>
        <time>2021-08-02T14:09:21Z</time>
      </trkpt>
      <trkpt lat="42.20681" lon="0.11271">
        <ele>777.53</ele>
        <time>2021-08-02T14:09:24Z</time>
      </trkpt>
      <trkpt lat="42.20652" lon="0.11295">
        <ele>778.81</ele>
        <time>2021-08-02T14:09:28Z</time>
      </trkpt>
      <trkpt lat="42.20629" lon="0.11325">
        <ele>780.14</ele>
        <time>2021-08-02T14:09:32Z</time>
      </trkpt>
      <trkpt lat="42.20606" lon="0.1135">
        <ele>781.79</ele>
        <time>2021-08-02T14:09:38Z</time>
      </trkpt>
      <trkpt lat="42.20594" lon="0.11376">
        <ele>783.03</ele>
        <time>2021-08-02T14:09:43Z</time>
      </trkpt>
      <trkpt lat="42.20564" lon="0.11398">
        <ele>785.37</ele>
        <time>2021-08-02T14:09:50Z</time>
      </trkpt>
      <trkpt lat="42.20513" lon="0.11436">
        <ele>787.86</ele>
        <time>2021-08-02T14:09:58Z</time>
      </trkpt>
      <trkpt lat="42.20498" lon="0.11446">
        <ele>788.28</ele>
        <time>2021-08-02T14:10:00Z</time>
      </trkpt>
      <trkpt lat="42.20463" lon="0.11511">
        <ele>791.16</ele>
        <time>2021-08-02T14:10:09Z</time>
      </trkpt>
      <trkpt lat="42.20422" lon="0.11543">
        <ele>792.94</ele>
        <time>2021-08-02T14:10:16Z</time>
      </trkpt>
      <trkpt lat="42.2038" lon="0.11521">
        <ele>793.23</ele>
        <time>2021-08-02T14:10:22Z</time>
      </trkpt>
      <trkpt lat="42.20347" lon="0.11553">
        <ele>794.77</ele>
        <time>2021-08-02T14:10:29Z</time>
      </trkpt>
      <trkpt lat="42.20319" lon="0.11577">
        <ele>795.92</ele>
        <time>2021-08-02T14:10:33Z</time>
      </trkpt>
      <trkpt lat="42.20269" lon="0.11607">
        <ele>799.67</ele>
        <time>2021-08-02T14:10:39Z</time>
      </trkpt>
      <trkpt lat="42.20233" lon="0.11632">
        <ele>803.1</ele>
        <time>2021-08-02T14:10:43Z</time>
      </trkpt>
      <trkpt lat="42.20215" lon="0.11649">
        <ele>804.66</ele>
        <time>2021-08-02T14:10:45Z</time>
      </trkpt>
      <trkpt lat="42.20169" lon="0.11661">
        <ele>808.38</ele>
        <time>2021-08-02T14:10:50Z</time>
      </trkpt>
      <trkpt lat="42.20133" lon="0.11663">
        <ele>812.33</ele>
        <time>2021-08-02T14:10:54Z</time>
      </trkpt>
      <trkpt lat="42.20099" lon="0.11669">
        <ele>816.33</ele>
        <time>2021-08-02T14:10:58Z</time>
      </trkpt>
      <trkpt lat="42.20092" lon="0.1167">
        <ele>817.35</ele>
        <time>2021-08-02T14:10:59Z</time>
      </trkpt>
      <trkpt lat="42.20067" lon="0.11697">
        <ele>821.87</ele>
        <time>2021-08-02T14:11:03Z</time>
      </trkpt>
      <trkpt lat="42.20037" lon="0.1173">
        <ele>823.9</ele>
        <time>2021-08-02T14:11:07Z</time>
      </trkpt>
      <trkpt lat="42.19974" lon="0.11743">
        <ele>825.75</ele>
        <time>2021-08-02T14:11:16Z</time>
      </trkpt>
      <trkpt lat="42.1994" lon="0.1175">
        <ele>824.96</ele>
        <time>2021-08-02T14:11:21Z</time>
      </trkpt>
      <trkpt lat="42.19906" lon="0.11738">
        <ele>823.2</ele>
        <time>2021-08-02T14:11:27Z</time>
      </trkpt>
      <trkpt lat="42.19882" lon="0.11731">
        <ele>821.72</ele>
        <time>2021-08-02T14:11:30Z</time>
      </trkpt>
      <trkpt lat="42.1986" lon="0.11702">
        <ele>820.03</ele>
        <time>2021-08-02T14:11:35Z</time>
      </trkpt>
      <trkpt lat="42.1985" lon="0.11677">
        <ele>820.73</ele>
        <time>2021-08-02T14:11:41Z</time>
      </trkpt>
      <trkpt lat="42.19835" lon="0.1166">
        <ele>822.2</ele>
        <time>2021-08-02T14:11:45Z</time>
      </trkpt>
      <trkpt lat="42.19825" lon="0.1165">
        <ele>824.18</ele>
        <time>2021-08-02T14:11:48Z</time>
      </trkpt>
      <trkpt lat="42.19819" lon="0.11641">
        <ele>825.38</ele>
        <time>2021-08-02T14:11:50Z</time>
      </trkpt>
      <trkpt lat="42.19811" lon="0.11619">
        <ele>828.36</ele>
        <time>2021-08-02T14:11:54Z</time>
      </trkpt>
      <trkpt lat="42.19783" lon="0.11605">
        <ele>832.15</ele>
        <time>2021-08-02T14:12:00Z</time>
      </trkpt>
      <trkpt lat="42.19751" lon="0.11602">
        <ele>835.35</ele>
        <time>2021-08-02T14:12:05Z</time>
      </trkpt>
      <trkpt lat="42.1972" lon="0.11565">
        <ele>837.84</ele>
        <time>2021-08-02T14:12:10Z</time>
      </trkpt>
      <trkpt lat="42.19691" lon="0.1152">
        <ele>842.15</ele>
        <time>2021-08-02T14:12:17Z</time>
      </trkpt>
      <trkpt lat="42.19665" lon="0.11492">
        <ele>844.81</ele>
        <time>2021-08-02T14:12:22Z</time>
      </trkpt>
      <trkpt lat="42.19621" lon="0.11489">
        <ele>847.4</ele>
        <time>2021-08-02T14:12:28Z</time>
      </trkpt>
      <trkpt lat="42.19578" lon="0.11499">
        <ele>848.06</ele>
        <time>2021-08-02T14:12:33Z</time>
      </trkpt>
      <trkpt lat="42.19543" lon="0.11483">
        <ele>846.76</ele>
        <time>2021-08-02T14:12:41Z</time>
      </trkpt>
      <trkpt lat="42.19513" lon="0.11448">
        <ele>847</ele>
        <time>2021-08-02T14:12:48Z</time>
      </trkpt>
      <trkpt lat="42.19473" lon="0.11424">
        <ele>848.7</ele>
        <time>2021-08-02T14:12:53Z</time>
      </trkpt>
      <trkpt lat="42.19445" lon="0.11395">
        <ele>850.13</ele>
        <time>2021-08-02T14:12:57Z</time>
      </trkpt>
      <trkpt lat="42.19397" lon="0.11333">
        <ele>853.18</ele>
        <time>2021-08-02T14:13:05Z</time>
      </trkpt>
      <trkpt lat="42.1937" lon="0.11298">
        <ele>856.96</ele>
        <time>2021-08-02T14:13:11Z</time>
      </trkpt>
      <trkpt lat="42.19362" lon="0.11293">
        <ele>857.66</ele>
        <time>2021-08-02T14:13:12Z</time>
      </trkpt>
      <trkpt lat="42.19356" lon="0.11288">
        <ele>858.24</ele>
        <time>2021-08-02T14:13:13Z</time>
      </trkpt>
      <trkpt lat="42.19352" lon="0.1128">
        <ele>858.64</ele>
        <time>2021-08-02T14:13:14Z</time>
      </trkpt>
      <trkpt lat="42.19346" lon="0.11265">
        <ele>858.94</ele>
        <time>2021-08-02T14:13:16Z</time>
      </trkpt>
      <trkpt lat="42.1933" lon="0.11255">
        <ele>858.58</ele>
        <time>2021-08-02T14:13:20Z</time>
      </trkpt>
      <trkpt lat="42.19301" lon="0.1126">
        <ele>857.07</ele>
        <time>2021-08-02T14:13:25Z</time>
      </trkpt>
      <trkpt lat="42.19295" lon="0.11258">
        <ele>856.68</ele>
        <time>2021-08-02T14:13:26Z</time>
      </trkpt>
      <trkpt lat="42.19274" lon="0.11216">
        <ele>855.33</ele>
        <time>2021-08-02T14:13:32Z</time>
      </trkpt>
      <trkpt lat="42.19271" lon="0.11185">
        <ele>854.66</ele>
        <time>2021-08-02T14:13:35Z</time>
      </trkpt>
      <trkpt lat="42.19246" lon="0.11142">
        <ele>852.09</ele>
        <time>2021-08-02T14:13:42Z</time>
      </trkpt>
      <trkpt lat="42.19233" lon="0.11135">
        <ele>851.2</ele>
        <time>2021-08-02T14:13:44Z</time>
      </trkpt>
      <trkpt lat="42.192" lon="0.11105">
        <ele>848.03</ele>
        <time>2021-08-02T14:13:50Z</time>
      </trkpt>
      <trkpt lat="42.19192" lon="0.11101">
        <ele>846.95</ele>
        <time>2021-08-02T14:13:52Z</time>
      </trkpt>
      <trkpt lat="42.19162" lon="0.11091">
        <ele>843.36</ele>
        <time>2021-08-02T14:13:59Z</time>
      </trkpt>
      <trkpt lat="42.19156" lon="0.11131">
        <ele>839.46</ele>
        <time>2021-08-02T14:14:07Z</time>
      </trkpt>
      <trkpt lat="42.19139" lon="0.11147">
        <ele>837.92</ele>
        <time>2021-08-02T14:14:11Z</time>
      </trkpt>
      <trkpt lat="42.19106" lon="0.11142">
        <ele>834.97</ele>
        <time>2021-08-02T14:14:17Z</time>
      </trkpt>
      <trkpt lat="42.19085" lon="0.11115">
        <ele>830.95</ele>
        <time>2021-08-02T14:14:23Z</time>
      </trkpt>
      <trkpt lat="42.1906" lon="0.11081">
        <ele>827.66</ele>
        <time>2021-08-02T14:14:29Z</time>
      </trkpt>
      <trkpt lat="42.19047" lon="0.11062">
        <ele>825.8</ele>
        <time>2021-08-02T14:14:32Z</time>
      </trkpt>
      <trkpt lat="42.19026" lon="0.11017">
        <ele>821.72</ele>
        <time>2021-08-02T14:14:39Z</time>
      </trkpt>
      <trkpt lat="42.19019" lon="0.10999">
        <ele>820.22</ele>
        <time>2021-08-02T14:14:42Z</time>
      </trkpt>
      <trkpt lat="42.19014" lon="0.10963">
        <ele>818.22</ele>
        <time>2021-08-02T14:14:47Z</time>
      </trkpt>
      <trkpt lat="42.19012" lon="0.1093">
        <ele>817.01</ele>
        <time>2021-08-02T14:14:51Z</time>
      </trkpt>
      <trkpt lat="42.18998" lon="0.10887">
        <ele>815.5</ele>
        <time>2021-08-02T14:14:57Z</time>
      </trkpt>
      <trkpt lat="42.18979" lon="0.10849">
        <ele>813.12</ele>
        <time>2021-08-02T14:15:05Z</time>
      </trkpt>
      <trkpt lat="42.18971" lon="0.10834">
        <ele>812.55</ele>
        <time>2021-08-02T14:15:08Z</time>
      </trkpt>
      <trkpt lat="42.18959" lon="0.10789">
        <ele>811.71</ele>
        <time>2021-08-02T14:15:14Z</time>
      </trkpt>
      <trkpt lat="42.18955" lon="0.10744">
        <ele>811.61</ele>
        <time>2021-08-02T14:15:18Z</time>
      </trkpt>
      <trkpt lat="42.18958" lon="0.10642">
        <ele>810.38</ele>
        <time>2021-08-02T14:15:27Z</time>
      </trkpt>
      <trkpt lat="42.18939" lon="0.10596">
        <ele>809.6</ele>
        <time>2021-08-02T14:15:32Z</time>
      </trkpt>
      <trkpt lat="42.18922" lon="0.1054">
        <ele>809.51</ele>
        <time>2021-08-02T14:15:37Z</time>
      </trkpt>
      <trkpt lat="42.18912" lon="0.1046">
        <ele>809.17</ele>
        <time>2021-08-02T14:15:43Z</time>
      </trkpt>
      <trkpt lat="42.18911" lon="0.10413">
        <ele>808.07</ele>
        <time>2021-08-02T14:15:47Z</time>
      </trkpt>
      <trkpt lat="42.18922" lon="0.1036">
        <ele>806.19</ele>
        <time>2021-08-02T14:15:52Z</time>
      </trkpt>
      <trkpt lat="42.18925" lon="0.10337">
        <ele>805.21</ele>
        <time>2021-08-02T14:15:55Z</time>
      </trkpt>
      <trkpt lat="42.18927" lon="0.10316">
        <ele>804.35</ele>
        <time>2021-08-02T14:15:57Z</time>
      </trkpt>
      <trkpt lat="42.18924" lon="0.10267">
        <ele>802.31</ele>
        <time>2021-08-02T14:16:01Z</time>
      </trkpt>
      <trkpt lat="42.18884" lon="0.10197">
        <ele>799.28</ele>
        <time>2021-08-02T14:16:08Z</time>
      </trkpt>
      <trkpt lat="42.18865" lon="0.10182">
        <ele>798.92</ele>
        <time>2021-08-02T14:16:10Z</time>
      </trkpt>
      <trkpt lat="42.1885" lon="0.10165">
        <ele>798.49</ele>
        <time>2021-08-02T14:16:12Z</time>
      </trkpt>
      <trkpt lat="42.18801" lon="0.1013">
        <ele>796.16</ele>
        <time>2021-08-02T14:16:18Z</time>
      </trkpt>
      <trkpt lat="42.18782" lon="0.10101">
        <ele>794.62</ele>
        <time>2021-08-02T14:16:21Z</time>
      </trkpt>
      <trkpt lat="42.18757" lon="0.10073">
        <ele>792.75</ele>
        <time>2021-08-02T14:16:25Z</time>
      </trkpt>
      <trkpt lat="42.18732" lon="0.10012">
        <ele>789.22</ele>
        <time>2021-08-02T14:16:32Z</time>
      </trkpt>
      <trkpt lat="42.18721" lon="0.0999">
        <ele>787.05</ele>
        <time>2021-08-02T14:16:35Z</time>
      </trkpt>
      <trkpt lat="42.18706" lon="0.09966">
        <ele>785.12</ele>
        <time>2021-08-02T14:16:38Z</time>
      </trkpt>
      <trkpt lat="42.18665" lon="0.09929">
        <ele>781.17</ele>
        <time>2021-08-02T14:16:44Z</time>
      </trkpt>
      <trkpt lat="42.1864" lon="0.09902">
        <ele>778.63</ele>
        <time>2021-08-02T14:16:48Z</time>
      </trkpt>
      <trkpt lat="42.18608" lon="0.09875">
        <ele>776.63</ele>
        <time>2021-08-02T14:16:52Z</time>
      </trkpt>
      <trkpt lat="42.18557" lon="0.09867">
        <ele>773.18</ele>
        <time>2021-08-02T14:16:59Z</time>
      </trkpt>
      <trkpt lat="42.18543" lon="0.09866">
        <ele>772.06</ele>
        <time>2021-08-02T14:17:01Z</time>
      </trkpt>
      <trkpt lat="42.18505" lon="0.09862">
        <ele>768.74</ele>
        <time>2021-08-02T14:17:07Z</time>
      </trkpt>
      <trkpt lat="42.18467" lon="0.09842">
        <ele>764.98</ele>
        <time>2021-08-02T14:17:13Z</time>
      </trkpt>
      <trkpt lat="42.18452" lon="0.09829">
        <ele>763.01</ele>
        <time>2021-08-02T14:17:16Z</time>
      </trkpt>
      <trkpt lat="42.18428" lon="0.09813">
        <ele>759.49</ele>
        <time>2021-08-02T14:17:21Z</time>
      </trkpt>
      <trkpt lat="42.18403" lon="0.09785">
        <ele>756.94</ele>
        <time>2021-08-02T14:17:25Z</time>
      </trkpt>
      <trkpt lat="42.18375" lon="0.09746">
        <ele>752.95</ele>
        <time>2021-08-02T14:17:30Z</time>
      </trkpt>
      <trkpt lat="42.18366" lon="0.09728">
        <ele>751.3</ele>
        <time>2021-08-02T14:17:32Z</time>
      </trkpt>
      <trkpt lat="42.18342" lon="0.09685">
        <ele>747.2</ele>
        <time>2021-08-02T14:17:37Z</time>
      </trkpt>
      <trkpt lat="42.18319" lon="0.09662">
        <ele>742.67</ele>
        <time>2021-08-02T14:17:42Z</time>
      </trkpt>
      <trkpt lat="42.18313" lon="0.09657">
        <ele>742.06</ele>
        <time>2021-08-02T14:17:43Z</time>
      </trkpt>
      <trkpt lat="42.18278" lon="0.09615">
        <ele>738.62</ele>
        <time>2021-08-02T14:17:49Z</time>
      </trkpt>
      <trkpt lat="42.1827" lon="0.09589">
        <ele>736.38</ele>
        <time>2021-08-02T14:17:53Z</time>
      </trkpt>
      <trkpt lat="42.18267" lon="0.09573">
        <ele>735.32</ele>
        <time>2021-08-02T14:17:55Z</time>
      </trkpt>
      <trkpt lat="42.18252" lon="0.09522">
        <ele>731.69</ele>
        <time>2021-08-02T14:18:01Z</time>
      </trkpt>
      <trkpt lat="42.18249" lon="0.09514">
        <ele>730.91</ele>
        <time>2021-08-02T14:18:02Z</time>
      </trkpt>
      <trkpt lat="42.18239" lon="0.09494">
        <ele>728.07</ele>
        <time>2021-08-02T14:18:06Z</time>
      </trkpt>
      <trkpt lat="42.18224" lon="0.09473">
        <ele>723.86</ele>
        <time>2021-08-02T14:18:12Z</time>
      </trkpt>
      <trkpt lat="42.18209" lon="0.09454">
        <ele>720.72</ele>
        <time>2021-08-02T14:18:18Z</time>
      </trkpt>
      <trkpt lat="42.18202" lon="0.09453">
        <ele>719.58</ele>
        <time>2021-08-02T14:18:20Z</time>
      </trkpt>
      <trkpt lat="42.18186" lon="0.09435">
        <ele>716.89</ele>
        <time>2021-08-02T14:18:25Z</time>
      </trkpt>
      <trkpt lat="42.18176" lon="0.09425">
        <ele>715.98</ele>
        <time>2021-08-02T14:18:27Z</time>
      </trkpt>
      <trkpt lat="42.18155" lon="0.09407">
        <ele>712.37</ele>
        <time>2021-08-02T14:18:34Z</time>
      </trkpt>
      <trkpt lat="42.18142" lon="0.09387">
        <ele>710.6</ele>
        <time>2021-08-02T14:18:38Z</time>
      </trkpt>
      <trkpt lat="42.18116" lon="0.09352">
        <ele>708.43</ele>
        <time>2021-08-02T14:18:43Z</time>
      </trkpt>
      <trkpt lat="42.18104" lon="0.0932">
        <ele>706.17</ele>
        <time>2021-08-02T14:18:47Z</time>
      </trkpt>
      <trkpt lat="42.18089" lon="0.09265">
        <ele>702.24</ele>
        <time>2021-08-02T14:18:54Z</time>
      </trkpt>
      <trkpt lat="42.18073" lon="0.09235">
        <ele>699.45</ele>
        <time>2021-08-02T14:18:59Z</time>
      </trkpt>
      <trkpt lat="42.18055" lon="0.09216">
        <ele>697.35</ele>
        <time>2021-08-02T14:19:03Z</time>
      </trkpt>
      <trkpt lat="42.18036" lon="0.09204">
        <ele>695.56</ele>
        <time>2021-08-02T14:19:06Z</time>
      </trkpt>
      <trkpt lat="42.18008" lon="0.09193">
        <ele>693.44</ele>
        <time>2021-08-02T14:19:10Z</time>
      </trkpt>
      <trkpt lat="42.17977" lon="0.09174">
        <ele>690.44</ele>
        <time>2021-08-02T14:19:14Z</time>
      </trkpt>
      <trkpt lat="42.17949" lon="0.09148">
        <ele>686.01</ele>
        <time>2021-08-02T14:19:19Z</time>
      </trkpt>
      <trkpt lat="42.17924" lon="0.09136">
        <ele>681.98</ele>
        <time>2021-08-02T14:19:23Z</time>
      </trkpt>
      <trkpt lat="42.179" lon="0.09144">
        <ele>677.84</ele>
        <time>2021-08-02T14:19:29Z</time>
      </trkpt>
      <trkpt lat="42.17894" lon="0.0919">
        <ele>674.6</ele>
        <time>2021-08-02T14:19:35Z</time>
      </trkpt>
      <trkpt lat="42.17888" lon="0.09195">
        <ele>673.47</ele>
        <time>2021-08-02T14:19:37Z</time>
      </trkpt>
      <trkpt lat="42.1788" lon="0.09201">
        <ele>672.5</ele>
        <time>2021-08-02T14:19:39Z</time>
      </trkpt>
      <trkpt lat="42.17847" lon="0.09211">
        <ele>668.63</ele>
        <time>2021-08-02T14:19:46Z</time>
      </trkpt>
      <trkpt lat="42.17829" lon="0.09218">
        <ele>665.48</ele>
        <time>2021-08-02T14:19:51Z</time>
      </trkpt>
      <trkpt lat="42.17816" lon="0.09224">
        <ele>663.86</ele>
        <time>2021-08-02T14:19:54Z</time>
      </trkpt>
      <trkpt lat="42.17813" lon="0.09246">
        <ele>660.64</ele>
        <time>2021-08-02T14:19:59Z</time>
      </trkpt>
      <trkpt lat="42.17826" lon="0.09271">
        <ele>658.23</ele>
        <time>2021-08-02T14:20:03Z</time>
      </trkpt>
      <trkpt lat="42.17827" lon="0.09308">
        <ele>656.17</ele>
        <time>2021-08-02T14:20:07Z</time>
      </trkpt>
      <trkpt lat="42.17823" lon="0.09369">
        <ele>653.01</ele>
        <time>2021-08-02T14:20:17Z</time>
      </trkpt>
      <trkpt lat="42.17798" lon="0.09364">
        <ele>652.91</ele>
        <time>2021-08-02T14:20:23Z</time>
      </trkpt>
      <trkpt lat="42.17793" lon="0.09335">
        <ele>654.46</ele>
        <time>2021-08-02T14:20:29Z</time>
      </trkpt>
      <trkpt lat="42.17794" lon="0.09312">
        <ele>655.46</ele>
        <time>2021-08-02T14:20:32Z</time>
      </trkpt>
      <trkpt lat="42.17779" lon="0.09286">
        <ele>657.76</ele>
        <time>2021-08-02T14:20:38Z</time>
      </trkpt>
      <trkpt lat="42.17764" lon="0.09273">
        <ele>658.22</ele>
        <time>2021-08-02T14:20:41Z</time>
      </trkpt>
      <trkpt lat="42.17741" lon="0.09264">
        <ele>657.46</ele>
        <time>2021-08-02T14:20:45Z</time>
      </trkpt>
      <trkpt lat="42.17726" lon="0.09225">
        <ele>655.2</ele>
        <time>2021-08-02T14:20:51Z</time>
      </trkpt>
      <trkpt lat="42.17726" lon="0.09217">
        <ele>655.03</ele>
        <time>2021-08-02T14:20:52Z</time>
      </trkpt>
      <trkpt lat="42.17727" lon="0.092">
        <ele>654.86</ele>
        <time>2021-08-02T14:20:54Z</time>
      </trkpt>
      <trkpt lat="42.17738" lon="0.09169">
        <ele>654.7</ele>
        <time>2021-08-02T14:20:58Z</time>
      </trkpt>
      <trkpt lat="42.17744" lon="0.09137">
        <ele>655.07</ele>
        <time>2021-08-02T14:21:03Z</time>
      </trkpt>
      <trkpt lat="42.17743" lon="0.09116">
        <ele>655.23</ele>
        <time>2021-08-02T14:21:06Z</time>
      </trkpt>
      <trkpt lat="42.17749" lon="0.0908">
        <ele>655.26</ele>
        <time>2021-08-02T14:21:10Z</time>
      </trkpt>
      <trkpt lat="42.17748" lon="0.09054">
        <ele>654.91</ele>
        <time>2021-08-02T14:21:14Z</time>
      </trkpt>
      <trkpt lat="42.17739" lon="0.09028">
        <ele>653.94</ele>
        <time>2021-08-02T14:21:20Z</time>
      </trkpt>
      <trkpt lat="42.17733" lon="0.09011">
        <ele>652.66</ele>
        <time>2021-08-02T14:21:24Z</time>
      </trkpt>
      <trkpt lat="42.17736" lon="0.08983">
        <ele>650.71</ele>
        <time>2021-08-02T14:21:29Z</time>
      </trkpt>
      <trkpt lat="42.17744" lon="0.08936">
        <ele>647.35</ele>
        <time>2021-08-02T14:21:37Z</time>
      </trkpt>
      <trkpt lat="42.17748" lon="0.08924">
        <ele>646.34</ele>
        <time>2021-08-02T14:21:39Z</time>
      </trkpt>
      <trkpt lat="42.17736" lon="0.08884">
        <ele>644.1</ele>
        <time>2021-08-02T14:21:46Z</time>
      </trkpt>
      <trkpt lat="42.17732" lon="0.08881">
        <ele>643.88</ele>
        <time>2021-08-02T14:21:47Z</time>
      </trkpt>
      <trkpt lat="42.17726" lon="0.08878">
        <ele>643.32</ele>
        <time>2021-08-02T14:21:49Z</time>
      </trkpt>
      <trkpt lat="42.17689" lon="0.08834">
        <ele>640.68</ele>
        <time>2021-08-02T14:21:59Z</time>
      </trkpt>
      <trkpt lat="42.1769" lon="0.08812">
        <ele>640.62</ele>
        <time>2021-08-02T14:22:02Z</time>
      </trkpt>
      <trkpt lat="42.17692" lon="0.08788">
        <ele>640.74</ele>
        <time>2021-08-02T14:22:05Z</time>
      </trkpt>
      <trkpt lat="42.17681" lon="0.08765">
        <ele>640.51</ele>
        <time>2021-08-02T14:22:10Z</time>
      </trkpt>
      <trkpt lat="42.17644" lon="0.08734">
        <ele>638.45</ele>
        <time>2021-08-02T14:22:19Z</time>
      </trkpt>
      <trkpt lat="42.17621" lon="0.08706">
        <ele>637.59</ele>
        <time>2021-08-02T14:22:25Z</time>
      </trkpt>
      <trkpt lat="42.1759" lon="0.08697">
        <ele>636.81</ele>
        <time>2021-08-02T14:22:31Z</time>
      </trkpt>
      <trkpt lat="42.17581" lon="0.08706">
        <ele>636.44</ele>
        <time>2021-08-02T14:22:33Z</time>
      </trkpt>
      <trkpt lat="42.17557" lon="0.0872">
        <ele>635.06</ele>
        <time>2021-08-02T14:22:38Z</time>
      </trkpt>
      <trkpt lat="42.17548" lon="0.08711">
        <ele>634.18</ele>
        <time>2021-08-02T14:22:41Z</time>
      </trkpt>
      <trkpt lat="42.17549" lon="0.08706">
        <ele>634.06</ele>
        <time>2021-08-02T14:22:42Z</time>
      </trkpt>
      <trkpt lat="42.17551" lon="0.087">
        <ele>633.84</ele>
        <time>2021-08-02T14:22:43Z</time>
      </trkpt>
      <trkpt lat="42.17553" lon="0.08696">
        <ele>633.79</ele>
        <time>2021-08-02T14:22:44Z</time>
      </trkpt>
      <trkpt lat="42.17556" lon="0.08692">
        <ele>633.76</ele>
        <time>2021-08-02T14:22:45Z</time>
      </trkpt>
      <trkpt lat="42.17583" lon="0.08641">
        <ele>633.21</ele>
        <time>2021-08-02T14:22:56Z</time>
      </trkpt>
      <trkpt lat="42.17588" lon="0.08626">
        <ele>633.39</ele>
        <time>2021-08-02T14:23:02Z</time>
      </trkpt>
      <trkpt lat="42.17583" lon="0.08588">
        <ele>634.02</ele>
        <time>2021-08-02T14:23:08Z</time>
      </trkpt>
      <trkpt lat="42.17579" lon="0.08579">
        <ele>634.26</ele>
        <time>2021-08-02T14:23:10Z</time>
      </trkpt>
      <trkpt lat="42.17545" lon="0.08524">
        <ele>632.22</ele>
        <time>2021-08-02T14:23:24Z</time>
      </trkpt>
      <trkpt lat="42.17536" lon="0.08517">
        <ele>629.65</ele>
        <time>2021-08-02T14:23:32Z</time>
      </trkpt>
      <trkpt lat="42.1753" lon="0.08514">
        <ele>628.96</ele>
        <time>2021-08-02T14:23:36Z</time>
      </trkpt>
      <trkpt lat="42.17506" lon="0.0849">
        <ele>627.93</ele>
        <time>2021-08-02T14:23:43Z</time>
      </trkpt>
      <trkpt lat="42.1752" lon="0.08478">
        <ele>626.04</ele>
        <time>2021-08-02T14:23:49Z</time>
      </trkpt>
      <trkpt lat="42.17541" lon="0.08491">
        <ele>624.24</ele>
        <time>2021-08-02T14:23:54Z</time>
      </trkpt>
      <trkpt lat="42.17543" lon="0.08471">
        <ele>623.01</ele>
        <time>2021-08-02T14:23:59Z</time>
      </trkpt>
      <trkpt lat="42.17503" lon="0.08431">
        <ele>619.51</ele>
        <time>2021-08-02T14:24:08Z</time>
      </trkpt>
      <trkpt lat="42.17495" lon="0.08425">
        <ele>619.11</ele>
        <time>2021-08-02T14:24:09Z</time>
      </trkpt>
      <trkpt lat="42.17472" lon="0.0839">
        <ele>615.47</ele>
        <time>2021-08-02T14:24:15Z</time>
      </trkpt>
      <trkpt lat="42.17448" lon="0.08374">
        <ele>613.42</ele>
        <time>2021-08-02T14:24:19Z</time>
      </trkpt>
      <trkpt lat="42.17438" lon="0.08363">
        <ele>612.81</ele>
        <time>2021-08-02T14:24:21Z</time>
      </trkpt>
      <trkpt lat="42.17422" lon="0.08326">
        <ele>613.37</ele>
        <time>2021-08-02T14:24:28Z</time>
      </trkpt>
      <trkpt lat="42.17447" lon="0.08339">
        <ele>614.51</ele>
        <time>2021-08-02T14:24:32Z</time>
      </trkpt>
      <trkpt lat="42.1746" lon="0.08331">
        <ele>616.27</ele>
        <time>2021-08-02T14:24:37Z</time>
      </trkpt>
      <trkpt lat="42.17423" lon="0.08264">
        <ele>619.5</ele>
        <time>2021-08-02T14:24:45Z</time>
      </trkpt>
      <trkpt lat="42.1741" lon="0.08246">
        <ele>620.78</ele>
        <time>2021-08-02T14:24:48Z</time>
      </trkpt>
      <trkpt lat="42.17402" lon="0.08233">
        <ele>621.9</ele>
        <time>2021-08-02T14:24:50Z</time>
      </trkpt>
      <trkpt lat="42.17383" lon="0.08209">
        <ele>624.02</ele>
        <time>2021-08-02T14:24:54Z</time>
      </trkpt>
      <trkpt lat="42.17369" lon="0.08185">
        <ele>626.21</ele>
        <time>2021-08-02T14:24:58Z</time>
      </trkpt>
      <trkpt lat="42.17365" lon="0.08158">
        <ele>628.34</ele>
        <time>2021-08-02T14:25:02Z</time>
      </trkpt>
      <trkpt lat="42.1736" lon="0.08131">
        <ele>630.49</ele>
        <time>2021-08-02T14:25:05Z</time>
      </trkpt>
      <trkpt lat="42.17352" lon="0.08088">
        <ele>634.22</ele>
        <time>2021-08-02T14:25:11Z</time>
      </trkpt>
      <trkpt lat="42.17335" lon="0.08073">
        <ele>637.08</ele>
        <time>2021-08-02T14:25:16Z</time>
      </trkpt>
      <trkpt lat="42.17316" lon="0.08066">
        <ele>639.07</ele>
        <time>2021-08-02T14:25:20Z</time>
      </trkpt>
      <trkpt lat="42.17297" lon="0.08061">
        <ele>641.87</ele>
        <time>2021-08-02T14:25:28Z</time>
      </trkpt>
      <trkpt lat="42.17295" lon="0.0806">
        <ele>642.62</ele>
        <time>2021-08-02T14:25:34Z</time>
      </trkpt>
      <trkpt lat="42.17271" lon="0.08039">
        <ele>642.97</ele>
        <time>2021-08-02T14:25:39Z</time>
      </trkpt>
      <trkpt lat="42.17259" lon="0.08029">
        <ele>643.15</ele>
        <time>2021-08-02T14:25:41Z</time>
      </trkpt>
      <trkpt lat="42.17265" lon="0.07994">
        <ele>644.13</ele>
        <time>2021-08-02T14:25:48Z</time>
      </trkpt>
      <trkpt lat="42.17278" lon="0.07987">
        <ele>644.62</ele>
        <time>2021-08-02T14:25:50Z</time>
      </trkpt>
      <trkpt lat="42.17322" lon="0.07927">
        <ele>647.29</ele>
        <time>2021-08-02T14:25:59Z</time>
      </trkpt>
      <trkpt lat="42.17336" lon="0.07926">
        <ele>647.45</ele>
        <time>2021-08-02T14:26:02Z</time>
      </trkpt>
      <trkpt lat="42.17377" lon="0.0794">
        <ele>644.26</ele>
        <time>2021-08-02T14:26:12Z</time>
      </trkpt>
      <trkpt lat="42.17403" lon="0.07942">
        <ele>641.99</ele>
        <time>2021-08-02T14:26:18Z</time>
      </trkpt>
      <trkpt lat="42.17418" lon="0.07915">
        <ele>640.11</ele>
        <time>2021-08-02T14:26:23Z</time>
      </trkpt>
      <trkpt lat="42.1738" lon="0.07876">
        <ele>639</ele>
        <time>2021-08-02T14:26:31Z</time>
      </trkpt>
      <trkpt lat="42.17366" lon="0.07863">
        <ele>638.71</ele>
        <time>2021-08-02T14:26:34Z</time>
      </trkpt>
      <trkpt lat="42.17327" lon="0.07814">
        <ele>637.38</ele>
        <time>2021-08-02T14:26:40Z</time>
      </trkpt>
      <trkpt lat="42.17318" lon="0.07784">
        <ele>636.24</ele>
        <time>2021-08-02T14:26:44Z</time>
      </trkpt>
      <trkpt lat="42.17286" lon="0.07754">
        <ele>634.95</ele>
        <time>2021-08-02T14:26:50Z</time>
      </trkpt>
      <trkpt lat="42.17264" lon="0.07759">
        <ele>634.66</ele>
        <time>2021-08-02T14:26:53Z</time>
      </trkpt>
      <trkpt lat="42.1724" lon="0.07759">
        <ele>634.66</ele>
        <time>2021-08-02T14:26:56Z</time>
      </trkpt>
      <trkpt lat="42.17223" lon="0.0773">
        <ele>634.93</ele>
        <time>2021-08-02T14:27:01Z</time>
      </trkpt>
      <trkpt lat="42.17233" lon="0.0772">
        <ele>635.34</ele>
        <time>2021-08-02T14:27:03Z</time>
      </trkpt>
      <trkpt lat="42.1725" lon="0.07689">
        <ele>636.64</ele>
        <time>2021-08-02T14:27:07Z</time>
      </trkpt>
      <trkpt lat="42.17293" lon="0.07665">
        <ele>640.01</ele>
        <time>2021-08-02T14:27:14Z</time>
      </trkpt>
      <trkpt lat="42.17301" lon="0.07661">
        <ele>640.4</ele>
        <time>2021-08-02T14:27:15Z</time>
      </trkpt>
      <trkpt lat="42.17332" lon="0.0765">
        <ele>643.31</ele>
        <time>2021-08-02T14:27:21Z</time>
      </trkpt>
      <trkpt lat="42.17391" lon="0.07648">
        <ele>646.32</ele>
        <time>2021-08-02T14:27:29Z</time>
      </trkpt>
      <trkpt lat="42.17397" lon="0.07648">
        <ele>646.71</ele>
        <time>2021-08-02T14:27:30Z</time>
      </trkpt>
      <trkpt lat="42.17419" lon="0.07653">
        <ele>647.61</ele>
        <time>2021-08-02T14:27:33Z</time>
      </trkpt>
      <trkpt lat="42.17463" lon="0.07628">
        <ele>648.12</ele>
        <time>2021-08-02T14:27:40Z</time>
      </trkpt>
      <trkpt lat="42.17453" lon="0.07572">
        <ele>647.7</ele>
        <time>2021-08-02T14:27:45Z</time>
      </trkpt>
      <trkpt lat="42.17417" lon="0.07534">
        <ele>647.6</ele>
        <time>2021-08-02T14:27:51Z</time>
      </trkpt>
      <trkpt lat="42.17399" lon="0.07472">
        <ele>648.16</ele>
        <time>2021-08-02T14:27:58Z</time>
      </trkpt>
      <trkpt lat="42.17371" lon="0.0744">
        <ele>650.34</ele>
        <time>2021-08-02T14:28:04Z</time>
      </trkpt>
      <trkpt lat="42.17374" lon="0.07405">
        <ele>652.65</ele>
        <time>2021-08-02T14:28:08Z</time>
      </trkpt>
      <trkpt lat="42.17379" lon="0.07391">
        <ele>653.76</ele>
        <time>2021-08-02T14:28:10Z</time>
      </trkpt>
      <trkpt lat="42.17382" lon="0.07372">
        <ele>655.76</ele>
        <time>2021-08-02T14:28:13Z</time>
      </trkpt>
      <trkpt lat="42.17386" lon="0.07334">
        <ele>657.84</ele>
        <time>2021-08-02T14:28:19Z</time>
      </trkpt>
      <trkpt lat="42.17384" lon="0.07262">
        <ele>657.59</ele>
        <time>2021-08-02T14:28:28Z</time>
      </trkpt>
      <trkpt lat="42.17394" lon="0.07163">
        <ele>656.02</ele>
        <time>2021-08-02T14:28:37Z</time>
      </trkpt>
      <trkpt lat="42.17383" lon="0.07114">
        <ele>654.99</ele>
        <time>2021-08-02T14:28:41Z</time>
      </trkpt>
      <trkpt lat="42.17373" lon="0.07091">
        <ele>654.36</ele>
        <time>2021-08-02T14:28:43Z</time>
      </trkpt>
      <trkpt lat="42.17359" lon="0.07009">
        <ele>650.48</ele>
        <time>2021-08-02T14:28:50Z</time>
      </trkpt>
      <trkpt lat="42.17348" lon="0.06936">
        <ele>647.1</ele>
        <time>2021-08-02T14:28:57Z</time>
      </trkpt>
      <trkpt lat="42.1736" lon="0.06909">
        <ele>645.12</ele>
        <time>2021-08-02T14:29:02Z</time>
      </trkpt>
      <trkpt lat="42.17368" lon="0.06899">
        <ele>644.58</ele>
        <time>2021-08-02T14:29:04Z</time>
      </trkpt>
      <trkpt lat="42.17394" lon="0.06851">
        <ele>643.46</ele>
        <time>2021-08-02T14:29:10Z</time>
      </trkpt>
      <trkpt lat="42.17418" lon="0.06813">
        <ele>641.83</ele>
        <time>2021-08-02T14:29:18Z</time>
      </trkpt>
      <trkpt lat="42.17431" lon="0.06811">
        <ele>640.6</ele>
        <time>2021-08-02T14:29:22Z</time>
      </trkpt>
      <trkpt lat="42.17473" lon="0.0684">
        <ele>639.95</ele>
        <time>2021-08-02T14:29:28Z</time>
      </trkpt>
      <trkpt lat="42.17536" lon="0.06833">
        <ele>640.62</ele>
        <time>2021-08-02T14:29:34Z</time>
      </trkpt>
      <trkpt lat="42.17624" lon="0.06792">
        <ele>643.87</ele>
        <time>2021-08-02T14:29:41Z</time>
      </trkpt>
      <trkpt lat="42.17681" lon="0.06807">
        <ele>647.02</ele>
        <time>2021-08-02T14:29:46Z</time>
      </trkpt>
      <trkpt lat="42.17733" lon="0.06844">
        <ele>648.94</ele>
        <time>2021-08-02T14:29:51Z</time>
      </trkpt>
      <trkpt lat="42.17778" lon="0.06843">
        <ele>649.62</ele>
        <time>2021-08-02T14:29:55Z</time>
      </trkpt>
      <trkpt lat="42.17832" lon="0.06838">
        <ele>649.76</ele>
        <time>2021-08-02T14:30:00Z</time>
      </trkpt>
      <trkpt lat="42.17852" lon="0.06844">
        <ele>649.76</ele>
        <time>2021-08-02T14:30:02Z</time>
      </trkpt>
      <trkpt lat="42.17893" lon="0.06819">
        <ele>649.97</ele>
        <time>2021-08-02T14:30:07Z</time>
      </trkpt>
      <trkpt lat="42.1791" lon="0.06717">
        <ele>651.46</ele>
        <time>2021-08-02T14:30:14Z</time>
      </trkpt>
      <trkpt lat="42.1788" lon="0.06642">
        <ele>653.41</ele>
        <time>2021-08-02T14:30:18Z</time>
      </trkpt>
      <trkpt lat="42.17855" lon="0.06611">
        <ele>654.77</ele>
        <time>2021-08-02T14:30:20Z</time>
      </trkpt>
      <trkpt lat="42.17827" lon="0.06538">
        <ele>657.57</ele>
        <time>2021-08-02T14:30:24Z</time>
      </trkpt>
      <trkpt lat="42.1779" lon="0.06416">
        <ele>661.46</ele>
        <time>2021-08-02T14:30:30Z</time>
      </trkpt>
      <trkpt lat="42.17808" lon="0.06348">
        <ele>663.58</ele>
        <time>2021-08-02T14:30:35Z</time>
      </trkpt>
      <trkpt lat="42.17838" lon="0.06354">
        <ele>664.13</ele>
        <time>2021-08-02T14:30:37Z</time>
      </trkpt>
      <trkpt lat="42.1788" lon="0.0637">
        <ele>664.82</ele>
        <time>2021-08-02T14:30:40Z</time>
      </trkpt>
      <trkpt lat="42.17944" lon="0.06346">
        <ele>665.03</ele>
        <time>2021-08-02T14:30:45Z</time>
      </trkpt>
      <trkpt lat="42.18021" lon="0.06305">
        <ele>663.4</ele>
        <time>2021-08-02T14:30:51Z</time>
      </trkpt>
      <trkpt lat="42.18068" lon="0.06345">
        <ele>662.38</ele>
        <time>2021-08-02T14:30:55Z</time>
      </trkpt>
      <trkpt lat="42.1811" lon="0.06362">
        <ele>661.88</ele>
        <time>2021-08-02T14:30:59Z</time>
      </trkpt>
      <trkpt lat="42.18122" lon="0.0635">
        <ele>661.81</ele>
        <time>2021-08-02T14:31:00Z</time>
      </trkpt>
      <trkpt lat="42.18192" lon="0.06331">
        <ele>661.39</ele>
        <time>2021-08-02T14:31:06Z</time>
      </trkpt>
      <trkpt lat="42.18222" lon="0.06402">
        <ele>661.32</ele>
        <time>2021-08-02T14:31:10Z</time>
      </trkpt>
      <trkpt lat="42.18239" lon="0.06472">
        <ele>661.53</ele>
        <time>2021-08-02T14:31:13Z</time>
      </trkpt>
      <trkpt lat="42.18263" lon="0.06529">
        <ele>661.88</ele>
        <time>2021-08-02T14:31:16Z</time>
      </trkpt>
      <trkpt lat="42.18314" lon="0.06548">
        <ele>662.4</ele>
        <time>2021-08-02T14:31:21Z</time>
      </trkpt>
      <trkpt lat="42.18326" lon="0.06487">
        <ele>662.77</ele>
        <time>2021-08-02T14:31:25Z</time>
      </trkpt>
      <trkpt lat="42.1833" lon="0.06389">
        <ele>663.86</ele>
        <time>2021-08-02T14:31:30Z</time>
      </trkpt>
      <trkpt lat="42.18351" lon="0.06326">
        <ele>665.01</ele>
        <time>2021-08-02T14:31:33Z</time>
      </trkpt>
      <trkpt lat="42.18412" lon="0.06275">
        <ele>666.9</ele>
        <time>2021-08-02T14:31:38Z</time>
      </trkpt>
      <trkpt lat="42.18435" lon="0.06299">
        <ele>667.37</ele>
        <time>2021-08-02T14:31:40Z</time>
      </trkpt>
      <trkpt lat="42.18504" lon="0.0634">
        <ele>667.39</ele>
        <time>2021-08-02T14:31:46Z</time>
      </trkpt>
      <trkpt lat="42.18516" lon="0.0629">
        <ele>665.71</ele>
        <time>2021-08-02T14:31:50Z</time>
      </trkpt>
      <trkpt lat="42.18544" lon="0.06182">
        <ele>661.79</ele>
        <time>2021-08-02T14:31:57Z</time>
      </trkpt>
      <trkpt lat="42.186" lon="0.06169">
        <ele>658.14</ele>
        <time>2021-08-02T14:32:02Z</time>
      </trkpt>
      <trkpt lat="42.18642" lon="0.06206">
        <ele>654.69</ele>
        <time>2021-08-02T14:32:07Z</time>
      </trkpt>
      <trkpt lat="42.18691" lon="0.06296">
        <ele>650.22</ele>
        <time>2021-08-02T14:32:14Z</time>
      </trkpt>
      <trkpt lat="42.18697" lon="0.06327">
        <ele>648.99</ele>
        <time>2021-08-02T14:32:16Z</time>
      </trkpt>
      <trkpt lat="42.1873" lon="0.06361">
        <ele>646.11</ele>
        <time>2021-08-02T14:32:21Z</time>
      </trkpt>
      <trkpt lat="42.18762" lon="0.06318">
        <ele>643.56</ele>
        <time>2021-08-02T14:32:27Z</time>
      </trkpt>
      <trkpt lat="42.18761" lon="0.06289">
        <ele>643.36</ele>
        <time>2021-08-02T14:32:29Z</time>
      </trkpt>
      <trkpt lat="42.18756" lon="0.06236">
        <ele>643.49</ele>
        <time>2021-08-02T14:32:32Z</time>
      </trkpt>
      <trkpt lat="42.1873" lon="0.06167">
        <ele>644.75</ele>
        <time>2021-08-02T14:32:37Z</time>
      </trkpt>
      <trkpt lat="42.18748" lon="0.06122">
        <ele>645.41</ele>
        <time>2021-08-02T14:32:41Z</time>
      </trkpt>
      <trkpt lat="42.18788" lon="0.06132">
        <ele>645.68</ele>
        <time>2021-08-02T14:32:44Z</time>
      </trkpt>
      <trkpt lat="42.1885" lon="0.06143">
        <ele>647.28</ele>
        <time>2021-08-02T14:32:49Z</time>
      </trkpt>
      <trkpt lat="42.18932" lon="0.06118">
        <ele>648.98</ele>
        <time>2021-08-02T14:32:56Z</time>
      </trkpt>
      <trkpt lat="42.18972" lon="0.06087">
        <ele>648.3</ele>
        <time>2021-08-02T14:33:00Z</time>
      </trkpt>
      <trkpt lat="42.19023" lon="0.06059">
        <ele>645.37</ele>
        <time>2021-08-02T14:33:05Z</time>
      </trkpt>
      <trkpt lat="42.19042" lon="0.06058">
        <ele>644.1</ele>
        <time>2021-08-02T14:33:07Z</time>
      </trkpt>
      <trkpt lat="42.19063" lon="0.06034">
        <ele>641.51</ele>
        <time>2021-08-02T14:33:12Z</time>
      </trkpt>
      <trkpt lat="42.19063" lon="0.06025">
        <ele>641.28</ele>
        <time>2021-08-02T14:33:13Z</time>
      </trkpt>
      <trkpt lat="42.19062" lon="0.0598">
        <ele>640.2</ele>
        <time>2021-08-02T14:33:18Z</time>
      </trkpt>
      <trkpt lat="42.19027" lon="0.05935">
        <ele>640.21</ele>
        <time>2021-08-02T14:33:24Z</time>
      </trkpt>
      <trkpt lat="42.19017" lon="0.05927">
        <ele>640.36</ele>
        <time>2021-08-02T14:33:25Z</time>
      </trkpt>
      <trkpt lat="42.18961" lon="0.05932">
        <ele>643.18</ele>
        <time>2021-08-02T14:33:32Z</time>
      </trkpt>
      <trkpt lat="42.1891" lon="0.05973">
        <ele>645.88</ele>
        <time>2021-08-02T14:33:39Z</time>
      </trkpt>
      <trkpt lat="42.18844" lon="0.05985">
        <ele>647.55</ele>
        <time>2021-08-02T14:33:45Z</time>
      </trkpt>
      <trkpt lat="42.18792" lon="0.05977">
        <ele>648.1</ele>
        <time>2021-08-02T14:33:49Z</time>
      </trkpt>
      <trkpt lat="42.18745" lon="0.05982">
        <ele>648.78</ele>
        <time>2021-08-02T14:33:53Z</time>
      </trkpt>
      <trkpt lat="42.18668" lon="0.05956">
        <ele>650.04</ele>
        <time>2021-08-02T14:33:59Z</time>
      </trkpt>
      <trkpt lat="42.18655" lon="0.05952">
        <ele>650.34</ele>
        <time>2021-08-02T14:34:00Z</time>
      </trkpt>
      <trkpt lat="42.1861" lon="0.05896">
        <ele>652.61</ele>
        <time>2021-08-02T14:34:06Z</time>
      </trkpt>
      <trkpt lat="42.18612" lon="0.05882">
        <ele>652.98</ele>
        <time>2021-08-02T14:34:07Z</time>
      </trkpt>
      <trkpt lat="42.1862" lon="0.0583">
        <ele>654.04</ele>
        <time>2021-08-02T14:34:10Z</time>
      </trkpt>
      <trkpt lat="42.18617" lon="0.05756">
        <ele>655.95</ele>
        <time>2021-08-02T14:34:14Z</time>
      </trkpt>
      <trkpt lat="42.18588" lon="0.05716">
        <ele>657.86</ele>
        <time>2021-08-02T14:34:19Z</time>
      </trkpt>
      <trkpt lat="42.18565" lon="0.05761">
        <ele>659.05</ele>
        <time>2021-08-02T14:34:23Z</time>
      </trkpt>
      <trkpt lat="42.18548" lon="0.0582">
        <ele>660.37</ele>
        <time>2021-08-02T14:34:27Z</time>
      </trkpt>
      <trkpt lat="42.18496" lon="0.05879">
        <ele>663.79</ele>
        <time>2021-08-02T14:34:35Z</time>
      </trkpt>
      <trkpt lat="42.18465" lon="0.05853">
        <ele>665.58</ele>
        <time>2021-08-02T14:34:39Z</time>
      </trkpt>
      <trkpt lat="42.18458" lon="0.0578">
        <ele>668.16</ele>
        <time>2021-08-02T14:34:44Z</time>
      </trkpt>
      <trkpt lat="42.18418" lon="0.05762">
        <ele>670.03</ele>
        <time>2021-08-02T14:34:48Z</time>
      </trkpt>
      <trkpt lat="42.18395" lon="0.05776">
        <ele>671.2</ele>
        <time>2021-08-02T14:34:50Z</time>
      </trkpt>
      <trkpt lat="42.18363" lon="0.05802">
        <ele>672.78</ele>
        <time>2021-08-02T14:34:53Z</time>
      </trkpt>
      <trkpt lat="42.18328" lon="0.0578">
        <ele>674.98</ele>
        <time>2021-08-02T14:34:58Z</time>
      </trkpt>
      <trkpt lat="42.18345" lon="0.05718">
        <ele>677.05</ele>
        <time>2021-08-02T14:35:03Z</time>
      </trkpt>
      <trkpt lat="42.18313" lon="0.05683">
        <ele>678.89</ele>
        <time>2021-08-02T14:35:07Z</time>
      </trkpt>
      <trkpt lat="42.18276" lon="0.05689">
        <ele>680.17</ele>
        <time>2021-08-02T14:35:10Z</time>
      </trkpt>
      <trkpt lat="42.18193" lon="0.05676">
        <ele>683.89</ele>
        <time>2021-08-02T14:35:17Z</time>
      </trkpt>
      <trkpt lat="42.18176" lon="0.05617">
        <ele>686.12</ele>
        <time>2021-08-02T14:35:21Z</time>
      </trkpt>
      <trkpt lat="42.18187" lon="0.0559">
        <ele>687.05</ele>
        <time>2021-08-02T14:35:23Z</time>
      </trkpt>
      <trkpt lat="42.18254" lon="0.05502">
        <ele>690.54</ele>
        <time>2021-08-02T14:35:30Z</time>
      </trkpt>
      <trkpt lat="42.18272" lon="0.05478">
        <ele>691.64</ele>
        <time>2021-08-02T14:35:32Z</time>
      </trkpt>
      <trkpt lat="42.18276" lon="0.05406">
        <ele>693.92</ele>
        <time>2021-08-02T14:35:38Z</time>
      </trkpt>
      <trkpt lat="42.18219" lon="0.05367">
        <ele>695.7</ele>
        <time>2021-08-02T14:35:43Z</time>
      </trkpt>
      <trkpt lat="42.1819" lon="0.0537">
        <ele>696.41</ele>
        <time>2021-08-02T14:35:45Z</time>
      </trkpt>
      <trkpt lat="42.18159" lon="0.05377">
        <ele>697.25</ele>
        <time>2021-08-02T14:35:47Z</time>
      </trkpt>
      <trkpt lat="42.18116" lon="0.05346">
        <ele>698.38</ele>
        <time>2021-08-02T14:35:51Z</time>
      </trkpt>
      <trkpt lat="42.18076" lon="0.0528">
        <ele>698.9</ele>
        <time>2021-08-02T14:35:56Z</time>
      </trkpt>
      <trkpt lat="42.18037" lon="0.05216">
        <ele>699.42</ele>
        <time>2021-08-02T14:36:00Z</time>
      </trkpt>
      <trkpt lat="42.18007" lon="0.05187">
        <ele>699.97</ele>
        <time>2021-08-02T14:36:02Z</time>
      </trkpt>
      <trkpt lat="42.17961" lon="0.05148">
        <ele>701.16</ele>
        <time>2021-08-02T14:36:05Z</time>
      </trkpt>
      <trkpt lat="42.1792" lon="0.0513">
        <ele>702.32</ele>
        <time>2021-08-02T14:36:08Z</time>
      </trkpt>
      <trkpt lat="42.17903" lon="0.05065">
        <ele>703.73</ele>
        <time>2021-08-02T14:36:13Z</time>
      </trkpt>
      <trkpt lat="42.17892" lon="0.04977">
        <ele>705.92</ele>
        <time>2021-08-02T14:36:19Z</time>
      </trkpt>
      <trkpt lat="42.17885" lon="0.049">
        <ele>708.23</ele>
        <time>2021-08-02T14:36:25Z</time>
      </trkpt>
      <trkpt lat="42.17924" lon="0.04915">
        <ele>709.54</ele>
        <time>2021-08-02T14:36:28Z</time>
      </trkpt>
      <trkpt lat="42.17937" lon="0.04927">
        <ele>709.99</ele>
        <time>2021-08-02T14:36:29Z</time>
      </trkpt>
      <trkpt lat="42.17994" lon="0.04987">
        <ele>712.17</ele>
        <time>2021-08-02T14:36:33Z</time>
      </trkpt>
      <trkpt lat="42.18036" lon="0.05081">
        <ele>714.3</ele>
        <time>2021-08-02T14:36:38Z</time>
      </trkpt>
      <trkpt lat="42.18063" lon="0.05101">
        <ele>714.87</ele>
        <time>2021-08-02T14:36:40Z</time>
      </trkpt>
      <trkpt lat="42.18201" lon="0.05175">
        <ele>718.18</ele>
        <time>2021-08-02T14:36:48Z</time>
      </trkpt>
      <trkpt lat="42.18266" lon="0.05222">
        <ele>721.31</ele>
        <time>2021-08-02T14:36:52Z</time>
      </trkpt>
      <trkpt lat="42.18321" lon="0.05273">
        <ele>725.07</ele>
        <time>2021-08-02T14:36:56Z</time>
      </trkpt>
      <trkpt lat="42.18386" lon="0.05388">
        <ele>728.99</ele>
        <time>2021-08-02T14:37:03Z</time>
      </trkpt>
      <trkpt lat="42.18393" lon="0.05511">
        <ele>730.62</ele>
        <time>2021-08-02T14:37:10Z</time>
      </trkpt>
      <trkpt lat="42.18415" lon="0.05545">
        <ele>730.67</ele>
        <time>2021-08-02T14:37:14Z</time>
      </trkpt>
      <trkpt lat="42.18484" lon="0.05554">
        <ele>730.77</ele>
        <time>2021-08-02T14:37:19Z</time>
      </trkpt>
      <trkpt lat="42.18541" lon="0.05496">
        <ele>731.5</ele>
        <time>2021-08-02T14:37:25Z</time>
      </trkpt>
      <trkpt lat="42.18577" lon="0.05465">
        <ele>732.11</ele>
        <time>2021-08-02T14:37:28Z</time>
      </trkpt>
      <trkpt lat="42.18652" lon="0.05431">
        <ele>734.93</ele>
        <time>2021-08-02T14:37:33Z</time>
      </trkpt>
      <trkpt lat="42.18713" lon="0.05446">
        <ele>740.19</ele>
        <time>2021-08-02T14:37:38Z</time>
      </trkpt>
      <trkpt lat="42.18748" lon="0.05452">
        <ele>743.51</ele>
        <time>2021-08-02T14:37:42Z</time>
      </trkpt>
      <trkpt lat="42.1879" lon="0.05408">
        <ele>747.03</ele>
        <time>2021-08-02T14:37:47Z</time>
      </trkpt>
      <trkpt lat="42.18801" lon="0.05402">
        <ele>747.74</ele>
        <time>2021-08-02T14:37:48Z</time>
      </trkpt>
      <trkpt lat="42.1884" lon="0.05383">
        <ele>750.13</ele>
        <time>2021-08-02T14:37:51Z</time>
      </trkpt>
      <trkpt lat="42.18903" lon="0.0539">
        <ele>754.4</ele>
        <time>2021-08-02T14:37:56Z</time>
      </trkpt>
      <trkpt lat="42.18946" lon="0.05373">
        <ele>757.92</ele>
        <time>2021-08-02T14:38:00Z</time>
      </trkpt>
      <trkpt lat="42.18958" lon="0.05319">
        <ele>761.4</ele>
        <time>2021-08-02T14:38:04Z</time>
      </trkpt>
      <trkpt lat="42.18985" lon="0.05258">
        <ele>765.86</ele>
        <time>2021-08-02T14:38:10Z</time>
      </trkpt>
      <trkpt lat="42.19039" lon="0.05219">
        <ele>769.17</ele>
        <time>2021-08-02T14:38:16Z</time>
      </trkpt>
      <trkpt lat="42.19115" lon="0.05187">
        <ele>771.62</ele>
        <time>2021-08-02T14:38:22Z</time>
      </trkpt>
      <trkpt lat="42.19158" lon="0.05198">
        <ele>772.74</ele>
        <time>2021-08-02T14:38:25Z</time>
      </trkpt>
      <trkpt lat="42.19204" lon="0.05218">
        <ele>774.42</ele>
        <time>2021-08-02T14:38:29Z</time>
      </trkpt>
      <trkpt lat="42.19242" lon="0.05187">
        <ele>777.89</ele>
        <time>2021-08-02T14:38:35Z</time>
      </trkpt>
      <trkpt lat="42.19243" lon="0.05174">
        <ele>778.41</ele>
        <time>2021-08-02T14:38:36Z</time>
      </trkpt>
      <trkpt lat="42.19294" lon="0.05106">
        <ele>781.99</ele>
        <time>2021-08-02T14:38:43Z</time>
      </trkpt>
      <trkpt lat="42.19307" lon="0.05079">
        <ele>782.89</ele>
        <time>2021-08-02T14:38:45Z</time>
      </trkpt>
      <trkpt lat="42.19321" lon="0.05044">
        <ele>783.68</ele>
        <time>2021-08-02T14:38:47Z</time>
      </trkpt>
      <trkpt lat="42.19382" lon="0.0499">
        <ele>785.03</ele>
        <time>2021-08-02T14:38:52Z</time>
      </trkpt>
      <trkpt lat="42.19432" lon="0.04993">
        <ele>785.56</ele>
        <time>2021-08-02T14:38:55Z</time>
      </trkpt>
      <trkpt lat="42.19604" lon="0.05054">
        <ele>787.06</ele>
        <time>2021-08-02T14:39:05Z</time>
      </trkpt>
      <trkpt lat="42.19675" lon="0.05092">
        <ele>787.18</ele>
        <time>2021-08-02T14:39:10Z</time>
      </trkpt>
      <trkpt lat="42.1973" lon="0.05086">
        <ele>786.39</ele>
        <time>2021-08-02T14:39:15Z</time>
      </trkpt>
      <trkpt lat="42.19789" lon="0.05049">
        <ele>785</ele>
        <time>2021-08-02T14:39:20Z</time>
      </trkpt>
      <trkpt lat="42.19847" lon="0.05038">
        <ele>784.15</ele>
        <time>2021-08-02T14:39:24Z</time>
      </trkpt>
      <trkpt lat="42.19918" lon="0.04986">
        <ele>783.03</ele>
        <time>2021-08-02T14:39:30Z</time>
      </trkpt>
      <trkpt lat="42.19977" lon="0.04996">
        <ele>782.73</ele>
        <time>2021-08-02T14:39:36Z</time>
      </trkpt>
      <trkpt lat="42.20037" lon="0.05062">
        <ele>783.66</ele>
        <time>2021-08-02T14:39:43Z</time>
      </trkpt>
      <trkpt lat="42.20045" lon="0.05066">
        <ele>783.91</ele>
        <time>2021-08-02T14:39:44Z</time>
      </trkpt>
      <trkpt lat="42.20054" lon="0.05068">
        <ele>784.23</ele>
        <time>2021-08-02T14:39:45Z</time>
      </trkpt>
      <trkpt lat="42.20081" lon="0.05056">
        <ele>785.22</ele>
        <time>2021-08-02T14:39:48Z</time>
      </trkpt>
      <trkpt lat="42.20107" lon="0.05038">
        <ele>786.49</ele>
        <time>2021-08-02T14:39:51Z</time>
      </trkpt>
      <trkpt lat="42.2014" lon="0.04951">
        <ele>790.49</ele>
        <time>2021-08-02T14:39:58Z</time>
      </trkpt>
      <trkpt lat="42.20124" lon="0.04877">
        <ele>793.8</ele>
        <time>2021-08-02T14:40:03Z</time>
      </trkpt>
      <trkpt lat="42.20129" lon="0.04845">
        <ele>795.26</ele>
        <time>2021-08-02T14:40:05Z</time>
      </trkpt>
      <trkpt lat="42.2014" lon="0.04758">
        <ele>799.01</ele>
        <time>2021-08-02T14:40:10Z</time>
      </trkpt>
      <trkpt lat="42.20138" lon="0.04667">
        <ele>802.62</ele>
        <time>2021-08-02T14:40:15Z</time>
      </trkpt>
      <trkpt lat="42.20139" lon="0.0465">
        <ele>803.39</ele>
        <time>2021-08-02T14:40:16Z</time>
      </trkpt>
      <trkpt lat="42.20159" lon="0.0459">
        <ele>806.45</ele>
        <time>2021-08-02T14:40:20Z</time>
      </trkpt>
      <trkpt lat="42.20178" lon="0.04564">
        <ele>807.73</ele>
        <time>2021-08-02T14:40:22Z</time>
      </trkpt>
      <trkpt lat="42.20199" lon="0.04519">
        <ele>809.18</ele>
        <time>2021-08-02T14:40:25Z</time>
      </trkpt>
      <trkpt lat="42.20264" lon="0.04441">
        <ele>811.11</ele>
        <time>2021-08-02T14:40:31Z</time>
      </trkpt>
      <trkpt lat="42.2037" lon="0.04404">
        <ele>812.74</ele>
        <time>2021-08-02T14:40:38Z</time>
      </trkpt>
      <trkpt lat="42.20437" lon="0.04388">
        <ele>813.66</ele>
        <time>2021-08-02T14:40:42Z</time>
      </trkpt>
      <trkpt lat="42.20505" lon="0.04403">
        <ele>814.27</ele>
        <time>2021-08-02T14:40:46Z</time>
      </trkpt>
      <trkpt lat="42.20576" lon="0.04437">
        <ele>814.62</ele>
        <time>2021-08-02T14:40:50Z</time>
      </trkpt>
      <trkpt lat="42.2063" lon="0.04447">
        <ele>814.91</ele>
        <time>2021-08-02T14:40:53Z</time>
      </trkpt>
      <trkpt lat="42.20787" lon="0.04516">
        <ele>815.45</ele>
        <time>2021-08-02T14:41:02Z</time>
      </trkpt>
      <trkpt lat="42.20913" lon="0.04551">
        <ele>814.39</ele>
        <time>2021-08-02T14:41:10Z</time>
      </trkpt>
      <trkpt lat="42.20969" lon="0.04607">
        <ele>811.97</ele>
        <time>2021-08-02T14:41:15Z</time>
      </trkpt>
      <trkpt lat="42.20976" lon="0.04625">
        <ele>811.25</ele>
        <time>2021-08-02T14:41:16Z</time>
      </trkpt>
      <trkpt lat="42.20995" lon="0.04674">
        <ele>809.13</ele>
        <time>2021-08-02T14:41:19Z</time>
      </trkpt>
      <trkpt lat="42.2104" lon="0.04699">
        <ele>805.17</ele>
        <time>2021-08-02T14:41:24Z</time>
      </trkpt>
      <trkpt lat="42.21059" lon="0.04627">
        <ele>803.08</ele>
        <time>2021-08-02T14:41:28Z</time>
      </trkpt>
      <trkpt lat="42.21067" lon="0.04551">
        <ele>801.86</ele>
        <time>2021-08-02T14:41:32Z</time>
      </trkpt>
      <trkpt lat="42.21096" lon="0.04476">
        <ele>800.22</ele>
        <time>2021-08-02T14:41:37Z</time>
      </trkpt>
      <trkpt lat="42.21164" lon="0.04432">
        <ele>798.8</ele>
        <time>2021-08-02T14:41:43Z</time>
      </trkpt>
      <trkpt lat="42.21197" lon="0.0438">
        <ele>797.54</ele>
        <time>2021-08-02T14:41:48Z</time>
      </trkpt>
      <trkpt lat="42.21184" lon="0.04325">
        <ele>796.75</ele>
        <time>2021-08-02T14:41:52Z</time>
      </trkpt>
      <trkpt lat="42.21208" lon="0.04267">
        <ele>796.1</ele>
        <time>2021-08-02T14:41:56Z</time>
      </trkpt>
      <trkpt lat="42.21275" lon="0.04249">
        <ele>795.17</ele>
        <time>2021-08-02T14:42:01Z</time>
      </trkpt>
      <trkpt lat="42.21339" lon="0.04308">
        <ele>792.99</ele>
        <time>2021-08-02T14:42:07Z</time>
      </trkpt>
      <trkpt lat="42.21374" lon="0.0437">
        <ele>789.82</ele>
        <time>2021-08-02T14:42:12Z</time>
      </trkpt>
      <trkpt lat="42.2144" lon="0.04377">
        <ele>786.48</ele>
        <time>2021-08-02T14:42:17Z</time>
      </trkpt>
      <trkpt lat="42.21475" lon="0.04334">
        <ele>783.56</ele>
        <time>2021-08-02T14:42:21Z</time>
      </trkpt>
      <trkpt lat="42.21505" lon="0.0422">
        <ele>779.33</ele>
        <time>2021-08-02T14:42:27Z</time>
      </trkpt>
      <trkpt lat="42.21513" lon="0.04171">
        <ele>777.23</ele>
        <time>2021-08-02T14:42:30Z</time>
      </trkpt>
      <trkpt lat="42.21518" lon="0.0414">
        <ele>774.7</ele>
        <time>2021-08-02T14:42:33Z</time>
      </trkpt>
      <trkpt lat="42.2152" lon="0.04121">
        <ele>770.41</ele>
        <time>2021-08-02T14:42:37Z</time>
      </trkpt>
      <trkpt lat="42.21522" lon="0.04111">
        <ele>769.23</ele>
        <time>2021-08-02T14:42:39Z</time>
      </trkpt>
      <trkpt lat="42.21534" lon="0.0409">
        <ele>766.89</ele>
        <time>2021-08-02T14:42:45Z</time>
      </trkpt>
      <trkpt lat="42.21557" lon="0.04062">
        <ele>766.32</ele>
        <time>2021-08-02T14:42:54Z</time>
      </trkpt>
      <trkpt lat="42.21544" lon="0.04064">
        <ele>766.7</ele>
        <time>2021-08-02T14:43:02Z</time>
      </trkpt>
      <trkpt lat="42.21528" lon="0.04097">
        <ele>766.13</ele>
        <time>2021-08-02T14:43:09Z</time>
      </trkpt>
      <trkpt lat="42.21525" lon="0.04124">
        <ele>765.34</ele>
        <time>2021-08-02T14:43:17Z</time>
      </trkpt>
      <trkpt lat="42.21529" lon="0.04121">
        <ele>765.32</ele>
        <time>2021-08-02T14:43:18Z</time>
      </trkpt>
      <trkpt lat="42.21541" lon="0.04112">
        <ele>765.27</ele>
        <time>2021-08-02T14:43:20Z</time>
      </trkpt>
      <trkpt lat="42.21599" lon="0.04144">
        <ele>764.43</ele>
        <time>2021-08-02T14:43:26Z</time>
      </trkpt>
      <trkpt lat="42.21607" lon="0.04228">
        <ele>762.56</ele>
        <time>2021-08-02T14:43:31Z</time>
      </trkpt>
      <trkpt lat="42.2159" lon="0.04328">
        <ele>758.96</ele>
        <time>2021-08-02T14:43:37Z</time>
      </trkpt>
      <trkpt lat="42.21585" lon="0.04407">
        <ele>755.1</ele>
        <time>2021-08-02T14:43:42Z</time>
      </trkpt>
      <trkpt lat="42.21547" lon="0.04487">
        <ele>750.57</ele>
        <time>2021-08-02T14:43:48Z</time>
      </trkpt>
      <trkpt lat="42.21536" lon="0.04492">
        <ele>749.74</ele>
        <time>2021-08-02T14:43:49Z</time>
      </trkpt>
      <trkpt lat="42.21502" lon="0.0455">
        <ele>744.69</ele>
        <time>2021-08-02T14:43:55Z</time>
      </trkpt>
      <trkpt lat="42.21502" lon="0.04563">
        <ele>743.89</ele>
        <time>2021-08-02T14:43:56Z</time>
      </trkpt>
      <trkpt lat="42.21481" lon="0.0461">
        <ele>739.01</ele>
        <time>2021-08-02T14:44:02Z</time>
      </trkpt>
      <trkpt lat="42.21443" lon="0.0463">
        <ele>735.51</ele>
        <time>2021-08-02T14:44:07Z</time>
      </trkpt>
      <trkpt lat="42.21412" lon="0.04665">
        <ele>732.95</ele>
        <time>2021-08-02T14:44:11Z</time>
      </trkpt>
      <trkpt lat="42.21413" lon="0.04708">
        <ele>730.08</ele>
        <time>2021-08-02T14:44:16Z</time>
      </trkpt>
      <trkpt lat="42.2144" lon="0.04704">
        <ele>729.01</ele>
        <time>2021-08-02T14:44:19Z</time>
      </trkpt>
      <trkpt lat="42.2149" lon="0.04695">
        <ele>727.25</ele>
        <time>2021-08-02T14:44:23Z</time>
      </trkpt>
      <trkpt lat="42.21551" lon="0.04666">
        <ele>724.52</ele>
        <time>2021-08-02T14:44:28Z</time>
      </trkpt>
      <trkpt lat="42.21617" lon="0.04669">
        <ele>720.77</ele>
        <time>2021-08-02T14:44:33Z</time>
      </trkpt>
      <trkpt lat="42.21645" lon="0.04721">
        <ele>717.14</ele>
        <time>2021-08-02T14:44:37Z</time>
      </trkpt>
      <trkpt lat="42.21658" lon="0.04787">
        <ele>713.64</ele>
        <time>2021-08-02T14:44:41Z</time>
      </trkpt>
      <trkpt lat="42.21659" lon="0.04892">
        <ele>708.21</ele>
        <time>2021-08-02T14:44:47Z</time>
      </trkpt>
      <trkpt lat="42.2168" lon="0.04954">
        <ele>702.77</ele>
        <time>2021-08-02T14:44:53Z</time>
      </trkpt>
      <trkpt lat="42.2172" lon="0.04927">
        <ele>699.44</ele>
        <time>2021-08-02T14:44:58Z</time>
      </trkpt>
      <trkpt lat="42.21723" lon="0.0491">
        <ele>699.06</ele>
        <time>2021-08-02T14:44:59Z</time>
      </trkpt>
      <trkpt lat="42.21729" lon="0.04874">
        <ele>698.33</ele>
        <time>2021-08-02T14:45:01Z</time>
      </trkpt>
      <trkpt lat="42.21737" lon="0.04762">
        <ele>697.02</ele>
        <time>2021-08-02T14:45:07Z</time>
      </trkpt>
      <trkpt lat="42.21754" lon="0.04702">
        <ele>697.06</ele>
        <time>2021-08-02T14:45:11Z</time>
      </trkpt>
      <trkpt lat="42.21768" lon="0.04674">
        <ele>697.34</ele>
        <time>2021-08-02T14:45:13Z</time>
      </trkpt>
      <trkpt lat="42.2184" lon="0.04591">
        <ele>699.62</ele>
        <time>2021-08-02T14:45:20Z</time>
      </trkpt>
      <trkpt lat="42.21889" lon="0.04565">
        <ele>701.54</ele>
        <time>2021-08-02T14:45:24Z</time>
      </trkpt>
      <trkpt lat="42.21955" lon="0.04557">
        <ele>703.89</ele>
        <time>2021-08-02T14:45:29Z</time>
      </trkpt>
      <trkpt lat="42.21992" lon="0.04579">
        <ele>705.24</ele>
        <time>2021-08-02T14:45:33Z</time>
      </trkpt>
      <trkpt lat="42.22029" lon="0.0464">
        <ele>705.75</ele>
        <time>2021-08-02T14:45:38Z</time>
      </trkpt>
      <trkpt lat="42.22093" lon="0.04669">
        <ele>706.07</ele>
        <time>2021-08-02T14:45:44Z</time>
      </trkpt>
      <trkpt lat="42.2215" lon="0.04717">
        <ele>705.9</ele>
        <time>2021-08-02T14:45:51Z</time>
      </trkpt>
      <trkpt lat="42.22151" lon="0.04752">
        <ele>705.73</ele>
        <time>2021-08-02T14:45:53Z</time>
      </trkpt>
      <trkpt lat="42.22151" lon="0.04877">
        <ele>705.28</ele>
        <time>2021-08-02T14:46:00Z</time>
      </trkpt>
      <trkpt lat="42.22162" lon="0.04925">
        <ele>704.64</ele>
        <time>2021-08-02T14:46:03Z</time>
      </trkpt>
      <trkpt lat="42.22154" lon="0.05028">
        <ele>702.76</ele>
        <time>2021-08-02T14:46:09Z</time>
      </trkpt>
      <trkpt lat="42.22124" lon="0.05126">
        <ele>699.88</ele>
        <time>2021-08-02T14:46:15Z</time>
      </trkpt>
      <trkpt lat="42.22126" lon="0.05164">
        <ele>699.2</ele>
        <time>2021-08-02T14:46:17Z</time>
      </trkpt>
      <trkpt lat="42.22118" lon="0.05234">
        <ele>697.49</ele>
        <time>2021-08-02T14:46:21Z</time>
      </trkpt>
      <trkpt lat="42.22147" lon="0.05279">
        <ele>695.65</ele>
        <time>2021-08-02T14:46:26Z</time>
      </trkpt>
      <trkpt lat="42.22181" lon="0.05231">
        <ele>695.13</ele>
        <time>2021-08-02T14:46:30Z</time>
      </trkpt>
      <trkpt lat="42.22208" lon="0.05132">
        <ele>695.93</ele>
        <time>2021-08-02T14:46:36Z</time>
      </trkpt>
      <trkpt lat="42.22256" lon="0.05109">
        <ele>697.29</ele>
        <time>2021-08-02T14:46:40Z</time>
      </trkpt>
      <trkpt lat="42.22271" lon="0.0511">
        <ele>697.94</ele>
        <time>2021-08-02T14:46:41Z</time>
      </trkpt>
      <trkpt lat="42.22366" lon="0.05112">
        <ele>701.68</ele>
        <time>2021-08-02T14:46:47Z</time>
      </trkpt>
      <trkpt lat="42.22381" lon="0.05113">
        <ele>702.29</ele>
        <time>2021-08-02T14:46:48Z</time>
      </trkpt>
      <trkpt lat="42.22409" lon="0.05121">
        <ele>703.63</ele>
        <time>2021-08-02T14:46:50Z</time>
      </trkpt>
      <trkpt lat="42.22422" lon="0.05131">
        <ele>704.41</ele>
        <time>2021-08-02T14:46:51Z</time>
      </trkpt>
      <trkpt lat="42.22436" lon="0.05142">
        <ele>705.19</ele>
        <time>2021-08-02T14:46:52Z</time>
      </trkpt>
      <trkpt lat="42.22449" lon="0.05153">
        <ele>705.91</ele>
        <time>2021-08-02T14:46:53Z</time>
      </trkpt>
      <trkpt lat="42.22536" lon="0.05219">
        <ele>710.27</ele>
        <time>2021-08-02T14:46:59Z</time>
      </trkpt>
      <trkpt lat="42.22595" lon="0.05253">
        <ele>711.86</ele>
        <time>2021-08-02T14:47:03Z</time>
      </trkpt>
      <trkpt lat="42.22644" lon="0.05221">
        <ele>711.24</ele>
        <time>2021-08-02T14:47:09Z</time>
      </trkpt>
      <trkpt lat="42.22648" lon="0.05192">
        <ele>710.48</ele>
        <time>2021-08-02T14:47:11Z</time>
      </trkpt>
      <trkpt lat="42.22662" lon="0.05112">
        <ele>709.86</ele>
        <time>2021-08-02T14:47:16Z</time>
      </trkpt>
      <trkpt lat="42.22708" lon="0.05072">
        <ele>710</ele>
        <time>2021-08-02T14:47:21Z</time>
      </trkpt>
      <trkpt lat="42.22759" lon="0.05085">
        <ele>709.99</ele>
        <time>2021-08-02T14:47:25Z</time>
      </trkpt>
      <trkpt lat="42.22803" lon="0.05113">
        <ele>709.71</ele>
        <time>2021-08-02T14:47:29Z</time>
      </trkpt>
      <trkpt lat="42.2286" lon="0.05175">
        <ele>708.94</ele>
        <time>2021-08-02T14:47:35Z</time>
      </trkpt>
      <trkpt lat="42.2289" lon="0.05251">
        <ele>708.57</ele>
        <time>2021-08-02T14:47:40Z</time>
      </trkpt>
      <trkpt lat="42.22907" lon="0.05385">
        <ele>708.06</ele>
        <time>2021-08-02T14:47:47Z</time>
      </trkpt>
      <trkpt lat="42.22949" lon="0.05483">
        <ele>707.24</ele>
        <time>2021-08-02T14:47:53Z</time>
      </trkpt>
      <trkpt lat="42.22948" lon="0.05536">
        <ele>706.62</ele>
        <time>2021-08-02T14:47:56Z</time>
      </trkpt>
      <trkpt lat="42.22936" lon="0.05592">
        <ele>705.82</ele>
        <time>2021-08-02T14:47:59Z</time>
      </trkpt>
      <trkpt lat="42.22917" lon="0.05642">
        <ele>704.88</ele>
        <time>2021-08-02T14:48:02Z</time>
      </trkpt>
      <trkpt lat="42.22922" lon="0.05707">
        <ele>702.89</ele>
        <time>2021-08-02T14:48:07Z</time>
      </trkpt>
      <trkpt lat="42.22977" lon="0.05692">
        <ele>700.95</ele>
        <time>2021-08-02T14:48:12Z</time>
      </trkpt>
      <trkpt lat="42.23003" lon="0.0567">
        <ele>700.88</ele>
        <time>2021-08-02T14:48:14Z</time>
      </trkpt>
      <trkpt lat="42.23127" lon="0.05616">
        <ele>704.09</ele>
        <time>2021-08-02T14:48:22Z</time>
      </trkpt>
      <trkpt lat="42.23171" lon="0.056">
        <ele>705.68</ele>
        <time>2021-08-02T14:48:25Z</time>
      </trkpt>
      <trkpt lat="42.23217" lon="0.05631">
        <ele>707</ele>
        <time>2021-08-02T14:48:30Z</time>
      </trkpt>
      <trkpt lat="42.23206" lon="0.05683">
        <ele>707.29</ele>
        <time>2021-08-02T14:48:33Z</time>
      </trkpt>
      <trkpt lat="42.23188" lon="0.0574">
        <ele>707.43</ele>
        <time>2021-08-02T14:48:36Z</time>
      </trkpt>
      <trkpt lat="42.23197" lon="0.05813">
        <ele>706.41</ele>
        <time>2021-08-02T14:48:41Z</time>
      </trkpt>
      <trkpt lat="42.23247" lon="0.05921">
        <ele>705.34</ele>
        <time>2021-08-02T14:48:47Z</time>
      </trkpt>
      <trkpt lat="42.23265" lon="0.06007">
        <ele>708.16</ele>
        <time>2021-08-02T14:48:51Z</time>
      </trkpt>
      <trkpt lat="42.23287" lon="0.06086">
        <ele>710.98</ele>
        <time>2021-08-02T14:48:55Z</time>
      </trkpt>
      <trkpt lat="42.23314" lon="0.06137">
        <ele>713.54</ele>
        <time>2021-08-02T14:48:58Z</time>
      </trkpt>
      <trkpt lat="42.2332" lon="0.06228">
        <ele>717.33</ele>
        <time>2021-08-02T14:49:03Z</time>
      </trkpt>
      <trkpt lat="42.23317" lon="0.06247">
        <ele>718.36</ele>
        <time>2021-08-02T14:49:04Z</time>
      </trkpt>
      <trkpt lat="42.23313" lon="0.06284">
        <ele>720.36</ele>
        <time>2021-08-02T14:49:06Z</time>
      </trkpt>
      <trkpt lat="42.23326" lon="0.06379">
        <ele>724.02</ele>
        <time>2021-08-02T14:49:11Z</time>
      </trkpt>
      <trkpt lat="42.23344" lon="0.06458">
        <ele>727.84</ele>
        <time>2021-08-02T14:49:15Z</time>
      </trkpt>
      <trkpt lat="42.23349" lon="0.06476">
        <ele>728.79</ele>
        <time>2021-08-02T14:49:16Z</time>
      </trkpt>
      <trkpt lat="42.23381" lon="0.06542">
        <ele>732.24</ele>
        <time>2021-08-02T14:49:20Z</time>
      </trkpt>
      <trkpt lat="42.23428" lon="0.06597">
        <ele>736.02</ele>
        <time>2021-08-02T14:49:24Z</time>
      </trkpt>
      <trkpt lat="42.23501" lon="0.06641">
        <ele>740.58</ele>
        <time>2021-08-02T14:49:29Z</time>
      </trkpt>
      <trkpt lat="42.23575" lon="0.06678">
        <ele>744.25</ele>
        <time>2021-08-02T14:49:34Z</time>
      </trkpt>
      <trkpt lat="42.23651" lon="0.06714">
        <ele>747.38</ele>
        <time>2021-08-02T14:49:39Z</time>
      </trkpt>
      <trkpt lat="42.23868" lon="0.06823">
        <ele>748.14</ele>
        <time>2021-08-02T14:49:52Z</time>
      </trkpt>
      <trkpt lat="42.24026" lon="0.06902">
        <ele>748.83</ele>
        <time>2021-08-02T14:50:02Z</time>
      </trkpt>
      <trkpt lat="42.24083" lon="0.0693">
        <ele>748.56</ele>
        <time>2021-08-02T14:50:06Z</time>
      </trkpt>
      <trkpt lat="42.24123" lon="0.07002">
        <ele>747.49</ele>
        <time>2021-08-02T14:50:11Z</time>
      </trkpt>
      <trkpt lat="42.24137" lon="0.07053">
        <ele>746.78</ele>
        <time>2021-08-02T14:50:14Z</time>
      </trkpt>
      <trkpt lat="42.24177" lon="0.07089">
        <ele>743.57</ele>
        <time>2021-08-02T14:50:19Z</time>
      </trkpt>
      <trkpt lat="42.24212" lon="0.07089">
        <ele>741.6</ele>
        <time>2021-08-02T14:50:22Z</time>
      </trkpt>
      <trkpt lat="42.24259" lon="0.07124">
        <ele>739.77</ele>
        <time>2021-08-02T14:50:28Z</time>
      </trkpt>
      <trkpt lat="42.24262" lon="0.07132">
        <ele>739.66</ele>
        <time>2021-08-02T14:50:29Z</time>
      </trkpt>
      <trkpt lat="42.24293" lon="0.07214">
        <ele>740.05</ele>
        <time>2021-08-02T14:50:39Z</time>
      </trkpt>
      <trkpt lat="42.24322" lon="0.07284">
        <ele>740.52</ele>
        <time>2021-08-02T14:50:50Z</time>
      </trkpt>
      <trkpt lat="42.24335" lon="0.073">
        <ele>740.59</ele>
        <time>2021-08-02T14:50:55Z</time>
      </trkpt>
      <trkpt lat="42.24338" lon="0.07302">
        <ele>739.97</ele>
        <time>2021-08-02T14:51:09Z</time>
      </trkpt>
      <trkpt lat="42.24338" lon="0.07302">
        <ele>739.92</ele>
        <time>2021-08-02T14:51:11Z</time>
      </trkpt>
      <trkpt lat="42.24332" lon="0.07299">
        <ele>740.6</ele>
        <time>2021-08-02T14:51:25Z</time>
      </trkpt>
      <trkpt lat="42.24332" lon="0.07299">
        <ele>740.65</ele>
        <time>2021-08-02T14:51:39Z</time>
      </trkpt>
      <trkpt lat="42.24342" lon="0.07305">
        <ele>740.88</ele>
        <time>2021-08-02T14:51:43Z</time>
      </trkpt>
      <trkpt lat="42.24344" lon="0.07314">
        <ele>741.23</ele>
        <time>2021-08-02T14:51:54Z</time>
      </trkpt>
      <trkpt lat="42.24343" lon="0.07316">
        <ele>741</ele>
        <time>2021-08-02T14:52:37Z</time>
      </trkpt>
      <trkpt lat="42.24344" lon="0.07314">
        <ele>740.99</ele>
        <time>2021-08-02T14:52:39Z</time>
      </trkpt>
      <trkpt lat="42.24351" lon="0.0731">
        <ele>740.81</ele>
        <time>2021-08-02T14:52:47Z</time>
      </trkpt>
      <trkpt lat="42.24332" lon="0.07299">
        <ele>740.98</ele>
        <time>2021-08-02T14:52:52Z</time>
      </trkpt>
      <trkpt lat="42.24288" lon="0.07208">
        <ele>742.74</ele>
        <time>2021-08-02T14:53:00Z</time>
      </trkpt>
      <trkpt lat="42.24254" lon="0.07126">
        <ele>743.28</ele>
        <time>2021-08-02T14:53:06Z</time>
      </trkpt>
      <trkpt lat="42.24207" lon="0.07088">
        <ele>742.48</ele>
        <time>2021-08-02T14:53:12Z</time>
      </trkpt>
      <trkpt lat="42.24198" lon="0.07088">
        <ele>740</ele>
        <time>2021-08-02T14:53:19Z</time>
      </trkpt>
      <trkpt lat="42.24196" lon="0.07087">
        <ele>738.3</ele>
        <time>2021-08-02T14:53:28Z</time>
      </trkpt>
      <trkpt lat="42.2417" lon="0.07086">
        <ele>738.25</ele>
        <time>2021-08-02T14:53:32Z</time>
      </trkpt>
      <trkpt lat="42.24132" lon="0.07048">
        <ele>739.45</ele>
        <time>2021-08-02T14:53:37Z</time>
      </trkpt>
      <trkpt lat="42.24103" lon="0.06957">
        <ele>742.76</ele>
        <time>2021-08-02T14:53:46Z</time>
      </trkpt>
      <trkpt lat="42.24103" lon="0.06956">
        <ele>741.92</ele>
        <time>2021-08-02T14:53:56Z</time>
      </trkpt>
      <trkpt lat="42.24098" lon="0.06937">
        <ele>741.8</ele>
        <time>2021-08-02T14:54:06Z</time>
      </trkpt>
      <trkpt lat="42.24111" lon="0.06935">
        <ele>743.12</ele>
        <time>2021-08-02T14:54:18Z</time>
      </trkpt>
      <trkpt lat="42.24111" lon="0.06935">
        <ele>743.86</ele>
        <time>2021-08-02T14:55:46Z</time>
      </trkpt>
      <trkpt lat="42.24116" lon="0.0694">
        <ele>743.69</ele>
        <time>2021-08-02T14:55:57Z</time>
      </trkpt>
      <trkpt lat="42.24111" lon="0.06937">
        <ele>743.42</ele>
        <time>2021-08-02T14:56:02Z</time>
      </trkpt>
      <trkpt lat="42.24105" lon="0.06945">
        <ele>743.59</ele>
        <time>2021-08-02T14:56:05Z</time>
      </trkpt>
      <trkpt lat="42.24118" lon="0.07013">
        <ele>743.93</ele>
        <time>2021-08-02T14:56:12Z</time>
      </trkpt>
      <trkpt lat="42.24127" lon="0.07045">
        <ele>743.88</ele>
        <time>2021-08-02T14:56:14Z</time>
      </trkpt>
      <trkpt lat="42.24183" lon="0.07091">
        <ele>742.49</ele>
        <time>2021-08-02T14:56:20Z</time>
      </trkpt>
      <trkpt lat="42.2426" lon="0.0714">
        <ele>741.78</ele>
        <time>2021-08-02T14:56:26Z</time>
      </trkpt>
      <trkpt lat="42.24268" lon="0.0716">
        <ele>741.96</ele>
        <time>2021-08-02T14:56:27Z</time>
      </trkpt>
      <trkpt lat="42.2431" lon="0.07265">
        <ele>744.13</ele>
        <time>2021-08-02T14:56:32Z</time>
      </trkpt>
      <trkpt lat="42.2436" lon="0.07315">
        <ele>746.08</ele>
        <time>2021-08-02T14:56:36Z</time>
      </trkpt>
      <trkpt lat="42.2443" lon="0.073">
        <ele>746.17</ele>
        <time>2021-08-02T14:56:41Z</time>
      </trkpt>
      <trkpt lat="42.24444" lon="0.07243">
        <ele>745.67</ele>
        <time>2021-08-02T14:56:44Z</time>
      </trkpt>
      <trkpt lat="42.24464" lon="0.07054">
        <ele>747.34</ele>
        <time>2021-08-02T14:56:52Z</time>
      </trkpt>
      <trkpt lat="42.24492" lon="0.0697">
        <ele>750.15</ele>
        <time>2021-08-02T14:56:56Z</time>
      </trkpt>
      <trkpt lat="42.2452" lon="0.06916">
        <ele>752.27</ele>
        <time>2021-08-02T14:56:59Z</time>
      </trkpt>
      <trkpt lat="42.24612" lon="0.06824">
        <ele>756.47</ele>
        <time>2021-08-02T14:57:07Z</time>
      </trkpt>
      <trkpt lat="42.24658" lon="0.06783">
        <ele>760.18</ele>
        <time>2021-08-02T14:57:11Z</time>
      </trkpt>
      <trkpt lat="42.24685" lon="0.06761">
        <ele>762.49</ele>
        <time>2021-08-02T14:57:14Z</time>
      </trkpt>
      <trkpt lat="42.24738" lon="0.06747">
        <ele>765.51</ele>
        <time>2021-08-02T14:57:19Z</time>
      </trkpt>
      <trkpt lat="42.2479" lon="0.06743">
        <ele>766.06</ele>
        <time>2021-08-02T14:57:23Z</time>
      </trkpt>
      <trkpt lat="42.24834" lon="0.06768">
        <ele>765.02</ele>
        <time>2021-08-02T14:57:27Z</time>
      </trkpt>
      <trkpt lat="42.24895" lon="0.06801">
        <ele>763.39</ele>
        <time>2021-08-02T14:57:32Z</time>
      </trkpt>
      <trkpt lat="42.25033" lon="0.06821">
        <ele>761.72</ele>
        <time>2021-08-02T14:57:40Z</time>
      </trkpt>
      <trkpt lat="42.2505" lon="0.06825">
        <ele>761.58</ele>
        <time>2021-08-02T14:57:41Z</time>
      </trkpt>
      <trkpt lat="42.25119" lon="0.06822">
        <ele>760.35</ele>
        <time>2021-08-02T14:57:45Z</time>
      </trkpt>
      <trkpt lat="42.25152" lon="0.06813">
        <ele>759.73</ele>
        <time>2021-08-02T14:57:47Z</time>
      </trkpt>
      <trkpt lat="42.25268" lon="0.06831">
        <ele>757.95</ele>
        <time>2021-08-02T14:57:54Z</time>
      </trkpt>
      <trkpt lat="42.25391" lon="0.06864">
        <ele>757.76</ele>
        <time>2021-08-02T14:58:01Z</time>
      </trkpt>
      <trkpt lat="42.25435" lon="0.06928">
        <ele>755.31</ele>
        <time>2021-08-02T14:58:06Z</time>
      </trkpt>
      <trkpt lat="42.25435" lon="0.06949">
        <ele>754.66</ele>
        <time>2021-08-02T14:58:07Z</time>
      </trkpt>
      <trkpt lat="42.25433" lon="0.07013">
        <ele>753.47</ele>
        <time>2021-08-02T14:58:10Z</time>
      </trkpt>
      <trkpt lat="42.2547" lon="0.07068">
        <ele>751.18</ele>
        <time>2021-08-02T14:58:14Z</time>
      </trkpt>
      <trkpt lat="42.25566" lon="0.07124">
        <ele>747.06</ele>
        <time>2021-08-02T14:58:20Z</time>
      </trkpt>
      <trkpt lat="42.25782" lon="0.07257">
        <ele>747.77</ele>
        <time>2021-08-02T14:58:33Z</time>
      </trkpt>
      <trkpt lat="42.25814" lon="0.07276">
        <ele>748.01</ele>
        <time>2021-08-02T14:58:35Z</time>
      </trkpt>
      <trkpt lat="42.25907" lon="0.07266">
        <ele>747.41</ele>
        <time>2021-08-02T14:58:41Z</time>
      </trkpt>
      <trkpt lat="42.26076" lon="0.07164">
        <ele>746.76</ele>
        <time>2021-08-02T14:58:51Z</time>
      </trkpt>
      <trkpt lat="42.26125" lon="0.07109">
        <ele>746.74</ele>
        <time>2021-08-02T14:58:55Z</time>
      </trkpt>
      <trkpt lat="42.26202" lon="0.06951">
        <ele>748.83</ele>
        <time>2021-08-02T14:59:03Z</time>
      </trkpt>
      <trkpt lat="42.26219" lon="0.06915">
        <ele>749.59</ele>
        <time>2021-08-02T14:59:05Z</time>
      </trkpt>
      <trkpt lat="42.26239" lon="0.06803">
        <ele>753.26</ele>
        <time>2021-08-02T14:59:10Z</time>
      </trkpt>
      <trkpt lat="42.26235" lon="0.06698">
        <ele>757.1</ele>
        <time>2021-08-02T14:59:14Z</time>
      </trkpt>
      <trkpt lat="42.26227" lon="0.06617">
        <ele>760.4</ele>
        <time>2021-08-02T14:59:17Z</time>
      </trkpt>
      <trkpt lat="42.26218" lon="0.06509">
        <ele>764.51</ele>
        <time>2021-08-02T14:59:21Z</time>
      </trkpt>
      <trkpt lat="42.26206" lon="0.06402">
        <ele>768.2</ele>
        <time>2021-08-02T14:59:25Z</time>
      </trkpt>
      <trkpt lat="42.2619" lon="0.06305">
        <ele>771.48</ele>
        <time>2021-08-02T14:59:29Z</time>
      </trkpt>
      <trkpt lat="42.2616" lon="0.06237">
        <ele>774.8</ele>
        <time>2021-08-02T14:59:33Z</time>
      </trkpt>
      <trkpt lat="42.26142" lon="0.06208">
        <ele>775.86</ele>
        <time>2021-08-02T14:59:35Z</time>
      </trkpt>
      <trkpt lat="42.2613" lon="0.06117">
        <ele>778.16</ele>
        <time>2021-08-02T14:59:41Z</time>
      </trkpt>
      <trkpt lat="42.26167" lon="0.06074">
        <ele>780.21</ele>
        <time>2021-08-02T14:59:46Z</time>
      </trkpt>
      <trkpt lat="42.26195" lon="0.06089">
        <ele>781.26</ele>
        <time>2021-08-02T14:59:49Z</time>
      </trkpt>
      <trkpt lat="42.2626" lon="0.06141">
        <ele>785.09</ele>
        <time>2021-08-02T14:59:57Z</time>
      </trkpt>
      <trkpt lat="42.26312" lon="0.06188">
        <ele>788.35</ele>
        <time>2021-08-02T15:00:02Z</time>
      </trkpt>
      <trkpt lat="42.26358" lon="0.06229">
        <ele>791.79</ele>
        <time>2021-08-02T15:00:06Z</time>
      </trkpt>
      <trkpt lat="42.26393" lon="0.06265">
        <ele>794.5</ele>
        <time>2021-08-02T15:00:09Z</time>
      </trkpt>
      <trkpt lat="42.26439" lon="0.06341">
        <ele>799.09</ele>
        <time>2021-08-02T15:00:14Z</time>
      </trkpt>
      <trkpt lat="42.26495" lon="0.06354">
        <ele>803.68</ele>
        <time>2021-08-02T15:00:19Z</time>
      </trkpt>
      <trkpt lat="42.26507" lon="0.06347">
        <ele>804.46</ele>
        <time>2021-08-02T15:00:20Z</time>
      </trkpt>
      <trkpt lat="42.26546" lon="0.06319">
        <ele>806.84</ele>
        <time>2021-08-02T15:00:23Z</time>
      </trkpt>
      <trkpt lat="42.266" lon="0.06324">
        <ele>811.5</ele>
        <time>2021-08-02T15:00:28Z</time>
      </trkpt>
      <trkpt lat="42.26595" lon="0.06376">
        <ele>813.89</ele>
        <time>2021-08-02T15:00:31Z</time>
      </trkpt>
      <trkpt lat="42.266" lon="0.06492">
        <ele>819.64</ele>
        <time>2021-08-02T15:00:37Z</time>
      </trkpt>
      <trkpt lat="42.26631" lon="0.06542">
        <ele>822.53</ele>
        <time>2021-08-02T15:00:40Z</time>
      </trkpt>
      <trkpt lat="42.26692" lon="0.06617">
        <ele>827.34</ele>
        <time>2021-08-02T15:00:45Z</time>
      </trkpt>
      <trkpt lat="42.26734" lon="0.06647">
        <ele>831.64</ele>
        <time>2021-08-02T15:00:48Z</time>
      </trkpt>
      <trkpt lat="42.26776" lon="0.06647">
        <ele>835.08</ele>
        <time>2021-08-02T15:00:51Z</time>
      </trkpt>
      <trkpt lat="42.2679" lon="0.0664">
        <ele>836.11</ele>
        <time>2021-08-02T15:00:52Z</time>
      </trkpt>
      <trkpt lat="42.26831" lon="0.06617">
        <ele>839.25</ele>
        <time>2021-08-02T15:00:55Z</time>
      </trkpt>
      <trkpt lat="42.26889" lon="0.06635">
        <ele>843.48</ele>
        <time>2021-08-02T15:01:00Z</time>
      </trkpt>
      <trkpt lat="42.26917" lon="0.06669">
        <ele>845.85</ele>
        <time>2021-08-02T15:01:03Z</time>
      </trkpt>
      <trkpt lat="42.26928" lon="0.06748">
        <ele>848.71</ele>
        <time>2021-08-02T15:01:08Z</time>
      </trkpt>
      <trkpt lat="42.26942" lon="0.06849">
        <ele>853.03</ele>
        <time>2021-08-02T15:01:14Z</time>
      </trkpt>
      <trkpt lat="42.26953" lon="0.06864">
        <ele>853.91</ele>
        <time>2021-08-02T15:01:15Z</time>
      </trkpt>
      <trkpt lat="42.27013" lon="0.06929">
        <ele>858.19</ele>
        <time>2021-08-02T15:01:20Z</time>
      </trkpt>
      <trkpt lat="42.27035" lon="0.06951">
        <ele>859.71</ele>
        <time>2021-08-02T15:01:22Z</time>
      </trkpt>
      <trkpt lat="42.27086" lon="0.06962">
        <ele>862.5</ele>
        <time>2021-08-02T15:01:26Z</time>
      </trkpt>
      <trkpt lat="42.27162" lon="0.06947">
        <ele>866.28</ele>
        <time>2021-08-02T15:01:31Z</time>
      </trkpt>
      <trkpt lat="42.27222" lon="0.06952">
        <ele>869.71</ele>
        <time>2021-08-02T15:01:35Z</time>
      </trkpt>
      <trkpt lat="42.27282" lon="0.06956">
        <ele>873.13</ele>
        <time>2021-08-02T15:01:39Z</time>
      </trkpt>
      <trkpt lat="42.27351" lon="0.06998">
        <ele>876.42</ele>
        <time>2021-08-02T15:01:44Z</time>
      </trkpt>
      <trkpt lat="42.27497" lon="0.07185">
        <ele>877.57</ele>
        <time>2021-08-02T15:01:57Z</time>
      </trkpt>
      <trkpt lat="42.27505" lon="0.072">
        <ele>877.5</ele>
        <time>2021-08-02T15:01:58Z</time>
      </trkpt>
      <trkpt lat="42.2755" lon="0.07239">
        <ele>877.29</ele>
        <time>2021-08-02T15:02:02Z</time>
      </trkpt>
      <trkpt lat="42.27642" lon="0.07271">
        <ele>877.1</ele>
        <time>2021-08-02T15:02:09Z</time>
      </trkpt>
      <trkpt lat="42.27687" lon="0.07325">
        <ele>877.05</ele>
        <time>2021-08-02T15:02:14Z</time>
      </trkpt>
      <trkpt lat="42.27712" lon="0.07361">
        <ele>877.56</ele>
        <time>2021-08-02T15:02:17Z</time>
      </trkpt>
      <trkpt lat="42.27739" lon="0.07434">
        <ele>877.76</ele>
        <time>2021-08-02T15:02:23Z</time>
      </trkpt>
      <trkpt lat="42.27747" lon="0.07522">
        <ele>877.22</ele>
        <time>2021-08-02T15:02:29Z</time>
      </trkpt>
      <trkpt lat="42.27771" lon="0.0753">
        <ele>876.21</ele>
        <time>2021-08-02T15:02:31Z</time>
      </trkpt>
      <trkpt lat="42.27836" lon="0.07564">
        <ele>872.25</ele>
        <time>2021-08-02T15:02:37Z</time>
      </trkpt>
      <trkpt lat="42.27867" lon="0.07628">
        <ele>870.94</ele>
        <time>2021-08-02T15:02:42Z</time>
      </trkpt>
      <trkpt lat="42.279" lon="0.07685">
        <ele>870.92</ele>
        <time>2021-08-02T15:02:47Z</time>
      </trkpt>
      <trkpt lat="42.27957" lon="0.0773">
        <ele>870.64</ele>
        <time>2021-08-02T15:02:53Z</time>
      </trkpt>
      <trkpt lat="42.27982" lon="0.07765">
        <ele>870.29</ele>
        <time>2021-08-02T15:02:56Z</time>
      </trkpt>
      <trkpt lat="42.28013" lon="0.07846">
        <ele>868.32</ele>
        <time>2021-08-02T15:03:02Z</time>
      </trkpt>
      <trkpt lat="42.28047" lon="0.0785">
        <ele>867.08</ele>
        <time>2021-08-02T15:03:05Z</time>
      </trkpt>
      <trkpt lat="42.28085" lon="0.07844">
        <ele>865.55</ele>
        <time>2021-08-02T15:03:08Z</time>
      </trkpt>
      <trkpt lat="42.28132" lon="0.07875">
        <ele>862.13</ele>
        <time>2021-08-02T15:03:13Z</time>
      </trkpt>
      <trkpt lat="42.28122" lon="0.07919">
        <ele>859.75</ele>
        <time>2021-08-02T15:03:16Z</time>
      </trkpt>
      <trkpt lat="42.2811" lon="0.07963">
        <ele>857.56</ele>
        <time>2021-08-02T15:03:19Z</time>
      </trkpt>
      <trkpt lat="42.28127" lon="0.0803">
        <ele>854.66</ele>
        <time>2021-08-02T15:03:24Z</time>
      </trkpt>
      <trkpt lat="42.28152" lon="0.08036">
        <ele>853.37</ele>
        <time>2021-08-02T15:03:26Z</time>
      </trkpt>
      <trkpt lat="42.28224" lon="0.08049">
        <ele>849.41</ele>
        <time>2021-08-02T15:03:32Z</time>
      </trkpt>
      <trkpt lat="42.28249" lon="0.08055">
        <ele>848.16</ele>
        <time>2021-08-02T15:03:34Z</time>
      </trkpt>
      <trkpt lat="42.2833" lon="0.08032">
        <ele>845.27</ele>
        <time>2021-08-02T15:03:40Z</time>
      </trkpt>
      <trkpt lat="42.28397" lon="0.07984">
        <ele>844.6</ele>
        <time>2021-08-02T15:03:46Z</time>
      </trkpt>
      <trkpt lat="42.28496" lon="0.07956">
        <ele>848.13</ele>
        <time>2021-08-02T15:03:53Z</time>
      </trkpt>
      <trkpt lat="42.28559" lon="0.07939">
        <ele>851.46</ele>
        <time>2021-08-02T15:03:57Z</time>
      </trkpt>
      <trkpt lat="42.28626" lon="0.07922">
        <ele>854.85</ele>
        <time>2021-08-02T15:04:01Z</time>
      </trkpt>
      <trkpt lat="42.28718" lon="0.07898">
        <ele>858.07</ele>
        <time>2021-08-02T15:04:06Z</time>
      </trkpt>
      <trkpt lat="42.28781" lon="0.07854">
        <ele>859.45</ele>
        <time>2021-08-02T15:04:10Z</time>
      </trkpt>
      <trkpt lat="42.28848" lon="0.07771">
        <ele>861.02</ele>
        <time>2021-08-02T15:04:15Z</time>
      </trkpt>
      <trkpt lat="42.28881" lon="0.07674">
        <ele>861.24</ele>
        <time>2021-08-02T15:04:20Z</time>
      </trkpt>
      <trkpt lat="42.28875" lon="0.07606">
        <ele>861.09</ele>
        <time>2021-08-02T15:04:23Z</time>
      </trkpt>
      <trkpt lat="42.28865" lon="0.07541">
        <ele>860.59</ele>
        <time>2021-08-02T15:04:26Z</time>
      </trkpt>
      <trkpt lat="42.28824" lon="0.07449">
        <ele>858.76</ele>
        <time>2021-08-02T15:04:31Z</time>
      </trkpt>
      <trkpt lat="42.28803" lon="0.07422">
        <ele>857.91</ele>
        <time>2021-08-02T15:04:33Z</time>
      </trkpt>
      <trkpt lat="42.28788" lon="0.07344">
        <ele>855.1</ele>
        <time>2021-08-02T15:04:38Z</time>
      </trkpt>
      <trkpt lat="42.288" lon="0.07309">
        <ele>854.24</ele>
        <time>2021-08-02T15:04:40Z</time>
      </trkpt>
      <trkpt lat="42.28815" lon="0.07275">
        <ele>853.66</ele>
        <time>2021-08-02T15:04:42Z</time>
      </trkpt>
      <trkpt lat="42.28896" lon="0.0721">
        <ele>852.73</ele>
        <time>2021-08-02T15:04:48Z</time>
      </trkpt>
      <trkpt lat="42.29035" lon="0.0719">
        <ele>852.47</ele>
        <time>2021-08-02T15:04:56Z</time>
      </trkpt>
      <trkpt lat="42.29271" lon="0.07181">
        <ele>852.92</ele>
        <time>2021-08-02T15:05:08Z</time>
      </trkpt>
      <trkpt lat="42.29465" lon="0.07171">
        <ele>852.89</ele>
        <time>2021-08-02T15:05:18Z</time>
      </trkpt>
      <trkpt lat="42.29533" lon="0.07199">
        <ele>852.87</ele>
        <time>2021-08-02T15:05:22Z</time>
      </trkpt>
      <trkpt lat="42.29565" lon="0.07223">
        <ele>852.46</ele>
        <time>2021-08-02T15:05:24Z</time>
      </trkpt>
      <trkpt lat="42.29632" lon="0.07243">
        <ele>851.78</ele>
        <time>2021-08-02T15:05:28Z</time>
      </trkpt>
      <trkpt lat="42.29678" lon="0.07243">
        <ele>849.6</ele>
        <time>2021-08-02T15:05:33Z</time>
      </trkpt>
      <trkpt lat="42.29682" lon="0.07242">
        <ele>847.19</ele>
        <time>2021-08-02T15:05:36Z</time>
      </trkpt>
      <trkpt lat="42.29735" lon="0.07243">
        <ele>844.36</ele>
        <time>2021-08-02T15:05:43Z</time>
      </trkpt>
      <trkpt lat="42.29844" lon="0.07247">
        <ele>845.36</ele>
        <time>2021-08-02T15:05:50Z</time>
      </trkpt>
      <trkpt lat="42.29962" lon="0.07252">
        <ele>847.23</ele>
        <time>2021-08-02T15:05:58Z</time>
      </trkpt>
      <trkpt lat="42.2999" lon="0.07231">
        <ele>846.88</ele>
        <time>2021-08-02T15:06:02Z</time>
      </trkpt>
      <trkpt lat="42.30014" lon="0.07127">
        <ele>846.41</ele>
        <time>2021-08-02T15:06:11Z</time>
      </trkpt>
      <trkpt lat="42.30018" lon="0.07109">
        <ele>846.64</ele>
        <time>2021-08-02T15:06:12Z</time>
      </trkpt>
      <trkpt lat="42.30073" lon="0.0695">
        <ele>849.85</ele>
        <time>2021-08-02T15:06:20Z</time>
      </trkpt>
      <trkpt lat="42.3014" lon="0.06803">
        <ele>851.92</ele>
        <time>2021-08-02T15:06:28Z</time>
      </trkpt>
      <trkpt lat="42.30161" lon="0.06674">
        <ele>853.35</ele>
        <time>2021-08-02T15:06:35Z</time>
      </trkpt>
      <trkpt lat="42.30148" lon="0.06565">
        <ele>856.09</ele>
        <time>2021-08-02T15:06:41Z</time>
      </trkpt>
      <trkpt lat="42.3016" lon="0.06475">
        <ele>858.23</ele>
        <time>2021-08-02T15:06:46Z</time>
      </trkpt>
      <trkpt lat="42.30182" lon="0.06406">
        <ele>859.73</ele>
        <time>2021-08-02T15:06:50Z</time>
      </trkpt>
      <trkpt lat="42.30183" lon="0.06231">
        <ele>862.7</ele>
        <time>2021-08-02T15:06:59Z</time>
      </trkpt>
      <trkpt lat="42.30182" lon="0.06077">
        <ele>864.94</ele>
        <time>2021-08-02T15:07:06Z</time>
      </trkpt>
      <trkpt lat="42.30212" lon="0.05993">
        <ele>864.29</ele>
        <time>2021-08-02T15:07:11Z</time>
      </trkpt>
      <trkpt lat="42.30247" lon="0.0592">
        <ele>863.84</ele>
        <time>2021-08-02T15:07:16Z</time>
      </trkpt>
      <trkpt lat="42.30284" lon="0.05717">
        <ele>867.25</ele>
        <time>2021-08-02T15:07:26Z</time>
      </trkpt>
      <trkpt lat="42.30298" lon="0.05537">
        <ele>870.33</ele>
        <time>2021-08-02T15:07:34Z</time>
      </trkpt>
      <trkpt lat="42.30303" lon="0.05479">
        <ele>871</ele>
        <time>2021-08-02T15:07:37Z</time>
      </trkpt>
      <trkpt lat="42.30355" lon="0.05388">
        <ele>873.92</ele>
        <time>2021-08-02T15:07:44Z</time>
      </trkpt>
      <trkpt lat="42.30365" lon="0.0538">
        <ele>874.5</ele>
        <time>2021-08-02T15:07:45Z</time>
      </trkpt>
      <trkpt lat="42.30426" lon="0.05332">
        <ele>877.78</ele>
        <time>2021-08-02T15:07:50Z</time>
      </trkpt>
      <trkpt lat="42.3045" lon="0.05286">
        <ele>879.72</ele>
        <time>2021-08-02T15:07:54Z</time>
      </trkpt>
      <trkpt lat="42.30454" lon="0.05268">
        <ele>880.28</ele>
        <time>2021-08-02T15:07:56Z</time>
      </trkpt>
      <trkpt lat="42.30436" lon="0.05205">
        <ele>882.74</ele>
        <time>2021-08-02T15:08:02Z</time>
      </trkpt>
      <trkpt lat="42.30422" lon="0.0512">
        <ele>886.14</ele>
        <time>2021-08-02T15:08:10Z</time>
      </trkpt>
      <trkpt lat="42.30426" lon="0.05112">
        <ele>886.5</ele>
        <time>2021-08-02T15:08:11Z</time>
      </trkpt>
      <trkpt lat="42.30441" lon="0.05073">
        <ele>887.6</ele>
        <time>2021-08-02T15:08:16Z</time>
      </trkpt>
      <trkpt lat="42.30446" lon="0.05041">
        <ele>888.1</ele>
        <time>2021-08-02T15:08:19Z</time>
      </trkpt>
      <trkpt lat="42.30475" lon="0.05005">
        <ele>889.2</ele>
        <time>2021-08-02T15:08:24Z</time>
      </trkpt>
      <trkpt lat="42.30573" lon="0.04966">
        <ele>889.36</ele>
        <time>2021-08-02T15:08:33Z</time>
      </trkpt>
      <trkpt lat="42.30623" lon="0.04924">
        <ele>886.35</ele>
        <time>2021-08-02T15:08:38Z</time>
      </trkpt>
      <trkpt lat="42.30655" lon="0.04873">
        <ele>883.13</ele>
        <time>2021-08-02T15:08:42Z</time>
      </trkpt>
      <trkpt lat="42.30669" lon="0.04812">
        <ele>878.89</ele>
        <time>2021-08-02T15:08:46Z</time>
      </trkpt>
      <trkpt lat="42.3067" lon="0.04795">
        <ele>877.78</ele>
        <time>2021-08-02T15:08:47Z</time>
      </trkpt>
      <trkpt lat="42.30676" lon="0.04727">
        <ele>873.03</ele>
        <time>2021-08-02T15:08:51Z</time>
      </trkpt>
      <trkpt lat="42.30684" lon="0.04678">
        <ele>869.77</ele>
        <time>2021-08-02T15:08:54Z</time>
      </trkpt>
      <trkpt lat="42.30694" lon="0.04615">
        <ele>866.14</ele>
        <time>2021-08-02T15:08:58Z</time>
      </trkpt>
      <trkpt lat="42.30693" lon="0.04548">
        <ele>863.58</ele>
        <time>2021-08-02T15:09:02Z</time>
      </trkpt>
      <trkpt lat="42.30704" lon="0.04453">
        <ele>860.21</ele>
        <time>2021-08-02T15:09:10Z</time>
      </trkpt>
      <trkpt lat="42.30707" lon="0.04424">
        <ele>857.44</ele>
        <time>2021-08-02T15:09:21Z</time>
      </trkpt>
      <trkpt lat="42.30724" lon="0.04341">
        <ele>857.11</ele>
        <time>2021-08-02T15:09:29Z</time>
      </trkpt>
      <trkpt lat="42.30719" lon="0.04218">
        <ele>858.17</ele>
        <time>2021-08-02T15:09:38Z</time>
      </trkpt>
    </trkseg>
  </trk>
</gpx>